Provisional Data: Pine Creek near Telescope, PA


Please select a monitoring station.
Please select start date.
Please select start date.

Toggle Unit: C/F Toggle Unit: C/F
Sample Time Temperature (C) Temperature (F) Specific Conductivity (mS/cm) pH   Turbidity (NTU+) DO (mg/L)
6/29/2021 12:00:00 AM 16.95 62.51 0.079 7.23 3.61 8.64
6/29/2021 12:15:00 AM 16.86 62.348 0.079 7.23 3.85 8.66
6/29/2021 12:30:00 AM 16.76 62.168 0.079 7.23 3.31 8.69
6/29/2021 12:45:00 AM 16.67 62.006 0.079 7.23 3.29 8.7
6/29/2021 1:00:00 AM 16.58 61.844 0.079 7.23 3.59 8.72
6/29/2021 1:15:00 AM 16.49 61.682 0.079 7.23 3.45 8.74
6/29/2021 1:30:00 AM 16.41 61.538 0.079 7.23 3.21 8.76
6/29/2021 1:45:00 AM 16.32 61.376 0.08 7.23 3.61 8.78
6/29/2021 2:00:00 AM 16.24 61.232 0.08 7.23 3.09 8.8
6/29/2021 2:15:00 AM 16.16 61.088 0.08 7.22 4.91 8.8
6/29/2021 2:30:00 AM 16.09 60.962 0.08 7.23 4.63 8.83
6/29/2021 2:45:00 AM 16.01 60.818 0.08 7.23 3.79 8.85
6/29/2021 3:00:00 AM 15.94 60.692 0.08 7.23 2.98 8.86
6/29/2021 3:15:00 AM 15.86 60.548 0.08 7.23 3.74 8.87
6/29/2021 3:30:00 AM 15.79 60.422 0.08 7.23 4.21 8.89
6/29/2021 3:45:00 AM 15.72 60.296 0.08 7.22 4.51 8.91
6/29/2021 4:00:00 AM 15.65 60.17 0.08 7.23 3.79 8.93
6/29/2021 4:15:00 AM 15.58 60.044 0.08 7.23 3.22 8.95
6/29/2021 4:30:00 AM 15.51 59.918 0.08 7.22 3.18 8.96
6/29/2021 4:45:00 AM 15.44 59.792 0.08 7.22 4.09 8.97
6/29/2021 5:00:00 AM 15.38 59.684 0.08 7.22 4.58 8.99
6/29/2021 5:15:00 AM 15.31 59.558 0.08 7.22 3.81 9.01
6/29/2021 5:30:00 AM 15.25 59.45 0.08 7.22 3.39 9.02
6/29/2021 5:45:00 AM 15.19 59.342 0.08 7.22 3.49 9.04
6/29/2021 6:00:00 AM 15.14 59.252 0.08 7.22 3.54 9.07
6/29/2021 6:15:00 AM 15.08 59.144 0.08 7.22 3.45 9.1
6/29/2021 6:30:00 AM 15.03 59.054 0.08 7.23 2.97 9.14
6/29/2021 6:45:00 AM 14.99 58.982 0.08 7.24 3.03 9.18
6/29/2021 7:00:00 AM 14.95 58.91 0.08 7.25 3.4 9.22
6/29/2021 7:15:00 AM 14.92 58.856 0.08 7.26 3.07 9.26
6/29/2021 7:30:00 AM 14.91 58.838 0.08 7.25 3.29 9.3
6/29/2021 7:45:00 AM 14.9 58.82 0.08 7.27 3.2 9.34
6/29/2021 8:00:00 AM 14.91 58.838 0.079 7.28 2.84 9.39
6/29/2021 8:15:00 AM 14.93 58.874 0.079 7.29 3.26 9.43
6/29/2021 8:30:00 AM 14.95 58.91 0.079 7.3 2.83 9.46
6/29/2021 8:45:00 AM 14.99 58.982 0.079 7.31 2.9 9.49
6/29/2021 9:00:00 AM 15.04 59.072 0.079 7.33 2.78 9.52
6/29/2021 9:15:00 AM 15.1 59.18 0.079 7.34 2.98 9.54
6/29/2021 9:30:00 AM 15.18 59.324 0.079 7.36 3.07 9.56
6/29/2021 9:45:00 AM 15.28 59.504 0.079 7.37 3.09 9.58
6/29/2021 10:00:00 AM 15.42 59.756 0.079 7.39 3.77 9.59
6/29/2021 10:15:00 AM 15.56 60.008 0.079 7.41 3.7 9.61
6/29/2021 10:30:00 AM 15.76 60.368 0.079 7.44 3.21 9.62
6/29/2021 10:45:00 AM 16 60.8 0.078 7.47 3.11 9.62
6/29/2021 11:00:00 AM 16.23 61.214 0.078 7.5 2.87 9.61
6/29/2021 11:15:00 AM 16.49 61.682 0.078 7.52 2.82 9.6
6/29/2021 11:30:00 AM 16.74 62.132 0.078 7.54 2.94 9.56
6/29/2021 11:45:00 AM 17.01 62.618 0.078 7.55 3.11 9.55
6/29/2021 12:00:00 PM 17.14 62.852 0.078 7.57 3.07 9.48
6/29/2021 12:15:00 PM 17.25 63.05 0.078 7.57 2.88 9.45
6/29/2021 12:30:00 PM 17.47 63.446 0.078 7.59 2.89 9.43
6/29/2021 12:45:00 PM 17.55 63.59 0.078 7.58 3.42 9.4
6/29/2021 1:00:00 PM 17.67 63.806 0.078 7.6 3.47 9.37
6/29/2021 1:15:00 PM 17.67 63.806 0.078 7.59 3.16 9.25
6/29/2021 1:30:00 PM 17.84 64.112 0.078 7.57 2.85 9.25
6/29/2021 1:45:00 PM 18.08 64.544 0.077 7.59 3.56 9.2
6/29/2021 2:00:00 PM 18.31 64.958 0.077 7.6 2.79 9.19
6/29/2021 2:15:00 PM 18.51 65.318 0.077 7.59 3.08 9.13
6/29/2021 2:30:00 PM 18.71 65.67799 0.077 7.6 3.35 9.06
6/29/2021 2:45:00 PM 18.91 66.038 0.077 7.6 3.39 8.98
6/29/2021 3:00:00 PM 19.2 66.56 0.077 7.6 2.93 8.96
6/29/2021 3:15:00 PM 19.35 66.83 0.077 7.59 2.95 8.88
6/29/2021 3:30:00 PM 19.48 67.064 0.077 7.58 2.87 8.81
6/29/2021 3:45:00 PM 19.6 67.28 0.077 7.57 3.39 8.76
6/29/2021 4:00:00 PM 19.74 67.532 0.077 7.56 3.27 8.72
6/29/2021 4:15:00 PM 19.86 67.748 0.077 7.56 3.51 8.7
6/29/2021 4:30:00 PM 19.89 67.802 0.077 7.54 3.95 8.64
6/29/2021 4:45:00 PM 19.86 67.748 0.077 7.52 3.92 8.62
6/29/2021 5:00:00 PM 19.82 67.676 0.077 7.51 3.14 8.6
6/29/2021 5:15:00 PM 19.75 67.55 0.077 7.5 5.7 8.59
6/29/2021 5:30:00 PM 19.71 67.478 0.077 7.5 3.01 8.59
6/29/2021 5:45:00 PM 19.68 67.424 0.077 7.49 3.07 8.55
6/29/2021 6:00:00 PM 19.64 67.352 0.078 7.47 3.09 8.52
6/29/2021 6:15:00 PM 19.58 67.244 0.078 7.46 3.32 8.51
6/29/2021 6:30:00 PM 19.52 67.136 0.078 7.44 2.94 8.47
6/29/2021 6:45:00 PM 19.45 67.01 0.078 7.42 3.04 8.44
6/29/2021 7:00:00 PM 19.37 66.866 0.078 7.41 3.07 8.44
6/29/2021 7:15:00 PM 19.29 66.722 0.078 7.39 3.07 8.42
6/29/2021 7:30:00 PM 19.19 66.542 0.078 7.38 3.18 8.41
6/29/2021 7:45:00 PM 19.09 66.362 0.078 7.37 3.22 8.39
6/29/2021 8:00:00 PM 18.99 66.182 0.079 7.35 3.28 8.38
6/29/2021 8:15:00 PM 18.89 66.002 0.079 7.34 3.15 8.36
6/29/2021 8:30:00 PM 18.8 65.84 0.079 7.32 2.99 8.33
6/29/2021 8:45:00 PM 18.73 65.714 0.079 7.31 3.28 8.31
6/29/2021 9:00:00 PM 18.65 65.57 0.079 7.31 2.92 8.31
6/29/2021 9:15:00 PM 18.56 65.408 0.079 7.29 3.21 8.31
6/29/2021 9:30:00 PM 18.48 65.264 0.079 7.28 3.36 8.31
6/29/2021 9:45:00 PM 18.39 65.102 0.08 7.27 3.11 8.32
6/29/2021 10:00:00 PM 18.3 64.94 0.08 7.26 3.33 8.33
6/29/2021 10:15:00 PM 18.21 64.778 0.081 7.24 3.16 8.34
6/29/2021 10:30:00 PM 18.14 64.652 0.08 7.24 3.18 8.35
6/29/2021 10:45:00 PM 18.06 64.508 0.08 7.23 3.27 8.37
6/29/2021 11:00:00 PM 17.99 64.382 0.08 7.22 3.18 8.37
6/29/2021 11:15:00 PM 17.99 64.382 0.079 7.24 3.67 8.41
6/29/2021 11:30:00 PM 17.9 64.22 0.08 7.25 4 8.39
6/29/2021 11:45:00 PM 17.83 64.094 0.08 7.24 3.67 8.36
6/30/2021 12:00:00 AM 17.72 63.896 0.08 7.24 3.46 8.39
6/30/2021 12:15:00 AM 17.62 63.716 0.08 7.25 3.64 8.41
6/30/2021 12:30:00 AM 17.51 63.518 0.08 7.25 3.79 8.44
6/30/2021 12:45:00 AM 17.41 63.338 0.08 7.25 3.52 8.47
6/30/2021 1:00:00 AM 17.31 63.158 0.08 7.25 3.53 8.5
6/30/2021 1:15:00 AM 17.21 62.978 0.08 7.25 3.19 8.52
6/30/2021 1:30:00 AM 17.12 62.816 0.081 7.24 3.66 8.54
6/30/2021 1:45:00 AM 17.03 62.654 0.08 7.24 4.36 8.58
6/30/2021 2:00:00 AM 16.94 62.492 0.08 7.24 4.08 8.6
6/30/2021 2:15:00 AM 16.85 62.33 0.08 7.22 4.06 8.63
6/30/2021 2:30:00 AM 16.75 62.15 0.08 7.22 4.98 8.67
6/30/2021 2:45:00 AM 16.64 61.952 0.079 7.22 5.85 8.7
6/30/2021 3:00:00 AM 16.53 61.754 0.079 7.23 5.99 8.75
6/30/2021 3:15:00 AM 16.44 61.592 0.079 7.23 5.64 8.78
6/30/2021 3:30:00 AM 16.34 61.412 0.079 7.24 5.57 8.8
6/30/2021 3:45:00 AM 16.27 61.286 0.08 7.24 5.69 8.83
6/30/2021 4:00:00 AM 16.21 61.178 0.081 7.25 5.14 8.84
6/30/2021 4:15:00 AM 16.17 61.106 0.081 7.27 5 8.85
6/30/2021 4:30:00 AM 16.13 61.034 0.081 7.27 4.67 8.85
6/30/2021 4:45:00 AM 16.1 60.98 0.08 7.26 4.71 8.86
6/30/2021 5:00:00 AM 16.07 60.926 0.079 7.26 4.18 8.85
6/30/2021 5:15:00 AM 16.04 60.872 0.079 7.25 4.45 8.86
6/30/2021 5:30:00 AM 16 60.8 0.078 7.26 4.77 8.86
6/30/2021 5:45:00 AM 15.97 60.746 0.078 7.25 4.57 8.86
6/30/2021 6:00:00 AM 15.94 60.692 0.077 7.26 4.88 8.87
6/30/2021 6:15:00 AM 15.92 60.656 0.077 7.27 4.63 8.89
6/30/2021 6:30:00 AM 15.89 60.602 0.077 7.27 4.72 8.91
6/30/2021 6:45:00 AM 15.87 60.566 0.077 7.27 4.34 8.94
6/30/2021 7:00:00 AM 15.85 60.53 0.078 7.29 4.56 8.98
6/30/2021 7:15:00 AM 15.87 60.566 0.078 7.3 4.4 9.03
6/30/2021 7:30:00 AM 15.87 60.566 0.078 7.31 4.17 9.07
6/30/2021 7:45:00 AM 15.86 60.548 0.078 7.32 4.25 9.06
6/30/2021 8:00:00 AM 15.86 60.548 0.078 7.32 4.09 9.08
6/30/2021 8:15:00 AM 15.87 60.566 0.078 7.33 4.03 9.12
6/30/2021 8:30:00 AM 15.9 60.62 0.078 7.33 3.9 9.16
6/30/2021 8:45:00 AM 15.95 60.71 0.078 7.36 3.5 9.23
6/30/2021 9:00:00 AM 16.01 60.818 0.078 7.38 3.57 9.3
6/30/2021 9:15:00 AM 16 60.8 0.078 7.37 3.67 9.2
6/30/2021 9:30:00 AM 16 60.8 0.078 7.36 3.99 9.17
6/30/2021 9:45:00 AM 16.05 60.89 0.078 7.37 3.56 9.23
6/30/2021 10:00:00 AM 16.11 60.998 0.078 7.4 3.54 9.29
6/30/2021 10:15:00 AM 16.2 61.16 0.078 7.42 3.4 9.34
6/30/2021 10:30:00 AM 16.4 61.52 0.078 7.45 3.48 9.38
6/30/2021 10:45:00 AM 16.54 61.772 0.077 7.5 3.43 9.41
6/30/2021 11:00:00 AM 16.74 62.132 0.077 7.51 3.51 9.41
6/30/2021 11:15:00 AM 16.98 62.564 0.077 7.54 3.36 9.4
6/30/2021 11:30:00 AM 17.18 62.924 0.077 7.56 3.8 9.39
6/30/2021 11:45:00 AM 17.28 63.104 0.077 7.56 3.96 9.33
6/30/2021 12:00:00 PM 17.29 63.122 0.077 7.55 3.56 9.27
6/30/2021 12:15:00 PM 17.47 63.446 0.077 7.56 3.56 9.31
6/30/2021 12:30:00 PM 17.6 63.68 0.077 7.57 3.71 9.29
6/30/2021 12:45:00 PM 17.7 63.86 0.077 7.58 3.42 9.27
6/30/2021 1:00:00 PM 17.82 64.076 0.077 7.56 3.14 9.22
6/30/2021 1:15:00 PM 18.08 64.544 0.077 7.59 3.55 9.22
6/30/2021 1:30:00 PM 18.14 64.652 0.077 7.62 3.2 9.17
6/30/2021 1:45:00 PM 18.39 65.102 0.077 7.63 3.28 9.15
6/30/2021 2:00:00 PM 18.57 65.426 0.077 7.62 3.4 9.07
6/30/2021 2:15:00 PM 18.66 65.588 0.077 7.6 3.12 9
6/30/2021 2:30:00 PM 18.76 65.768 0.077 7.59 3.35 8.93
6/30/2021 2:45:00 PM 18.98 66.164 0.077 7.57 3.22 8.89
6/30/2021 3:00:00 PM 19.07 66.326 0.077 7.58 3.66 8.87
6/30/2021 3:15:00 PM 19.07 66.326 0.077 7.58 3.19 8.84
6/30/2021 3:30:00 PM 19.02 66.236 0.077 7.52 3.27 8.74
6/30/2021 3:45:00 PM 19.06 66.308 0.077 7.53 3.23 8.71
6/30/2021 4:00:00 PM 19.06 66.308 0.077 7.52 3.09 8.59
6/30/2021 4:15:00 PM 19.02 66.236 0.077 7.51 3.98 8.64
6/30/2021 4:30:00 PM 18.96 66.128 0.077 7.53 3.27 8.7
6/30/2021 4:45:00 PM 18.87 65.966 0.078 7.51 3.38 8.7
6/30/2021 5:00:00 PM 18.83 65.894 0.078 7.5 3.14 8.66
6/30/2021 5:15:00 PM 18.82 65.876 0.078 7.48 3.72 8.58
6/30/2021 5:30:00 PM 18.76 65.768 0.078 7.45 3.25 8.5
6/30/2021 5:45:00 PM 18.67 65.606 0.078 7.42 3.36 8.46
6/30/2021 6:00:00 PM 18.56 65.408 0.078 7.4 3.41 8.42
6/30/2021 6:15:00 PM 18.46 65.228 0.078 7.37 3.79 8.41
6/30/2021 6:30:00 PM 18.37 65.066 0.078 7.37 3.47 8.41
6/30/2021 6:45:00 PM 18.3 64.94 0.078 7.36 3.14 8.42
6/30/2021 7:00:00 PM 18.22 64.796 0.078 7.36 3.42 8.42
6/30/2021 7:15:00 PM 18.14 64.652 0.078 7.35 3.32 8.42
6/30/2021 7:30:00 PM 18.05 64.49 0.078 7.33 4.25 8.42
6/30/2021 7:45:00 PM 17.96 64.328 0.078 7.32 3.93 8.42
6/30/2021 8:00:00 PM 17.87 64.166 0.078 7.31 3.53 8.42
6/30/2021 8:15:00 PM 17.79 64.022 0.078 7.29 3.26 8.43
6/30/2021 8:30:00 PM 17.7 63.86 0.079 7.29 3.33 8.44
6/30/2021 8:45:00 PM 17.62 63.716 0.079 7.28 3.23 8.45
6/30/2021 9:00:00 PM 17.54 63.572 0.079 7.27 3.5 8.46
6/30/2021 9:15:00 PM 17.46 63.428 0.079 7.26 3.85 8.47
6/30/2021 9:30:00 PM 17.37 63.266 0.079 7.26 3.37 8.49
6/30/2021 9:45:00 PM 17.29 63.122 0.079 7.25 3.53 8.5
6/30/2021 10:00:00 PM 17.21 62.978 0.079 7.25 3.17 8.52
6/30/2021 10:15:00 PM 17.13 62.834 0.079 7.24 3.56 8.53
6/30/2021 10:30:00 PM 17.06 62.708 0.079 7.23 3.39 8.54
6/30/2021 10:45:00 PM 16.98 62.564 0.079 7.22 3.58 8.57
6/30/2021 11:00:00 PM 16.91 62.438 0.079 7.23 3.42 8.59
6/30/2021 11:15:00 PM 16.84 62.312 0.079 7.22 3.21 8.6
6/30/2021 11:30:00 PM 16.77 62.186 0.08 7.23 3.17 8.61
6/30/2021 11:45:00 PM 16.7 62.06 0.08 7.22 3.67 8.62
7/1/2021 12:00:00 AM 16.64 61.952 0.08 7.22 3.6 8.64
7/1/2021 12:15:00 AM 16.58 61.844 0.08 7.22 3.82 8.66
7/1/2021 12:30:00 AM 16.52 61.736 0.08 7.22 3.45 8.67
7/1/2021 12:45:00 AM 16.46 61.628 0.08 7.22 3.32 8.68
7/1/2021 1:00:00 AM 16.41 61.538 0.08 7.22 3.27 8.68
7/1/2021 1:15:00 AM 16.36 61.448 0.08 7.22 3.51 8.7
7/1/2021 1:30:00 AM 16.31 61.358 0.081 7.22 3.48 8.71
7/1/2021 1:45:00 AM 16.26 61.268 0.081 7.21 3.65 8.73
7/1/2021 2:00:00 AM 16.21 61.178 0.081 7.21 3.23 8.73
7/1/2021 2:15:00 AM 16.17 61.106 0.081 7.21 3.03 8.74
7/1/2021 2:30:00 AM 16.13 61.034 0.081 7.2 3.22 8.74
7/1/2021 2:45:00 AM 16.09 60.962 0.081 7.19 3.17 8.74
7/1/2021 3:00:00 AM 16.05 60.89 0.081 7.19 3.12 8.75
7/1/2021 3:15:00 AM 16 60.8 0.081 7.19 3 8.77
7/1/2021 3:30:00 AM 15.97 60.746 0.081 7.19 3.12 8.77
7/1/2021 3:45:00 AM 15.94 60.692 0.08 7.18 3.6 8.78
7/1/2021 4:00:00 AM 15.9 60.62 0.081 7.18 3.6 8.77
7/1/2021 4:15:00 AM 15.87 60.566 0.08 7.17 3.68 8.78
7/1/2021 4:30:00 AM 15.85 60.53 0.08 7.17 3.16 8.79
7/1/2021 4:45:00 AM 15.82 60.476 0.08 7.18 3.42 8.79
7/1/2021 5:00:00 AM 15.78 60.404 0.08 7.17 3.28 8.8
7/1/2021 5:15:00 AM 15.76 60.368 0.08 7.16 3.63 8.8
7/1/2021 5:30:00 AM 15.73 60.314 0.079 7.17 3.34 8.81
7/1/2021 5:45:00 AM 15.7 60.26 0.079 7.16 4.34 8.83
7/1/2021 6:00:00 AM 15.67 60.206 0.079 7.17 5.26 8.85
7/1/2021 6:15:00 AM 15.63 60.134 0.078 7.17 6.7 8.89
7/1/2021 6:30:00 AM 15.63 60.134 0.075 7.19 7.05 8.91
7/1/2021 6:45:00 AM 15.62 60.116 0.074 7.2 6.18 8.93
7/1/2021 7:00:00 AM 15.59 60.062 0.074 7.21 6.22 8.95
7/1/2021 7:15:00 AM 15.55 59.99 0.074 7.21 5.72 8.99
7/1/2021 7:30:00 AM 15.52 59.936 0.072 7.21 5.45 9.02
7/1/2021 7:45:00 AM 15.48 59.864 0.071 7.22 5.57 9.04
7/1/2021 8:00:00 AM 15.45 59.81 0.07 7.23 5.52 9.07
7/1/2021 8:15:00 AM 15.42 59.756 0.069 7.24 5.15 9.09
7/1/2021 8:30:00 AM 15.4 59.72 0.07 7.24 5.04 9.1
7/1/2021 8:45:00 AM 15.37 59.666 0.071 7.24 4.64 9.1
7/1/2021 9:00:00 AM 15.35 59.63 0.072 7.25 4.52 9.13
7/1/2021 9:15:00 AM 15.34 59.612 0.074 7.26 4.34 9.13
7/1/2021 9:30:00 AM 15.34 59.612 0.075 7.26 4.38 9.14
7/1/2021 9:45:00 AM 15.36 59.648 0.076 7.27 4.12 9.18
7/1/2021 10:00:00 AM 15.39 59.702 0.076 7.3 4.09 9.21
7/1/2021 10:15:00 AM 15.42 59.756 0.076 7.31 4.95 9.21
7/1/2021 10:30:00 AM 15.45 59.81 0.076 7.31 3.89 9.18
7/1/2021 10:45:00 AM 15.47 59.846 0.076 7.3 4.06 9.15
7/1/2021 11:00:00 AM 15.48 59.864 0.076 7.31 4.12 9.19
7/1/2021 11:15:00 AM 15.49 59.882 0.076 7.32 3.88 9.21
7/1/2021 11:30:00 AM 15.51 59.918 0.076 7.34 3.9 9.21
7/1/2021 11:45:00 AM 15.54 59.972 0.076 7.36 4.29 9.22
7/1/2021 12:00:00 PM 15.58 60.044 0.076 7.37 4.58 9.28
7/1/2021 12:15:00 PM 15.61 60.098 0.076 7.39 4.56 9.3
7/1/2021 12:30:00 PM 15.63 60.134 0.076 7.4 4.78 9.28
7/1/2021 12:45:00 PM 15.65 60.17 0.076 7.4 4.81 9.25
7/1/2021 1:00:00 PM 15.69 60.242 0.076 7.42 4.79 9.28
7/1/2021 1:15:00 PM 15.7 60.26 0.077 7.42 4.4 9.3
7/1/2021 1:30:00 PM 15.74 60.332 0.077 7.45 4.63 9.34
7/1/2021 1:45:00 PM 15.83 60.494 0.077 7.47 4.1 9.38
7/1/2021 2:00:00 PM 15.9 60.62 0.077 7.49 4.38 9.4
7/1/2021 2:15:00 PM 15.95 60.71 0.077 7.5 4.46 9.38
7/1/2021 2:30:00 PM 16.03 60.854 0.077 7.5 4.78 9.37
7/1/2021 2:45:00 PM 16.09 60.962 0.077 7.51 4.6 9.35
7/1/2021 3:00:00 PM 16.12 61.016 0.077 7.51 4.58 9.33
7/1/2021 3:15:00 PM 16.15 61.07 0.077 7.51 4.51 9.32
7/1/2021 3:30:00 PM 16.19 61.142 0.077 7.52 4.53 9.31
7/1/2021 3:45:00 PM 16.22 61.196 0.078 7.52 4.25 9.29
7/1/2021 4:00:00 PM 16.22 61.196 0.078 7.51 4.29 9.23
7/1/2021 4:15:00 PM 16.28 61.304 0.078 7.52 4.3 9.25
7/1/2021 4:30:00 PM 16.31 61.358 0.078 7.52 4.04 9.26
7/1/2021 4:45:00 PM 16.32 61.376 0.078 7.52 3.85 9.23
7/1/2021 5:00:00 PM 16.34 61.412 0.079 7.51 4.04 9.19
7/1/2021 5:15:00 PM 16.36 61.448 0.079 7.49 6.6 9.17
7/1/2021 5:30:00 PM 16.35 61.43 0.079 7.48 4.57 9.15
7/1/2021 5:45:00 PM 16.33 61.394 0.079 7.49 4.48 9.11
7/1/2021 6:00:00 PM 16.3 61.34 0.079 7.46 3.94 9.07
7/1/2021 6:15:00 PM 16.27 61.286 0.079 7.44 3.93 9.02
7/1/2021 6:30:00 PM 16.23 61.214 0.08 7.43 4.22 9
7/1/2021 6:45:00 PM 16.19 61.142 0.08 7.41 3.88 8.97
7/1/2021 7:00:00 PM 16.15 61.07 0.08 7.39 3.75 8.94
7/1/2021 7:15:00 PM 16.12 61.016 0.08 7.36 5.21 8.92
7/1/2021 7:30:00 PM 16.09 60.962 0.08 7.36 4.31 8.91
7/1/2021 7:45:00 PM 16.06 60.908 0.081 7.36 3.69 8.91
7/1/2021 8:00:00 PM 16.02 60.836 0.081 7.35 3.87 8.89
7/1/2021 8:15:00 PM 15.98 60.764 0.081 7.34 3.77 8.88
7/1/2021 8:30:00 PM 15.95 60.71 0.081 7.32 4.03 8.88
7/1/2021 8:45:00 PM 15.9 60.62 0.081 7.31 3.58 8.86
7/1/2021 9:00:00 PM 15.85 60.53 0.081 7.31 3.79 8.85
7/1/2021 9:15:00 PM 15.81 60.458 0.081 7.3 3.53 8.84
7/1/2021 9:30:00 PM 15.76 60.368 0.081 7.28 3.99 8.84
7/1/2021 9:45:00 PM 15.71 60.278 0.081 7.28 3.76 8.84
7/1/2021 10:00:00 PM 15.66 60.188 0.081 7.29 3.9 8.85
7/1/2021 10:15:00 PM 15.62 60.116 0.082 7.29 3.99 8.86
7/1/2021 10:30:00 PM 15.58 60.044 0.082 7.29 3.73 8.87
7/1/2021 10:45:00 PM 15.53 59.954 0.082 7.29 3.73 8.88
7/1/2021 11:00:00 PM 15.48 59.864 0.082 7.28 3.56 8.88
7/1/2021 11:15:00 PM 15.43 59.774 0.082 7.29 3.12 8.89
7/1/2021 11:30:00 PM 15.38 59.684 0.082 7.28 3.21 8.9
7/1/2021 11:45:00 PM 15.33 59.594 0.082 7.28 3.37 8.9
7/2/2021 12:00:00 AM 15.29 59.522 0.082 7.29 3.79 8.92
7/2/2021 12:15:00 AM 15.24 59.432 0.082 7.29 3.38 8.93
7/2/2021 12:30:00 AM 15.19 59.342 0.082 7.29 3.37 8.94
7/2/2021 12:45:00 AM 15.15 59.27 0.082 7.3 3.72 8.95
7/2/2021 1:00:00 AM 15.11 59.198 0.082 7.29 3.52 8.95
7/2/2021 1:15:00 AM 15.06 59.108 0.082 7.29 3.66 8.97
7/2/2021 1:30:00 AM 15.01 59.018 0.082 7.29 3.56 8.97
7/2/2021 1:45:00 AM 14.96 58.928 0.082 7.3 3.34 8.99
7/2/2021 2:00:00 AM 14.9 58.82 0.082 7.31 3.12 9
7/2/2021 2:15:00 AM 14.85 58.73 0.082 7.3 3.38 9.01
7/2/2021 2:30:00 AM 14.82 58.676 0.082 7.3 3.45 9.02
7/2/2021 2:45:00 AM 14.78 58.604 0.082 7.3 3.38 9.02
7/2/2021 3:00:00 AM 14.75 58.55 0.082 7.3 3.27 9.03
7/2/2021 3:15:00 AM 14.72 58.496 0.082 7.3 3.47 9.04
7/2/2021 3:30:00 AM 14.69 58.442 0.082 7.31 3.26 9.04
7/2/2021 3:45:00 AM 14.66 58.388 0.082 7.3 3.83 9.05
7/2/2021 4:00:00 AM 14.62 58.316 0.082 7.31 3.45 9.06
7/2/2021 4:15:00 AM 14.59 58.262 0.082 7.3 3.21 9.06
7/2/2021 4:30:00 AM 14.55 58.19 0.082 7.3 2.8 9.07
7/2/2021 4:45:00 AM 14.52 58.136 0.082 7.3 3.48 9.08
7/2/2021 5:00:00 AM 14.48 58.064 0.082 7.3 3.38 9.09
7/2/2021 5:15:00 AM 14.45 58.01 0.082 7.3 3.78 9.1
7/2/2021 5:30:00 AM 14.42 57.956 0.082 7.31 3.37 9.1
7/2/2021 5:45:00 AM 14.39 57.902 0.082 7.31 3.23 9.12
7/2/2021 6:00:00 AM 14.36 57.848 0.083 7.31 3.11 9.13
7/2/2021 6:15:00 AM 14.33 57.794 0.082 7.31 3.16 9.15
7/2/2021 6:30:00 AM 14.31 57.758 0.082 7.31 3.07 9.16
7/2/2021 6:45:00 AM 14.28 57.704 0.082 7.32 3.34 9.18
7/2/2021 7:00:00 AM 14.26 57.668 0.082 7.32 2.96 9.2
7/2/2021 7:15:00 AM 14.25 57.65 0.082 7.32 3.25 9.24
7/2/2021 7:30:00 AM 14.24 57.632 0.082 7.34 2.96 9.28
7/2/2021 7:45:00 AM 14.24 57.632 0.082 7.35 3.11 9.34
7/2/2021 8:00:00 AM 14.23 57.614 0.082 7.36 2.94 9.34
7/2/2021 8:15:00 AM 14.22 57.596 0.082 7.36 3.13 9.33
7/2/2021 8:30:00 AM 14.23 57.614 0.082 7.37 2.92 9.36
7/2/2021 8:45:00 AM 14.24 57.632 0.082 7.38 2.95 9.4
7/2/2021 9:00:00 AM 14.24 57.632 0.082 7.39 3.12 9.4
7/2/2021 9:15:00 AM 14.23 57.614 0.082 7.39 3.2 9.37
7/2/2021 9:30:00 AM 14.23 57.614 0.082 7.39 3.37 9.36
7/2/2021 9:45:00 AM 14.27 57.686 0.082 7.4 2.82 9.45
7/2/2021 10:00:00 AM 14.31 57.758 0.082 7.43 2.98 9.5
7/2/2021 10:15:00 AM 14.35 57.83 0.082 7.44 3.14 9.56
7/2/2021 10:30:00 AM 14.42 57.956 0.081 7.46 3.35 9.6
7/2/2021 10:45:00 AM 14.57 58.226 0.081 7.49 3.05 9.65
7/2/2021 11:00:00 AM 14.68 58.424 0.081 7.49 3.36 9.62
7/2/2021 11:15:00 AM 14.75 58.55 0.081 7.51 3.05 9.63
7/2/2021 11:30:00 AM 14.87 58.766 0.081 7.53 3.13 9.64
7/2/2021 11:45:00 AM 14.99 58.982 0.081 7.54 3.09 9.64
7/2/2021 12:00:00 PM 15.28 59.504 0.081 7.54 3.08 9.61
7/2/2021 12:15:00 PM 15.34 59.612 0.081 7.55 3.39 9.56
7/2/2021 12:30:00 PM 15.45 59.81 0.081 7.55 3.02 9.49
7/2/2021 12:45:00 PM 15.54 59.972 0.081 7.54 3.14 9.42
7/2/2021 1:00:00 PM 15.61 60.098 0.081 7.52 3.05 9.34
7/2/2021 1:15:00 PM 15.57 60.026 0.081 7.51 3.55 9.3
7/2/2021 1:30:00 PM 15.69 60.242 0.081 7.51 3.08 9.38
7/2/2021 1:45:00 PM 15.79 60.422 0.081 7.54 3.23 9.4
7/2/2021 2:00:00 PM 15.86 60.548 0.081 7.54 2.98 9.39
7/2/2021 2:15:00 PM 16.02 60.836 0.081 7.54 3.14 9.34
7/2/2021 2:30:00 PM 16.13 61.034 0.081 7.54 3.03 9.27
7/2/2021 2:45:00 PM 16.29 61.322 0.081 7.53 3.17 9.2
7/2/2021 3:00:00 PM 16.49 61.682 0.081 7.53 3.4 9.19
7/2/2021 3:15:00 PM 16.64 61.952 0.081 7.53 3.04 9.16
7/2/2021 3:30:00 PM 16.65 61.97 0.081 7.53 3.36 9.1
7/2/2021 3:45:00 PM 16.63 61.934 0.081 7.52 863.88 9.03
7/2/2021 4:00:00 PM 16.56 61.808 0.081 7.5 4.35 9.01
7/2/2021 4:15:00 PM 16.43 61.574 0.081 7.49 3.94 8.97
7/2/2021 4:30:00 PM 16.27 61.286 0.081 7.47 5.26 8.95
7/2/2021 4:45:00 PM 16.11 60.998 0.081 7.46 3.63 8.95
7/2/2021 5:00:00 PM 15.98 60.764 0.081 7.45 3.39 8.97
7/2/2021 5:15:00 PM 15.91 60.638 0.081 7.45 3.16 9
7/2/2021 5:30:00 PM 15.86 60.548 0.081 7.45 3.27 9.05
7/2/2021 5:45:00 PM 15.82 60.476 0.081 7.46 3.67 9.1
7/2/2021 6:00:00 PM 15.79 60.422 0.081 7.46 3.36 9.11
7/2/2021 6:15:00 PM 15.77 60.386 0.081 7.46 3.57 9.1
7/2/2021 6:30:00 PM 15.74 60.332 0.081 7.46 3.11 9.08
7/2/2021 6:45:00 PM 15.72 60.296 0.081 7.45 2.94 9.07
7/2/2021 7:00:00 PM 15.66 60.188 0.081 7.44 3.54 9.04
7/2/2021 7:15:00 PM 15.59 60.062 0.081 7.43 3.4 9.02
7/2/2021 7:30:00 PM 15.5 59.9 0.081 7.41 3 9.01
7/2/2021 7:45:00 PM 15.41 59.738 0.081 7.41 3.23 9.01
7/2/2021 8:00:00 PM 15.3 59.54 0.081 7.4 3.43 9.02
7/2/2021 8:15:00 PM 15.21 59.378 0.081 7.39 3.14 9.03
7/2/2021 8:30:00 PM 15.13 59.234 0.082 7.39 3.08 9.02
7/2/2021 8:45:00 PM 15.04 59.072 0.082 7.38 3.18 9.02
7/2/2021 9:00:00 PM 14.96 58.928 0.082 7.37 3.19 9.01
7/2/2021 9:15:00 PM 14.88 58.784 0.082 7.36 3.21 9.01
7/2/2021 9:30:00 PM 14.8 58.64 0.082 7.35 3.54 9.02
7/2/2021 9:45:00 PM 14.73 58.514 0.082 7.34 3.42 9.03
7/2/2021 10:00:00 PM 14.67 58.406 0.082 7.34 3.36 9.04
7/2/2021 10:15:00 PM 14.6 58.28 0.082 7.35 3.29 9.05
7/2/2021 10:30:00 PM 14.55 58.19 0.082 7.34 3.2 9.06
7/2/2021 10:45:00 PM 14.49 58.082 0.082 7.34 3.09 9.08
7/2/2021 11:00:00 PM 14.43 57.974 0.082 7.33 3.03 9.1
7/2/2021 11:15:00 PM 14.37 57.866 0.082 7.33 3.45 9.12
7/2/2021 11:30:00 PM 14.3 57.74 0.082 7.32 3 9.13
7/2/2021 11:45:00 PM 14.25 57.65 0.082 7.32 2.95 9.15
7/3/2021 12:00:00 AM 14.2 57.56 0.082 7.32 3.4 9.16
7/3/2021 12:15:00 AM 14.15 57.47 0.083 7.32 2.78 9.17
7/3/2021 12:30:00 AM 14.1 57.38 0.083 7.32 3.18 9.18
7/3/2021 12:45:00 AM 14.07 57.326 0.083 7.32 3.34 9.19
7/3/2021 1:00:00 AM 14.03 57.254 0.083 7.32 3.03 9.2
7/3/2021 1:15:00 AM 13.99 57.182 0.083 7.32 3.08 9.21
7/3/2021 1:30:00 AM 13.97 57.146 0.083 7.32 3.3 9.21
7/3/2021 1:45:00 AM 13.94 57.092 0.083 7.31 3.44 9.21
7/3/2021 2:00:00 AM 13.91 57.038 0.083 7.32 2.95 9.22
7/3/2021 2:15:00 AM 13.88 56.984 0.082 7.31 3.01 9.22
7/3/2021 2:30:00 AM 13.86 56.948 0.082 7.31 3.37 9.23
7/3/2021 2:45:00 AM 13.83 56.894 0.082 7.3 2.95 9.24
7/3/2021 3:00:00 AM 13.8 56.84 0.082 7.3 3.25 9.24
7/3/2021 3:15:00 AM 13.78 56.804 0.082 7.3 3.24 9.25
7/3/2021 3:30:00 AM 13.75 56.75 0.082 7.31 3.1 9.26
7/3/2021 3:45:00 AM 13.73 56.714 0.082 7.3 3.1 9.27
7/3/2021 4:00:00 AM 13.7 56.66 0.082 7.3 3.04 9.27
7/3/2021 4:15:00 AM 13.68 56.624 0.082 7.3 3.2 9.28
7/3/2021 4:30:00 AM 13.65 56.57 0.082 7.3 3.16 9.29
7/3/2021 4:45:00 AM 13.63 56.534 0.082 7.29 3.45 9.29
7/3/2021 5:00:00 AM 13.6 56.48 0.082 7.24 3.33 9.31
7/3/2021 5:15:00 AM 13.58 56.444 0.082 7.28 3.16 9.31
7/3/2021 5:30:00 AM 13.56 56.408 0.081 7.29 3.66 9.32
7/3/2021 5:45:00 AM 13.53 56.354 0.081 7.29 3.42 9.33
7/3/2021 6:00:00 AM 13.52 56.336 0.081 7.29 3.23 9.34
7/3/2021 6:15:00 AM 13.5 56.3 0.081 7.3 3.34 9.36
7/3/2021 6:30:00 AM 13.49 56.282 0.081 7.3 3.18 9.38
7/3/2021 6:45:00 AM 13.48 56.264 0.081 7.31 3.34 9.4
7/3/2021 7:00:00 AM 13.48 56.264 0.081 7.31 3.34 9.44
7/3/2021 7:15:00 AM 13.48 56.264 0.081 7.33 3.03 9.45
7/3/2021 7:30:00 AM 13.47 56.246 0.081 7.33 3.17 9.46
7/3/2021 7:45:00 AM 13.48 56.264 0.081 7.35 3.55 9.49
7/3/2021 8:00:00 AM 13.49 56.282 0.081 7.36 3.6 9.51
7/3/2021 8:15:00 AM 13.5 56.3 0.081 7.36 3.57 9.56
7/3/2021 8:30:00 AM 13.51 56.318 0.081 7.37 3.16 9.56
7/3/2021 8:45:00 AM 13.52 56.336 0.081 7.39 3.51 9.57
7/3/2021 9:00:00 AM 13.53 56.354 0.081 7.39 3.5 9.56
7/3/2021 9:15:00 AM 13.57 56.426 0.081 7.41 3.56 9.61
7/3/2021 9:30:00 AM 13.59 56.462 0.081 7.41 3.06 9.64
7/3/2021 9:45:00 AM 13.63 56.534 0.081 7.43 3.25 9.66
7/3/2021 10:00:00 AM 13.65 56.57 0.081 7.43 3.6 9.64
7/3/2021 10:15:00 AM 13.69 56.642 0.081 7.41 3.25 9.66
7/3/2021 10:30:00 AM 13.74 56.732 0.08 7.46 3.28 9.69
7/3/2021 10:45:00 AM 13.81 56.858 0.08 7.47 3.04 9.72
7/3/2021 11:00:00 AM 13.94 57.092 0.08 7.5 3.45 9.76
7/3/2021 11:15:00 AM 14.12 57.416 0.08 7.52 3.33 9.77
7/3/2021 11:30:00 AM 14.29 57.722 0.08 7.53 3.29 9.75
7/3/2021 11:45:00 AM 14.47 58.046 0.08 7.54 3.23 9.73
7/3/2021 12:00:00 PM 14.74 58.532 0.08 7.54 4.08 9.71
7/3/2021 12:15:00 PM 14.81 58.658 0.08 7.55 3.49 9.69
7/3/2021 12:30:00 PM 14.92 58.856 0.08 7.57 3.31 9.62
7/3/2021 12:45:00 PM 15.13 59.234 0.08 7.57 3.65 9.62
7/3/2021 1:00:00 PM 15.23 59.414 0.08 7.58 3.57 9.59
7/3/2021 1:15:00 PM 15.36 59.648 0.08 7.59 3.27 9.57
7/3/2021 1:30:00 PM 15.52 59.936 0.08 7.6 4.13 9.54
7/3/2021 1:45:00 PM 15.62 60.116 0.08 7.59 4.52 9.49
7/3/2021 2:00:00 PM 15.78 60.404 0.08 7.59 3.85 9.46
7/3/2021 2:15:00 PM 15.88 60.584 0.08 7.6 3.54 9.43
7/3/2021 2:30:00 PM 15.89 60.602 0.08 7.59 3.5 9.4
7/3/2021 2:45:00 PM 15.93 60.674 0.08 7.6 3.47 9.37
7/3/2021 3:00:00 PM 15.95 60.71 0.08 7.59 3.41 9.32
7/3/2021 3:15:00 PM 15.96 60.728 0.08 7.57 3.22 9.32
7/3/2021 3:30:00 PM 15.99 60.782 0.081 7.57 3.34 9.31
7/3/2021 3:45:00 PM 15.96 60.728 0.081 7.57 3.18 9.28
7/3/2021 4:00:00 PM 16.04 60.872 0.081 7.57 3.27 9.27
7/3/2021 4:15:00 PM 16.17 61.106 0.081 7.57 3.07 9.25
7/3/2021 4:30:00 PM 16.23 61.214 0.081 7.56 3.49 9.23
7/3/2021 4:45:00 PM 16.23 61.214 0.081 7.56 3 9.2
7/3/2021 5:00:00 PM 16.25 61.25 0.081 7.55 3.3 9.18
7/3/2021 5:15:00 PM 16.31 61.358 0.081 7.54 3.76 9.12
7/3/2021 5:30:00 PM 16.34 61.412 0.081 7.53 3.4 9.07
7/3/2021 5:45:00 PM 16.32 61.376 0.081 7.51 3.52 9.04
7/3/2021 6:00:00 PM 16.2 61.16 0.081 7.5 3.65 9.02
7/3/2021 6:15:00 PM 16.09 60.962 0.081 7.48 3.13 9.01
7/3/2021 6:30:00 PM 16.02 60.836 0.082 7.49 3.45 9.02
7/3/2021 6:45:00 PM 15.97 60.746 0.081 7.47 3.71 9.02
7/3/2021 7:00:00 PM 15.92 60.656 0.082 7.46 3.34 9
7/3/2021 7:15:00 PM 15.87 60.566 0.082 7.45 2.98 9.01
7/3/2021 7:30:00 PM 15.81 60.458 0.082 7.44 3.56 9
7/3/2021 7:45:00 PM 15.75 60.35 0.082 7.42 3.15 8.98
7/3/2021 8:00:00 PM 15.7 60.26 0.082 7.41 3.28 8.96
7/3/2021 8:15:00 PM 15.65 60.17 0.082 7.4 3.19 8.93
7/3/2021 8:30:00 PM 15.59 60.062 0.082 7.38 3.06 8.91
7/3/2021 8:45:00 PM 15.53 59.954 0.082 7.38 3.45 8.91
7/3/2021 9:00:00 PM 15.46 59.828 0.082 7.36 3.12 8.91
7/3/2021 9:15:00 PM 15.4 59.72 0.082 7.36 3.01 8.91
7/3/2021 9:30:00 PM 15.33 59.594 0.082 7.36 3.48 8.92
7/3/2021 9:45:00 PM 15.26 59.468 0.082 7.35 3.81 8.95
7/3/2021 10:00:00 PM 15.2 59.36 0.081 7.34 3.67 8.95
7/3/2021 10:15:00 PM 15.13 59.234 0.082 7.33 3.97 8.95
7/3/2021 10:30:00 PM 15.08 59.144 0.082 7.33 3.49 8.97
7/3/2021 10:45:00 PM 15.01 59.018 0.082 7.33 4.41 8.98
7/3/2021 11:00:00 PM 14.96 58.928 0.082 7.32 3.52 8.99
7/3/2021 11:15:00 PM 14.89 58.802 0.082 7.32 3.18 9.01
7/3/2021 11:30:00 PM 14.83 58.694 0.082 7.32 3.5 9.02
7/3/2021 11:45:00 PM 14.77 58.586 0.082 7.32 3.18 9.03
7/4/2021 12:00:00 AM 14.72 58.496 0.082 7.31 3.63 9.05
7/4/2021 12:15:00 AM 14.66 58.388 0.082 7.31 3.03 9.07
7/4/2021 12:30:00 AM 14.59 58.262 0.082 7.31 3.25 9.09
7/4/2021 12:45:00 AM 14.53 58.154 0.082 7.31 3.46 9.1
7/4/2021 1:00:00 AM 14.47 58.046 0.082 7.31 3.17 9.12
7/4/2021 1:15:00 AM 14.42 57.956 0.082 7.31 2.95 9.13
7/4/2021 1:30:00 AM 14.37 57.866 0.082 7.31 3.24 9.15
7/4/2021 1:45:00 AM 14.32 57.776 0.082 7.31 3.43 9.16
7/4/2021 2:00:00 AM 14.27 57.686 0.082 7.31 2.83 9.17
7/4/2021 2:15:00 AM 14.22 57.596 0.082 7.31 3.15 9.18
7/4/2021 2:30:00 AM 14.16 57.488 0.082 7.31 2.9 9.19
7/4/2021 2:45:00 AM 14.11 57.398 0.082 7.31 3.09 9.2
7/4/2021 3:00:00 AM 14.06 57.308 0.082 7.3 5.15 9.21
7/4/2021 3:15:00 AM 14.02 57.236 0.082 7.29 4.29 9.22
7/4/2021 3:30:00 AM 13.98 57.164 0.082 7.3 3.24 9.23
7/4/2021 3:45:00 AM 13.94 57.092 0.082 7.31 2.82 9.25
7/4/2021 4:00:00 AM 13.89 57.002 0.082 7.3 3.17 9.26
7/4/2021 4:15:00 AM 13.86 56.948 0.082 7.3 3.04 9.26
7/4/2021 4:30:00 AM 13.81 56.858 0.083 7.3 3.76 9.27
7/4/2021 4:45:00 AM 13.77 56.786 0.083 7.3 5.35 9.28
7/4/2021 5:00:00 AM 13.72 56.696 0.083 7.3 4.27 9.29
7/4/2021 5:15:00 AM 13.68 56.624 0.083 7.31 3.22 9.31
7/4/2021 5:30:00 AM 13.64 56.552 0.083 7.31 3.05 9.31
7/4/2021 5:45:00 AM 13.6 56.48 0.083 7.31 3.95 9.33
7/4/2021 6:00:00 AM 13.56 56.408 0.083 7.31 3.29 9.34
7/4/2021 6:15:00 AM 13.53 56.354 0.083 7.32 3.44 9.37
7/4/2021 6:30:00 AM 13.49 56.282 0.083 7.32 3.04 9.39
7/4/2021 6:45:00 AM 13.46 56.228 0.083 7.34 3.41 9.41
7/4/2021 7:00:00 AM 13.44 56.192 0.083 7.36 3.1 9.45
7/4/2021 7:15:00 AM 13.42 56.156 0.083 7.37 3.02 9.48
7/4/2021 7:30:00 AM 13.42 56.156 0.083 7.37 3.5 9.54
7/4/2021 7:45:00 AM 13.44 56.192 0.083 7.38 2.84 9.59
7/4/2021 8:00:00 AM 13.45 56.21 0.083 7.38 3.03 9.6
7/4/2021 8:15:00 AM 13.45 56.21 0.083 7.39 2.95 9.62
7/4/2021 8:30:00 AM 13.49 56.282 0.083 7.4 2.84 9.64
7/4/2021 8:45:00 AM 13.51 56.318 0.083 7.41 2.71 9.65
7/4/2021 9:00:00 AM 13.54 56.372 0.083 7.41 3 9.66
7/4/2021 9:15:00 AM 13.59 56.462 0.083 7.41 3.4 9.67
7/4/2021 9:30:00 AM 13.65 56.57 0.083 7.43 2.91 9.68
7/4/2021 9:45:00 AM 13.74 56.732 0.083 7.43 2.82 9.68
7/4/2021 10:00:00 AM 13.85 56.93 0.083 7.44 2.96 9.68
7/4/2021 10:15:00 AM 13.98 57.164 0.083 7.44 3.1 9.68
7/4/2021 10:30:00 AM 14.14 57.452 0.083 7.46 2.84 9.68
7/4/2021 10:45:00 AM 14.31 57.758 0.083 7.47 2.87 9.67
7/4/2021 11:00:00 AM 14.49 58.082 0.083 7.48 2.74 9.65
7/4/2021 11:15:00 AM 14.68 58.424 0.083 7.49 2.99 9.63
7/4/2021 11:30:00 AM 14.88 58.784 0.082 7.49 2.75 9.6
7/4/2021 11:45:00 AM 15.07 59.126 0.082 7.5 2.96 9.57
7/4/2021 12:00:00 PM 15.22 59.396 0.082 7.51 2.89 9.52
7/4/2021 12:15:00 PM 15.35 59.63 0.082 7.5 2.93 9.49
7/4/2021 12:30:00 PM 15.45 59.81 0.082 7.51 3.41 9.46
7/4/2021 12:45:00 PM 15.76 60.368 0.082 7.51 2.91 9.45
7/4/2021 1:00:00 PM 15.88 60.584 0.082 7.53 3.07 9.4
7/4/2021 1:15:00 PM 16.06 60.908 0.082 7.52 2.81 9.37
7/4/2021 1:30:00 PM 16.33 61.394 0.082 7.53 3.04 9.33
7/4/2021 1:45:00 PM 16.54 61.772 0.082 7.53 3.09 9.26
7/4/2021 2:00:00 PM 16.72 62.096 0.082 7.53 2.75 9.2
7/4/2021 2:15:00 PM 16.88 62.384 0.082 7.53 2.94 9.17
7/4/2021 2:30:00 PM 17.07 62.726 0.082 7.53 2.76 9.12
7/4/2021 2:45:00 PM 17.14 62.852 0.082 7.53 2.94 9.08
7/4/2021 3:00:00 PM 17.29 63.122 0.082 7.54 2.97 9.06
7/4/2021 3:15:00 PM 17.42 63.356 0.082 7.54 2.86 9.02
7/4/2021 3:30:00 PM 17.51 63.518 0.082 7.53 3.05 8.94
7/4/2021 3:45:00 PM 17.59 63.662 0.082 7.52 3.21 8.93
7/4/2021 4:00:00 PM 17.59 63.662 0.082 7.53 2.98 8.95
7/4/2021 4:15:00 PM 17.51 63.518 0.082 7.52 3.01 8.89
7/4/2021 4:30:00 PM 17.51 63.518 0.082 7.5 3.07 8.87
7/4/2021 4:45:00 PM 17.61 63.698 0.082 7.5 2.98 8.85
7/4/2021 5:00:00 PM 17.59 63.662 0.082 7.5 2.95 8.83
7/4/2021 5:15:00 PM 17.54 63.572 0.083 7.48 2.93 8.8
7/4/2021 5:30:00 PM 17.52 63.536 0.083 7.48 3.1 8.83
7/4/2021 5:45:00 PM 17.49 63.482 0.083 7.47 4.21 8.81
7/4/2021 6:00:00 PM 17.47 63.446 0.083 7.47 3.35 8.81
7/4/2021 6:15:00 PM 17.47 63.446 0.083 7.47 3.29 8.79
7/4/2021 6:30:00 PM 17.44 63.392 0.083 7.46 3.57 8.76
7/4/2021 6:45:00 PM 17.4 63.32 0.083 7.44 3.21 8.74
7/4/2021 7:00:00 PM 17.36 63.248 0.083 7.43 3.12 8.71
7/4/2021 7:15:00 PM 17.3 63.14 0.083 7.42 3.04 8.7
7/4/2021 7:30:00 PM 17.24 63.032 0.083 7.4 3 8.69
7/4/2021 7:45:00 PM 17.18 62.924 0.083 7.39 2.84 8.68
7/4/2021 8:00:00 PM 17.11 62.798 0.083 7.38 3.15 8.67
7/4/2021 8:15:00 PM 17.03 62.654 0.083 7.38 2.92 8.66
7/4/2021 8:30:00 PM 16.94 62.492 0.083 7.37 3.1 8.66
7/4/2021 8:45:00 PM 16.85 62.33 0.084 7.36 2.94 8.65
7/4/2021 9:00:00 PM 16.75 62.15 0.084 7.36 3.18 8.65
7/4/2021 9:15:00 PM 16.65 61.97 0.084 7.36 3.13 8.65
7/4/2021 9:30:00 PM 16.55 61.79 0.084 7.35 3.19 8.66
7/4/2021 9:45:00 PM 16.45 61.61 0.084 7.34 3.28 8.68
7/4/2021 10:00:00 PM 16.35 61.43 0.084 7.33 3.24 8.7
7/4/2021 10:15:00 PM 16.25 61.25 0.084 7.33 3.13 8.72
7/4/2021 10:30:00 PM 16.15 61.07 0.084 7.33 3.47 8.74
7/4/2021 10:45:00 PM 16.05 60.89 0.084 7.32 4.09 8.76
7/4/2021 11:00:00 PM 15.94 60.692 0.084 7.31 6.22 8.78
7/4/2021 11:15:00 PM 15.84 60.512 0.084 7.31 3.66 8.81
7/4/2021 11:30:00 PM 15.74 60.332 0.084 7.31 3.19 8.84
7/4/2021 11:45:00 PM 15.63 60.134 0.084 7.31 4.61 8.86
7/5/2021 12:00:00 AM 15.53 59.954 0.084 7.31 3.4 8.88
7/5/2021 12:15:00 AM 15.43 59.774 0.085 7.31 3.03 8.9
7/5/2021 12:30:00 AM 15.34 59.612 0.084 7.3 5.63 8.92
7/5/2021 12:45:00 AM 15.24 59.432 0.085 7.3 3.52 8.95
7/5/2021 1:00:00 AM 15.14 59.252 0.085 7.3 3.74 8.97
7/5/2021 1:15:00 AM 15.05 59.09 0.085 7.31 3.21 8.99
7/5/2021 1:30:00 AM 14.95 58.91 0.085 7.31 3.52 9.01
7/5/2021 1:45:00 AM 14.86 58.748 0.085 7.3 3.11 9.03
7/5/2021 2:00:00 AM 14.77 58.586 0.085 7.31 3.43 9.06
7/5/2021 2:15:00 AM 14.68 58.424 0.085 7.3 3.24 9.08
7/5/2021 2:30:00 AM 14.59 58.262 0.085 7.3 3.54 9.09
7/5/2021 2:45:00 AM 14.51 58.118 0.085 7.29 4.12 9.1
7/5/2021 3:00:00 AM 14.42 57.956 0.085 7.3 3.13 9.13
7/5/2021 3:15:00 AM 14.34 57.812 0.085 7.3 3.23 9.15
7/5/2021 3:30:00 AM 14.25 57.65 0.085 7.3 3.05 9.17
7/5/2021 3:45:00 AM 14.17 57.506 0.085 7.29 3.52 9.18
7/5/2021 4:00:00 AM 14.09 57.362 0.085 7.29 3.68 9.21
7/5/2021 4:15:00 AM 14.01 57.218 0.085 7.29 3.28 9.22
7/5/2021 4:30:00 AM 13.94 57.092 0.085 7.29 2.89 9.25
7/5/2021 4:45:00 AM 13.86 56.948 0.085 7.29 2.82 9.26
7/5/2021 5:00:00 AM 13.79 56.822 0.085 7.29 3.58 9.27
7/5/2021 5:15:00 AM 13.72 56.696 0.085 7.28 5.52 9.29
7/5/2021 5:30:00 AM 13.65 56.57 0.085 7.29 3.25 9.31
7/5/2021 5:45:00 AM 13.58 56.444 0.085 7.29 3.27 9.33
7/5/2021 6:00:00 AM 13.52 56.336 0.085 7.29 3.28 9.36
7/5/2021 6:15:00 AM 13.46 56.228 0.085 7.28 3.18 9.39
7/5/2021 6:30:00 AM 13.41 56.138 0.085 7.3 3.18 9.43
7/5/2021 6:45:00 AM 13.38 56.084 0.085 7.3 2.76 9.46
7/5/2021 7:00:00 AM 13.34 56.012 0.085 7.29 2.67 9.5
7/5/2021 7:15:00 AM 13.31 55.958 0.085 7.3 2.88 9.54
7/5/2021 7:30:00 AM 13.3 55.94 0.085 7.31 3.03 9.58
7/5/2021 7:45:00 AM 13.29 55.922 0.085 7.32 2.71 9.62
7/5/2021 8:00:00 AM 13.29 55.922 0.084 7.34 3.13 9.65
7/5/2021 8:15:00 AM 13.31 55.958 0.084 7.35 2.73 9.68
7/5/2021 8:30:00 AM 13.33 55.994 0.084 7.38 3.02 9.71
7/5/2021 8:45:00 AM 13.38 56.084 0.084 7.39 2.7 9.74
7/5/2021 9:00:00 AM 13.43 56.174 0.084 7.4 2.92 9.76
7/5/2021 9:15:00 AM 13.5 56.3 0.084 7.41 2.91 9.78
7/5/2021 9:30:00 AM 13.59 56.462 0.084 7.42 2.91 9.79
7/5/2021 9:45:00 AM 13.7 56.66 0.084 7.43 3.77 9.79
7/5/2021 10:00:00 AM 13.83 56.894 0.084 7.44 5.17 9.79
7/5/2021 10:15:00 AM 13.98 57.164 0.084 7.45 5.12 9.79
7/5/2021 10:30:00 AM 14.16 57.488 0.084 7.47 4.72 9.78
7/5/2021 10:45:00 AM 14.35 57.83 0.084 7.48 5.25 9.77
7/5/2021 11:00:00 AM 14.53 58.154 0.084 7.49 4.43 9.76
7/5/2021 11:15:00 AM 14.73 58.514 0.084 7.51 4.11 9.74
7/5/2021 11:30:00 AM 14.94 58.892 0.084 7.52 4.11 9.71
7/5/2021 11:45:00 AM 15.16 59.288 0.084 7.53 4.03 9.67
7/5/2021 12:00:00 PM 15.37 59.666 0.083 7.54 3.54 9.64
7/5/2021 12:15:00 PM 15.6 60.08 0.083 7.55 3.22 9.61
7/5/2021 12:30:00 PM 15.74 60.332 0.084 7.56 3.14 9.55
7/5/2021 12:45:00 PM 15.99 60.782 0.083 7.56 3.61 9.51
7/5/2021 1:00:00 PM 16.31 61.358 0.083 7.57 3.39 9.46
7/5/2021 1:15:00 PM 16.59 61.862 0.083 7.57 3.14 9.4
7/5/2021 1:30:00 PM 16.84 62.312 0.083 7.57 3.34 9.34
7/5/2021 1:45:00 PM 17.05 62.69 0.083 7.58 2.96 9.28
7/5/2021 2:00:00 PM 17.25 63.05 0.083 7.57 3.26 9.22
7/5/2021 2:15:00 PM 17.43 63.374 0.083 7.57 2.87 9.16
7/5/2021 2:30:00 PM 17.59 63.662 0.083 7.57 3.83 9.12
7/5/2021 2:45:00 PM 17.73 63.914 0.083 7.56 2.98 9.07
7/5/2021 3:00:00 PM 17.86 64.148 0.083 7.56 3.05 9.02
7/5/2021 3:15:00 PM 17.96 64.328 0.083 7.56 3.33 8.97
7/5/2021 3:30:00 PM 18.07 64.526 0.083 7.55 3.23 8.93
7/5/2021 3:45:00 PM 18.17 64.706 0.083 7.55 3.28 8.89
7/5/2021 4:00:00 PM 18.25 64.85 0.083 7.55 3.48 8.86
7/5/2021 4:15:00 PM 18.33 64.994 0.083 7.55 3.36 8.82
7/5/2021 4:30:00 PM 18.36 65.048 0.083 7.53 2.91 8.79
7/5/2021 4:45:00 PM 18.36 65.048 0.083 7.53 2.85 8.78
7/5/2021 5:00:00 PM 18.37 65.066 0.083 7.52 3.39 8.75
7/5/2021 5:15:00 PM 18.37 65.066 0.083 7.51 3.37 8.74
7/5/2021 5:30:00 PM 18.37 65.066 0.083 7.5 3.81 8.72
7/5/2021 5:45:00 PM 18.41 65.138 0.083 7.49 5 8.68
7/5/2021 6:00:00 PM 18.43 65.174 0.083 7.49 3.29 8.65
7/5/2021 6:15:00 PM 18.42 65.156 0.083 7.47 3.25 8.63
7/5/2021 6:30:00 PM 18.41 65.138 0.083 7.47 3.49 8.61
7/5/2021 6:45:00 PM 18.38 65.084 0.083 7.45 3.39 8.59
7/5/2021 7:00:00 PM 18.34 65.012 0.084 7.45 3.05 8.57
7/5/2021 7:15:00 PM 18.28 64.904 0.084 7.43 3.42 8.55
7/5/2021 7:30:00 PM 18.22 64.796 0.084 7.42 3.65 8.53
7/5/2021 7:45:00 PM 18.15 64.67 0.084 7.4 3.28 8.52
7/5/2021 8:00:00 PM 18.07 64.526 0.084 7.38 3.97 8.49
7/5/2021 8:15:00 PM 17.99 64.382 0.084 7.36 3.2 8.47
7/5/2021 8:30:00 PM 17.9 64.22 0.084 7.35 3.42 8.46
7/5/2021 8:45:00 PM 17.81 64.058 0.084 7.32 3.04 8.45
7/5/2021 9:00:00 PM 17.72 63.896 0.085 7.31 3.57 8.44
7/5/2021 9:15:00 PM 17.63 63.734 0.085 7.3 3.51 8.44
7/5/2021 9:30:00 PM 17.55 63.59 0.085 7.28 3.56 8.45
7/5/2021 9:45:00 PM 17.47 63.446 0.085 7.28 3.65 8.46
7/5/2021 10:00:00 PM 17.4 63.32 0.085 7.28 3.53 8.47
7/5/2021 10:15:00 PM 17.32 63.176 0.085 7.27 3.58 8.48
7/5/2021 10:30:00 PM 17.25 63.05 0.085 7.26 3.59 8.49
7/5/2021 10:45:00 PM 17.17 62.906 0.085 7.26 4.53 8.5
7/5/2021 11:00:00 PM 17.1 62.78 0.085 7.25 5.08 8.52
7/5/2021 11:15:00 PM 17.02 62.636 0.085 7.25 3.97 8.54
7/5/2021 11:30:00 PM 16.94 62.492 0.086 7.24 3.57 8.56
7/5/2021 11:45:00 PM 16.86 62.348 0.086 7.25 4.08 8.57
7/6/2021 12:00:00 AM 16.78 62.204 0.086 7.24 4.74 8.59
7/6/2021 12:15:00 AM 16.7 62.06 0.086 7.24 5.29 8.61
7/6/2021 12:30:00 AM 16.63 61.934 0.086 7.24 3.54 8.63
7/6/2021 12:45:00 AM 16.55 61.79 0.086 7.25 3.25 8.65
7/6/2021 1:00:00 AM 16.48 61.664 0.086 7.24 3.5 8.65
7/6/2021 1:15:00 AM 16.41 61.538 0.086 7.24 4.61 8.67
7/6/2021 1:30:00 AM 16.34 61.412 0.086 7.25 3.18 8.69
7/6/2021 1:45:00 AM 16.27 61.286 0.086 7.25 3.2 8.7
7/6/2021 2:00:00 AM 16.2 61.16 0.086 7.24 4.05 8.71
7/6/2021 2:15:00 AM 16.14 61.052 0.086 7.24 5.37 8.72
7/6/2021 2:30:00 AM 16.07 60.926 0.086 7.24 3.57 8.74
7/6/2021 2:45:00 AM 16.01 60.818 0.086 7.25 3.34 8.76
7/6/2021 3:00:00 AM 15.94 60.692 0.086 7.24 4.24 8.77
7/6/2021 3:15:00 AM 15.88 60.584 0.086 7.24 4.47 8.78
7/6/2021 3:30:00 AM 15.82 60.476 0.086 7.24 3.59 8.8
7/6/2021 3:45:00 AM 15.76 60.368 0.086 7.23 4.13 8.81
7/6/2021 4:00:00 AM 15.71 60.278 0.086 7.24 3.83 8.82
7/6/2021 4:15:00 AM 15.65 60.17 0.086 7.24 3.14 8.84
7/6/2021 4:30:00 AM 15.6 60.08 0.086 7.24 3.11 8.84
7/6/2021 4:45:00 AM 15.55 59.99 0.086 7.24 3.06 8.86
7/6/2021 5:00:00 AM 15.5 59.9 0.086 7.24 3.67 8.88
7/6/2021 5:15:00 AM 15.45 59.81 0.086 7.23 3.96 8.88
7/6/2021 5:30:00 AM 15.41 59.738 0.086 7.23 3.36 8.89
7/6/2021 5:45:00 AM 15.36 59.648 0.086 7.24 3.47 8.91
7/6/2021 6:00:00 AM 15.31 59.558 0.086 7.23 3.35 8.93
7/6/2021 6:15:00 AM 15.27 59.486 0.086 7.23 3.17 8.95
7/6/2021 6:30:00 AM 15.23 59.414 0.086 7.23 3.14 8.98
7/6/2021 6:45:00 AM 15.19 59.342 0.086 7.24 3.2 9.02
7/6/2021 7:00:00 AM 15.16 59.288 0.086 7.25 3.11 9.06
7/6/2021 7:15:00 AM 15.14 59.252 0.086 7.26 2.97 9.1
7/6/2021 7:30:00 AM 15.13 59.234 0.086 7.27 3.08 9.14
7/6/2021 7:45:00 AM 15.14 59.252 0.086 7.28 2.95 9.18
7/6/2021 8:00:00 AM 15.16 59.288 0.086 7.29 3.39 9.22
7/6/2021 8:15:00 AM 15.2 59.36 0.086 7.3 3.33 9.25
7/6/2021 8:30:00 AM 15.22 59.396 0.086 7.32 4.33 9.27
7/6/2021 8:45:00 AM 15.27 59.486 0.086 7.34 3.07 9.3
7/6/2021 9:00:00 AM 15.35 59.63 0.085 7.35 3.31 9.34
7/6/2021 9:15:00 AM 15.42 59.756 0.085 7.38 3.11 9.34
7/6/2021 9:30:00 AM 15.47 59.846 0.085 7.4 3.64 9.34
7/6/2021 9:45:00 AM 15.56 60.008 0.085 7.41 3.37 9.35
7/6/2021 10:00:00 AM 15.7 60.26 0.085 7.43 3.2 9.35
7/6/2021 10:15:00 AM 15.84 60.512 0.085 7.45 3.21 9.35
7/6/2021 10:30:00 AM 16.01 60.818 0.085 7.47 3.46 9.35
7/6/2021 10:45:00 AM 16.12 61.016 0.085 7.48 3.1 9.32
7/6/2021 11:00:00 AM 16.46 61.628 0.084 7.5 6.19 9.32
7/6/2021 11:15:00 AM 16.68 62.024 0.084 7.51 3.76 9.27
7/6/2021 11:30:00 AM 16.89 62.402 0.084 7.52 3.53 9.23
7/6/2021 11:45:00 AM 17.17 62.906 0.084 7.53 3.02 9.22
7/6/2021 12:00:00 PM 17.35 63.23 0.084 7.53 2.93 9.17
7/6/2021 12:15:00 PM 17.58 63.644 0.084 7.54 3.14 9.14
7/6/2021 12:30:00 PM 17.8 64.04 0.084 7.55 3.15 9.1
7/6/2021 12:45:00 PM 18 64.4 0.084 7.55 3.27 9.05
7/6/2021 1:00:00 PM 18.11 64.598 0.084 7.54 4.14 8.99
7/6/2021 1:15:00 PM 18.38 65.084 0.084 7.55 3.37 8.97
7/6/2021 1:30:00 PM 18.37 65.066 0.083 7.54 3.63 8.79
7/6/2021 1:45:00 PM 18.35 65.03 0.082 7.48 4.39 8.64
7/6/2021 2:00:00 PM 18.37 65.066 0.082 7.45 3.54 8.51
7/6/2021 2:15:00 PM 18.33 64.994 0.082 7.42 3.9 8.47
7/6/2021 2:30:00 PM 18.25 64.85 0.083 7.42 3.95 8.55
7/6/2021 2:45:00 PM 18.2 64.76 0.083 7.44 4.07 8.66
7/6/2021 3:00:00 PM 18.23 64.814 0.083 7.47 3.76 8.75
7/6/2021 3:15:00 PM 18.25 64.85 0.083 7.47 3.7 8.76
7/6/2021 3:30:00 PM 18.31 64.958 0.083 7.47 3.36 8.74
7/6/2021 3:45:00 PM 18.45 65.21 0.082 7.48 3.47 8.74
7/6/2021 4:00:00 PM 18.6 65.48 0.083 7.47 3.43 8.7
7/6/2021 4:15:00 PM 18.73 65.714 0.083 7.47 3.69 8.65
7/6/2021 4:30:00 PM 18.79 65.82201 0.083 7.46 3.95 8.6
7/6/2021 4:45:00 PM 18.78 65.804 0.082 7.46 3.23 8.59
7/6/2021 5:00:00 PM 18.72 65.696 0.082 7.46 3.24 8.61
7/6/2021 5:15:00 PM 18.66 65.588 0.082 7.46 3.63 8.65
7/6/2021 5:30:00 PM 18.61 65.498 0.082 7.46 3.36 8.65
7/6/2021 5:45:00 PM 18.58 65.444 0.082 7.45 3.98 8.61
7/6/2021 6:00:00 PM 18.58 65.444 0.082 7.45 3.74 8.6
7/6/2021 6:15:00 PM 18.6 65.48 0.082 7.44 3.49 8.59
7/6/2021 6:30:00 PM 18.58 65.444 0.083 7.42 5.2 8.54
7/6/2021 6:45:00 PM 18.53 65.354 0.083 7.41 5.09 8.49
7/6/2021 7:00:00 PM 18.47 65.246 0.083 7.38 4.97 8.48
7/6/2021 7:15:00 PM 18.4 65.12 0.083 7.37 5.02 8.47
7/6/2021 7:30:00 PM 18.35 65.03 0.083 7.36 3.97 8.49
7/6/2021 7:45:00 PM 18.3 64.94 0.083 7.36 3.28 8.49
7/6/2021 8:00:00 PM 18.25 64.85 0.084 7.36 3.37 8.48
7/6/2021 8:15:00 PM 18.19 64.742 0.084 7.34 3.54 8.45
7/6/2021 8:30:00 PM 18.14 64.652 0.084 7.34 4.26 8.43
7/6/2021 8:45:00 PM 18.06 64.508 0.084 7.32 3.73 8.42
7/6/2021 9:00:00 PM 17.98 64.364 0.085 7.31 3.49 8.4
7/6/2021 9:15:00 PM 17.88 64.184 0.085 7.3 3.63 8.4
7/6/2021 9:30:00 PM 17.78 64.004 0.085 7.28 3.66 8.4
7/6/2021 9:45:00 PM 17.69 63.842 0.085 7.27 3.56 8.41
7/6/2021 10:00:00 PM 17.61 63.698 0.085 7.26 4.02 8.43
7/6/2021 10:15:00 PM 17.53 63.554 0.085 7.25 3.73 8.44
7/6/2021 10:30:00 PM 17.46 63.428 0.085 7.25 3.41 8.46
7/6/2021 10:45:00 PM 17.38 63.284 0.085 7.25 3.47 8.47
7/6/2021 11:00:00 PM 17.31 63.158 0.085 7.25 3.47 8.48
7/6/2021 11:15:00 PM 17.23 63.014 0.086 7.25 3.17 8.5
7/6/2021 11:30:00 PM 17.15 62.87 0.086 7.25 3.54 8.52
7/6/2021 11:45:00 PM 17.08 62.744 0.086 7.25 3.4 8.53
7/7/2021 12:00:00 AM 17 62.6 0.086 7.24 3.75 8.55
7/7/2021 12:15:00 AM 16.93 62.474 0.086 7.25 3.38 8.57
7/7/2021 12:30:00 AM 16.85 62.33 0.086 7.25 3.35 8.59
7/7/2021 12:45:00 AM 16.79 62.222 0.086 7.25 3.56 8.6
7/7/2021 1:00:00 AM 16.73 62.114 0.086 7.24 3.04 8.62
7/7/2021 1:15:00 AM 16.67 62.006 0.086 7.24 3.18 8.62
7/7/2021 1:30:00 AM 16.6 61.88 0.086 7.23 3.81 8.63
7/7/2021 1:45:00 AM 16.54 61.772 0.086 7.23 3.65 8.64
7/7/2021 2:00:00 AM 16.48 61.664 0.086 7.23 3.31 8.66
7/7/2021 2:15:00 AM 16.42 61.556 0.086 7.23 3.38 8.67
7/7/2021 2:30:00 AM 16.36 61.448 0.086 7.23 3.57 8.69
7/7/2021 2:45:00 AM 16.31 61.358 0.086 7.23 2.98 8.7
7/7/2021 3:00:00 AM 16.26 61.268 0.087 7.23 2.9 8.72
7/7/2021 3:15:00 AM 16.2 61.16 0.087 7.22 2.91 8.73
7/7/2021 3:30:00 AM 16.16 61.088 0.086 7.24 3.12 8.74
7/7/2021 3:45:00 AM 16.11 60.998 0.086 7.24 3.46 8.74
7/7/2021 4:00:00 AM 16.06 60.908 0.086 7.25 3.26 8.76
7/7/2021 4:15:00 AM 16.01 60.818 0.086 7.24 3.04 8.77
7/7/2021 4:30:00 AM 15.96 60.728 0.086 7.25 2.9 8.78
7/7/2021 4:45:00 AM 15.92 60.656 0.086 7.25 3.01 8.79
7/7/2021 5:00:00 AM 15.87 60.566 0.086 7.25 3.07 8.8
7/7/2021 5:15:00 AM 15.82 60.476 0.086 7.24 3.03 8.81
7/7/2021 5:30:00 AM 15.77 60.386 0.086 7.25 3.45 8.82
7/7/2021 5:45:00 AM 15.72 60.296 0.086 7.24 3.05 8.84
7/7/2021 6:00:00 AM 15.67 60.206 0.087 7.25 3.11 8.85
7/7/2021 6:15:00 AM 15.63 60.134 0.086 7.26 3.2 8.88
7/7/2021 6:30:00 AM 15.59 60.062 0.086 7.27 3.19 8.91
7/7/2021 6:45:00 AM 15.55 59.99 0.086 7.27 3.18 8.93
7/7/2021 7:00:00 AM 15.51 59.918 0.086 7.27 3.29 8.96
7/7/2021 7:15:00 AM 15.48 59.864 0.086 7.27 2.94 9
7/7/2021 7:30:00 AM 15.48 59.864 0.086 7.29 3.09 9.05
7/7/2021 7:45:00 AM 15.47 59.846 0.086 7.3 2.89 9.09
7/7/2021 8:00:00 AM 15.48 59.864 0.086 7.31 2.94 9.12
7/7/2021 8:15:00 AM 15.51 59.918 0.086 7.33 3.11 9.15
7/7/2021 8:30:00 AM 15.54 59.972 0.086 7.35 3.27 9.18
7/7/2021 8:45:00 AM 15.58 60.044 0.086 7.36 3 9.21
7/7/2021 9:00:00 AM 15.62 60.116 0.086 7.37 3.47 9.23
7/7/2021 9:15:00 AM 15.67 60.206 0.086 7.38 2.96 9.26
7/7/2021 9:30:00 AM 15.75 60.35 0.086 7.39 2.92 9.27
7/7/2021 9:45:00 AM 15.84 60.512 0.085 7.4 3.32 9.28
7/7/2021 10:00:00 AM 15.96 60.728 0.085 7.41 3.28 9.28
7/7/2021 10:15:00 AM 16.12 61.016 0.085 7.42 3.3 9.28
7/7/2021 10:30:00 AM 16.27 61.286 0.085 7.45 3.3 9.27
7/7/2021 10:45:00 AM 16.43 61.574 0.085 7.46 3.32 9.26
7/7/2021 11:00:00 AM 16.57 61.826 0.085 7.47 3.36 9.25
7/7/2021 11:15:00 AM 16.78 62.204 0.085 7.49 3.15 9.23
7/7/2021 11:30:00 AM 16.99 62.582 0.085 7.5 3.1 9.2
7/7/2021 11:45:00 AM 17.23 63.014 0.085 7.5 3.59 9.16
7/7/2021 12:00:00 PM 17.47 63.446 0.085 7.52 3.48 9.13
7/7/2021 12:15:00 PM 17.71 63.878 0.085 7.52 3.58 9.09
7/7/2021 12:30:00 PM 17.79 64.022 0.085 7.52 3.26 9.03
7/7/2021 12:45:00 PM 18.03 64.454 0.084 7.52 3.18 9
7/7/2021 1:00:00 PM 18.3 64.94 0.085 7.53 2.98 8.97
7/7/2021 1:15:00 PM 18.49 65.282 0.084 7.53 3.14 8.92
7/7/2021 1:30:00 PM 18.75 65.75 0.084 7.54 3.27 8.89
7/7/2021 1:45:00 PM 18.98 66.164 0.084 7.54 2.88 8.83
7/7/2021 2:00:00 PM 19.13 66.434 0.084 7.54 2.86 8.75
7/7/2021 2:15:00 PM 19.37 66.866 0.084 7.53 4.11 8.7
7/7/2021 2:30:00 PM 19.53 67.154 0.084 7.53 3.23 8.65
7/7/2021 2:45:00 PM 19.68 67.424 0.084 7.53 3.37 8.62
7/7/2021 3:00:00 PM 19.72 67.496 0.084 7.52 2.94 8.57
7/7/2021 3:15:00 PM 19.85 67.73 0.084 7.52 3.3 8.54
7/7/2021 3:30:00 PM 19.9 67.82 0.084 7.51 3.22 8.51
7/7/2021 3:45:00 PM 19.91 67.838 0.084 7.51 3.27 8.49
7/7/2021 4:00:00 PM 19.91 67.838 0.084 7.5 3.44 8.47
7/7/2021 4:15:00 PM 19.88 67.784 0.084 7.49 3.73 8.43
7/7/2021 4:30:00 PM 19.85 67.73 0.084 7.49 3.83 8.44
7/7/2021 4:45:00 PM 19.82 67.676 0.084 7.48 3.37 8.43
7/7/2021 5:00:00 PM 19.82 67.676 0.084 7.47 3.67 8.38
7/7/2021 5:15:00 PM 19.83 67.694 0.084 7.45 3.66 8.36
7/7/2021 5:30:00 PM 19.82 67.676 0.084 7.45 3.77 8.34
7/7/2021 5:45:00 PM 19.81 67.658 0.084 7.44 4.97 8.32
7/7/2021 6:00:00 PM 19.82 67.676 0.084 7.43 3.28 8.31
7/7/2021 6:15:00 PM 19.79 67.622 0.085 7.42 3.19 8.28
7/7/2021 6:30:00 PM 19.76 67.568 0.085 7.4 3.12 8.24
7/7/2021 6:45:00 PM 19.72 67.496 0.085 7.38 3.63 8.2
7/7/2021 7:00:00 PM 19.65 67.37 0.085 7.36 5.42 8.16
7/7/2021 7:15:00 PM 19.57 67.226 0.085 7.35 4.11 8.16
7/7/2021 7:30:00 PM 19.49 67.082 0.085 7.34 3.59 8.14
7/7/2021 7:45:00 PM 19.38 66.884 0.085 7.34 3.89 8.13
7/7/2021 8:00:00 PM 19.25 66.65 0.086 7.35 3.84 8.15
7/7/2021 8:15:00 PM 19.14 66.452 0.085 7.35 3.56 8.13
7/7/2021 8:30:00 PM 19.03 66.254 0.085 7.34 3.74 8.13
7/7/2021 8:45:00 PM 18.92 66.056 0.086 7.34 3.17 8.15
7/7/2021 9:00:00 PM 18.82 65.876 0.086 7.34 3.47 8.17
7/7/2021 9:15:00 PM 18.71 65.67799 0.085 7.33 3.39 8.19
7/7/2021 9:30:00 PM 18.61 65.498 0.086 7.32 3.73 8.2
7/7/2021 9:45:00 PM 18.51 65.318 0.085 7.32 5.36 8.21
7/7/2021 10:00:00 PM 18.41 65.138 0.085 7.31 3.74 8.23
7/7/2021 10:15:00 PM 18.32 64.976 0.085 7.31 3.91 8.25
7/7/2021 10:30:00 PM 18.22 64.796 0.085 7.31 4.13 8.27
7/7/2021 10:45:00 PM 18.13 64.634 0.085 7.31 3.74 8.3
7/7/2021 11:00:00 PM 18.04 64.472 0.085 7.31 3.67 8.31
7/7/2021 11:15:00 PM 17.95 64.31 0.086 7.3 4.09 8.32
7/7/2021 11:30:00 PM 17.86 64.148 0.086 7.3 3.59 8.35
7/7/2021 11:45:00 PM 17.78 64.004 0.086 7.3 3.8 8.37
7/8/2021 12:00:00 AM 17.69 63.842 0.086 7.29 4.09 8.39
7/8/2021 12:15:00 AM 17.62 63.716 0.086 7.3 3.36 8.41
7/8/2021 12:30:00 AM 17.54 63.572 0.085 7.3 3.97 8.43
7/8/2021 12:45:00 AM 17.45 63.41 0.086 7.29 3.49 8.45
7/8/2021 1:00:00 AM 17.37 63.266 0.085 7.29 3.37 8.46
7/8/2021 1:15:00 AM 17.29 63.122 0.085 7.29 3.26 8.48
7/8/2021 1:30:00 AM 17.21 62.978 0.085 7.29 3.56 8.5
7/8/2021 1:45:00 AM 17.13 62.834 0.085 7.29 3.94 8.51
7/8/2021 2:00:00 AM 17.05 62.69 0.085 7.28 3.57 8.53
7/8/2021 2:15:00 AM 16.97 62.546 0.085 7.28 3.74 8.55
7/8/2021 2:30:00 AM 16.9 62.42 0.085 7.29 3.62 8.57
7/8/2021 2:45:00 AM 16.82 62.276 0.085 7.28 4.75 8.59
7/8/2021 3:00:00 AM 16.75 62.15 0.085 7.28 4.03 8.6
7/8/2021 3:15:00 AM 16.68 62.024 0.085 7.28 3.47 8.62
7/8/2021 3:30:00 AM 16.61 61.898 0.085 7.28 3.41 8.64
7/8/2021 3:45:00 AM 16.55 61.79 0.086 7.28 4.91 8.65
7/8/2021 4:00:00 AM 16.49 61.682 0.086 7.28 3.85 8.67
7/8/2021 4:15:00 AM 16.43 61.574 0.086 7.28 4.01 8.68
7/8/2021 4:30:00 AM 16.38 61.484 0.086 7.28 3.91 8.7
7/8/2021 4:45:00 AM 16.34 61.412 0.086 7.28 4.09 8.7
7/8/2021 5:00:00 AM 16.29 61.322 0.087 7.29 3.43 8.72
7/8/2021 5:15:00 AM 16.25 61.25 0.087 7.29 3.68 8.73
7/8/2021 5:30:00 AM 16.21 61.178 0.087 7.29 4.05 8.73
7/8/2021 5:45:00 AM 16.16 61.088 0.087 7.29 3.4 8.75
7/8/2021 6:00:00 AM 16.13 61.034 0.087 7.3 4.17 8.76
7/8/2021 6:15:00 AM 16.1 60.98 0.087 7.3 3.74 8.77
7/8/2021 6:30:00 AM 16.07 60.926 0.087 7.3 3.45 8.8
7/8/2021 6:45:00 AM 16.04 60.872 0.087 7.3 3.4 8.82
7/8/2021 7:00:00 AM 16.02 60.836 0.086 7.31 3.4 8.83
7/8/2021 7:15:00 AM 16 60.8 0.086 7.31 4.1 8.86
7/8/2021 7:30:00 AM 15.98 60.764 0.086 7.31 3.21 8.87
7/8/2021 7:45:00 AM 15.96 60.728 0.086 7.32 3.31 8.9
7/8/2021 8:00:00 AM 15.94 60.692 0.086 7.32 3.17 8.89
7/8/2021 8:15:00 AM 15.93 60.674 0.086 7.32 3.37 8.9
7/8/2021 8:30:00 AM 15.92 60.656 0.086 7.32 3.36 8.92
7/8/2021 8:45:00 AM 15.91 60.638 0.086 7.32 3.32 8.94
7/8/2021 9:00:00 AM 15.9 60.62 0.086 7.33 3.1 8.95
7/8/2021 9:15:00 AM 15.89 60.602 0.086 7.33 3.92 8.98
7/8/2021 9:30:00 AM 15.9 60.62 0.086 7.34 3.15 9.01
7/8/2021 9:45:00 AM 15.92 60.656 0.086 7.35 3.18 9.04
7/8/2021 10:00:00 AM 15.93 60.674 0.085 7.36 3.45 9.05
7/8/2021 10:15:00 AM 15.94 60.692 0.085 7.35 3.19 9.04
7/8/2021 10:30:00 AM 15.99 60.782 0.085 7.36 3.27 9.09
7/8/2021 10:45:00 AM 16.05 60.89 0.085 7.38 3.44 9.13
7/8/2021 11:00:00 AM 16.17 61.106 0.085 7.4 3.52 9.18
7/8/2021 11:15:00 AM 16.24 61.232 0.085 7.42 3.43 9.18
7/8/2021 11:30:00 AM 16.35 61.43 0.084 7.44 3.57 9.2
7/8/2021 11:45:00 AM 16.6 61.88 0.085 7.46 3.32 9.21
7/8/2021 12:00:00 PM 16.67 62.006 0.085 7.47 3.49 9.2
7/8/2021 12:15:00 PM 16.78 62.204 0.085 7.49 3.13 9.18
7/8/2021 12:30:00 PM 17.01 62.618 0.085 7.5 3.41 9.17
7/8/2021 12:45:00 PM 17.03 62.654 0.085 7.5 3.48 9.13
7/8/2021 1:00:00 PM 17.06 62.708 0.085 7.5 3.24 9.06
7/8/2021 1:15:00 PM 17.1 62.78 0.085 7.49 3.56 9.02
7/8/2021 1:30:00 PM 17.2 62.96 0.085 7.49 3.59 9.04
7/8/2021 1:45:00 PM 17.23 63.014 0.084 7.5 3.59 9.04
7/8/2021 2:00:00 PM 17.25 63.05 0.084 7.5 3.5 9.03
7/8/2021 2:15:00 PM 17.21 62.978 0.084 7.49 3.45 8.97
7/8/2021 2:30:00 PM 17.18 62.924 0.085 7.46 3.15 8.86
7/8/2021 2:45:00 PM 17.19 62.942 0.084 7.44 3.12 8.83
7/8/2021 3:00:00 PM 17.19 62.942 0.084 7.43 4.09 8.83
7/8/2021 3:15:00 PM 17.19 62.942 0.084 7.43 3.44 8.86
7/8/2021 3:30:00 PM 17.15 62.87 0.084 7.43 3.32 8.83
7/8/2021 3:45:00 PM 17.18 62.924 0.084 7.44 4.66 8.9
7/8/2021 4:00:00 PM 17.23 63.014 0.084 7.45 4.77 8.92
7/8/2021 4:15:00 PM 17.26 63.068 0.084 7.45 3.81 8.89
7/8/2021 4:30:00 PM 17.34 63.212 0.084 7.46 3.54 8.94
7/8/2021 4:45:00 PM 17.38 63.284 0.084 7.46 3.24 8.85
7/8/2021 5:00:00 PM 17.42 63.356 0.084 7.46 3.86 8.87
7/8/2021 5:15:00 PM 17.43 63.374 0.084 7.45 3.51 8.81
7/8/2021 5:30:00 PM 17.43 63.374 0.085 7.44 3.32 8.77
7/8/2021 5:45:00 PM 17.41 63.338 0.085 7.42 3.33 8.73
7/8/2021 6:00:00 PM 17.39 63.302 0.085 7.42 3.2 8.75
7/8/2021 6:15:00 PM 17.34 63.212 0.085 7.41 3.2 8.74
7/8/2021 6:30:00 PM 17.3 63.14 0.085 7.4 3.59 8.72
7/8/2021 6:45:00 PM 17.26 63.068 0.085 7.39 4.08 8.7
7/8/2021 7:00:00 PM 17.24 63.032 0.085 7.39 3.64 8.73
7/8/2021 7:15:00 PM 17.2 62.96 0.085 7.38 3.47 8.69
7/8/2021 7:30:00 PM 17.16 62.888 0.085 7.37 3.38 8.68
7/8/2021 7:45:00 PM 17.13 62.834 0.085 7.36 3.35 8.65
7/8/2021 8:00:00 PM 17.09 62.762 0.085 7.35 3.55 8.64
7/8/2021 8:15:00 PM 17.05 62.69 0.085 7.34 3.51 8.64
7/8/2021 8:30:00 PM 17 62.6 0.085 7.33 3.45 8.63
7/8/2021 8:45:00 PM 16.95 62.51 0.085 7.32 3.54 8.62
7/8/2021 9:00:00 PM 16.9 62.42 0.086 7.3 4.67 8.59
7/8/2021 9:15:00 PM 16.86 62.348 0.086 7.29 3.67 8.6
7/8/2021 9:30:00 PM 16.82 62.276 0.086 7.28 3.74 8.6
7/8/2021 9:45:00 PM 16.77 62.186 0.086 7.28 3.35 8.6
7/8/2021 10:00:00 PM 16.72 62.096 0.086 7.27 3.16 8.6
7/8/2021 10:15:00 PM 16.67 62.006 0.086 7.26 3.76 8.61
7/8/2021 10:30:00 PM 16.63 61.934 0.086 7.26 4 8.61
7/8/2021 10:45:00 PM 16.59 61.862 0.086 7.25 4.21 8.63
7/8/2021 11:00:00 PM 16.55 61.79 0.086 7.26 3.72 8.64
7/8/2021 11:15:00 PM 16.51 61.718 0.086 7.26 3.35 8.64
7/8/2021 11:30:00 PM 16.47 61.646 0.086 7.26 3.99 8.65
7/8/2021 11:45:00 PM 16.44 61.592 0.086 7.26 3.7 8.66
7/9/2021 12:00:00 AM 16.4 61.52 0.086 7.26 3.64 8.66
7/9/2021 12:15:00 AM 16.36 61.448 0.086 7.26 3.61 8.68
7/9/2021 12:30:00 AM 16.33 61.394 0.087 7.27 3.61 8.69
7/9/2021 12:45:00 AM 16.29 61.322 0.087 7.26 3.25 8.69
7/9/2021 1:00:00 AM 16.25 61.25 0.087 7.26 3.17 8.7
7/9/2021 1:15:00 AM 16.21 61.178 0.087 7.26 3.15 8.71
7/9/2021 1:30:00 AM 16.17 61.106 0.087 7.25 3.73 8.71
7/9/2021 1:45:00 AM 16.13 61.034 0.087 7.26 3.75 8.72
7/9/2021 2:00:00 AM 16.11 60.998 0.087 7.27 3.6 8.73
7/9/2021 2:15:00 AM 16.07 60.926 0.087 7.28 3.16 8.74
7/9/2021 2:30:00 AM 16.03 60.854 0.087 7.27 3.05 8.75
7/9/2021 2:45:00 AM 15.99 60.782 0.087 7.28 2.99 8.75
7/9/2021 3:00:00 AM 15.95 60.71 0.087 7.28 3.51 8.76
7/9/2021 3:15:00 AM 15.91 60.638 0.087 7.28 2.98 8.76
7/9/2021 3:30:00 AM 15.86 60.548 0.087 7.28 3.4 8.78
7/9/2021 3:45:00 AM 15.81 60.458 0.087 7.28 3.67 8.79
7/9/2021 4:00:00 AM 15.78 60.404 0.087 7.28 3.39 8.8
7/9/2021 4:15:00 AM 15.74 60.332 0.087 7.28 3.4 8.81
7/9/2021 4:30:00 AM 15.71 60.278 0.087 7.28 4.92 8.81
7/9/2021 4:45:00 AM 15.68 60.224 0.087 7.28 4.39 8.82
7/9/2021 5:00:00 AM 15.65 60.17 0.087 7.28 4.11 8.83
7/9/2021 5:15:00 AM 15.62 60.116 0.087 7.28 3.61 8.83
7/9/2021 5:30:00 AM 15.59 60.062 0.087 7.28 3.75 8.84
7/9/2021 5:45:00 AM 15.56 60.008 0.087 7.27 4.09 8.85
7/9/2021 6:00:00 AM 15.54 59.972 0.087 7.28 3.79 8.86
7/9/2021 6:15:00 AM 15.51 59.918 0.087 7.28 3.81 8.88
7/9/2021 6:30:00 AM 15.49 59.882 0.087 7.29 3.62 8.9
7/9/2021 6:45:00 AM 15.47 59.846 0.087 7.29 3.09 8.92
7/9/2021 7:00:00 AM 15.46 59.828 0.087 7.3 3.79 8.94
7/9/2021 7:15:00 AM 15.45 59.81 0.087 7.31 3.02 8.98
7/9/2021 7:30:00 AM 15.48 59.864 0.087 7.33 3.31 9.06
7/9/2021 7:45:00 AM 15.52 59.936 0.087 7.34 3.26 9.12
7/9/2021 8:00:00 AM 15.56 60.008 0.087 7.36 3.39 9.16
7/9/2021 8:15:00 AM 15.61 60.098 0.087 7.38 3.64 9.19
7/9/2021 8:30:00 AM 15.65 60.17 0.087 7.38 3.24 9.2
7/9/2021 8:45:00 AM 15.68 60.224 0.087 7.39 3.12 9.21
7/9/2021 9:00:00 AM 15.73 60.314 0.087 7.39 3.22 9.22
7/9/2021 9:15:00 AM 15.79 60.422 0.086 7.41 3.56 9.24
7/9/2021 9:30:00 AM 15.8 60.44 0.086 7.42 3.05 9.21
7/9/2021 9:45:00 AM 15.84 60.512 0.086 7.42 3.08 9.22
7/9/2021 10:00:00 AM 15.89 60.602 0.086 7.43 3.14 9.22
7/9/2021 10:15:00 AM 15.92 60.656 0.086 7.43 3.52 9.19
7/9/2021 10:30:00 AM 15.98 60.764 0.086 7.44 4.14 9.21
7/9/2021 10:45:00 AM 16.05 60.89 0.086 7.44 3.29 9.23
7/9/2021 11:00:00 AM 16.11 60.998 0.086 7.45 3.41 9.2
7/9/2021 11:15:00 AM 16.15 61.07 0.086 7.46 3.25 9.19
7/9/2021 11:30:00 AM 16.17 61.106 0.086 7.45 3.29 9.11
7/9/2021 11:45:00 AM 16.22 61.196 0.086 7.44 3.23 9.12
7/9/2021 12:00:00 PM 16.33 61.394 0.086 7.44 3.47 9.15
7/9/2021 12:15:00 PM 16.43 61.574 0.086 7.46 4.07 9.16
7/9/2021 12:30:00 PM 16.4 61.52 0.086 7.46 3.72 9.12
7/9/2021 12:45:00 PM 16.43 61.574 0.086 7.46 3.36 9.11
7/9/2021 1:00:00 PM 16.48 61.664 0.086 7.46 3.35 9.11
7/9/2021 1:15:00 PM 16.8 62.24 0.086 7.47 3.07 9.14
7/9/2021 1:30:00 PM 16.89 62.402 0.086 7.48 3.18 9.1
7/9/2021 1:45:00 PM 16.82 62.276 0.086 7.48 3.19 9.06
7/9/2021 2:00:00 PM 16.88 62.384 0.086 7.48 3.34 8.97
7/9/2021 2:15:00 PM 16.99 62.582 0.086 7.47 3.16 8.99
7/9/2021 2:30:00 PM 17.11 62.798 0.086 7.48 3.61 8.99
7/9/2021 2:45:00 PM 17.22 62.996 0.085 7.48 3.29 8.97
7/9/2021 3:00:00 PM 17.26 63.068 0.085 7.49 3.89 8.95
7/9/2021 3:15:00 PM 17.3 63.14 0.085 7.5 3.03 8.96
7/9/2021 3:30:00 PM 17.38 63.284 0.085 7.5 3.42 8.94
7/9/2021 3:45:00 PM 17.49 63.482 0.085 7.5 3.14 8.89
7/9/2021 4:00:00 PM 17.65 63.77 0.085 7.49 3.36 8.87
7/9/2021 4:15:00 PM 17.75 63.95 0.085 7.5 3.45 8.83
7/9/2021 4:30:00 PM 17.9 64.22 0.086 7.5 3.23 8.81
7/9/2021 4:45:00 PM 18.02 64.436 0.085 7.49 4.92 8.76
7/9/2021 5:00:00 PM 18.09 64.562 0.086 7.49 4.38 8.76
7/9/2021 5:15:00 PM 18.09 64.562 0.085 7.49 4.52 8.71
7/9/2021 5:30:00 PM 18.11 64.598 0.086 7.49 3.61 8.73
7/9/2021 5:45:00 PM 18.14 64.652 0.085 7.48 4.29 8.7
7/9/2021 6:00:00 PM 18.14 64.652 0.085 7.47 3.61 8.66
7/9/2021 6:15:00 PM 18.14 64.652 0.085 7.48 3.48 8.68
7/9/2021 6:30:00 PM 18.11 64.598 0.086 7.47 3.88 8.68
7/9/2021 6:45:00 PM 18.04 64.472 0.086 7.46 3.4 8.64
7/9/2021 7:00:00 PM 17.97 64.346 0.086 7.45 3.98 8.62
7/9/2021 7:15:00 PM 17.91 64.238 0.086 7.44 3.29 8.6
7/9/2021 7:30:00 PM 17.85 64.13 0.086 7.43 3.7 8.58
7/9/2021 7:45:00 PM 17.78 64.004 0.086 7.41 3.82 8.55
7/9/2021 8:00:00 PM 17.7 63.86 0.086 7.4 3.65 8.54
7/9/2021 8:15:00 PM 17.64 63.752 0.086 7.4 3.38 8.53
7/9/2021 8:30:00 PM 17.57 63.626 0.086 7.38 3.82 8.51
7/9/2021 8:45:00 PM 17.49 63.482 0.086 7.38 4.28 8.51
7/9/2021 9:00:00 PM 17.42 63.356 0.086 7.37 3.81 8.5
7/9/2021 9:15:00 PM 17.35 63.23 0.087 7.37 3.74 8.5
7/9/2021 9:30:00 PM 17.28 63.104 0.087 7.35 3.74 8.5
7/9/2021 9:45:00 PM 17.19 62.942 0.087 7.35 4.56 8.52
7/9/2021 10:00:00 PM 17.1 62.78 0.087 7.34 3.84 8.53
7/9/2021 10:15:00 PM 17.01 62.618 0.087 7.34 3.72 8.55
7/9/2021 10:30:00 PM 16.91 62.438 0.087 7.34 3.77 8.56
7/9/2021 10:45:00 PM 16.81 62.258 0.087 7.34 3.25 8.58
7/9/2021 11:00:00 PM 16.71 62.078 0.087 7.33 3.47 8.61
7/9/2021 11:15:00 PM 16.61 61.898 0.087 7.33 3.27 8.63
7/9/2021 11:30:00 PM 16.53 61.754 0.087 7.33 3.28 8.65
7/9/2021 11:45:00 PM 16.45 61.61 0.087 7.33 3.37 8.67
7/10/2021 12:00:00 AM 16.37 61.466 0.087 7.33 3.43 8.68
7/10/2021 12:15:00 AM 16.29 61.322 0.087 7.33 3.34 8.7
7/10/2021 12:30:00 AM 16.22 61.196 0.087 7.33 3.68 8.71
7/10/2021 12:45:00 AM 16.15 61.07 0.087 7.33 3.34 8.73
7/10/2021 1:00:00 AM 16.07 60.926 0.087 7.33 3.75 8.74
7/10/2021 1:15:00 AM 15.99 60.782 0.087 7.33 3.75 8.77
7/10/2021 1:30:00 AM 15.93 60.674 0.087 7.33 3.52 8.77
7/10/2021 1:45:00 AM 15.87 60.566 0.087 7.32 3.51 8.79
7/10/2021 2:00:00 AM 15.82 60.476 0.088 7.32 3.42 8.81
7/10/2021 2:15:00 AM 15.76 60.368 0.087 7.32 2.98 8.82
7/10/2021 2:30:00 AM 15.72 60.296 0.087 7.33 3.26 8.83
7/10/2021 2:45:00 AM 15.68 60.224 0.088 7.32 3.49 8.84
7/10/2021 3:00:00 AM 15.64 60.152 0.087 7.32 3.55 8.85
7/10/2021 3:15:00 AM 15.6 60.08 0.087 7.32 3.05 8.86
7/10/2021 3:30:00 AM 15.56 60.008 0.087 7.32 5.85 8.86
7/10/2021 3:45:00 AM 15.52 59.936 0.087 7.32 4.07 8.87
7/10/2021 4:00:00 AM 15.47 59.846 0.087 7.32 3.77 8.88
7/10/2021 4:15:00 AM 15.42 59.756 0.087 7.32 3.3 8.9
7/10/2021 4:30:00 AM 15.37 59.666 0.087 7.32 3.74 8.9
7/10/2021 4:45:00 AM 15.32 59.576 0.087 7.32 3.29 8.92
7/10/2021 5:00:00 AM 15.26 59.468 0.087 7.31 3.26 8.93
7/10/2021 5:15:00 AM 15.19 59.342 0.087 7.32 3.52 8.95
7/10/2021 5:30:00 AM 15.13 59.234 0.087 7.31 3.25 8.96
7/10/2021 5:45:00 AM 15.07 59.126 0.087 7.31 4.35 8.98
7/10/2021 6:00:00 AM 15.02 59.036 0.087 7.3 3.34 9
7/10/2021 6:15:00 AM 14.96 58.928 0.088 7.31 3.46 9.02
7/10/2021 6:30:00 AM 14.91 58.838 0.087 7.31 3.46 9.05
7/10/2021 6:45:00 AM 14.86 58.748 0.087 7.32 3.54 9.09
7/10/2021 7:00:00 AM 14.84 58.712 0.088 7.32 3.39 9.12
7/10/2021 7:15:00 AM 14.83 58.694 0.087 7.32 3.42 9.16
7/10/2021 7:30:00 AM 14.83 58.694 0.087 7.34 3.26 9.21
7/10/2021 7:45:00 AM 14.84 58.712 0.087 7.35 4.01 9.24
7/10/2021 8:00:00 AM 14.85 58.73 0.087 7.37 3.28 9.27
7/10/2021 8:15:00 AM 14.87 58.766 0.087 7.38 3.24 9.28
7/10/2021 8:30:00 AM 14.89 58.802 0.087 7.38 4.12 9.29
7/10/2021 8:45:00 AM 14.97 58.946 0.087 7.4 3.59 9.34
7/10/2021 9:00:00 AM 14.99 58.982 0.087 7.41 3.2 9.33
7/10/2021 9:15:00 AM 15.08 59.144 0.087 7.42 3.22 9.35
7/10/2021 9:30:00 AM 15.2 59.36 0.087 7.43 4.13 9.36
7/10/2021 9:45:00 AM 15.22 59.396 0.087 7.45 4.03 9.35
7/10/2021 10:00:00 AM 15.28 59.504 0.087 7.45 3.75 9.36
7/10/2021 10:15:00 AM 15.25 59.45 0.087 7.45 3.53 9.34
7/10/2021 10:30:00 AM 15.41 59.738 0.087 7.46 3.66 9.37
7/10/2021 10:45:00 AM 15.45 59.81 0.087 7.48 3.59 9.37
7/10/2021 11:00:00 AM 15.56 60.008 0.087 7.48 3.36 9.41
7/10/2021 11:15:00 AM 15.57 60.026 0.087 7.49 3.61 9.41
7/10/2021 11:30:00 AM 15.59 60.062 0.086 7.5 3.26 9.4
7/10/2021 11:45:00 AM 15.66 60.188 0.086 7.51 3.38 9.42
7/10/2021 12:00:00 PM 15.79 60.422 0.086 7.52 3.87 9.41
7/10/2021 12:15:00 PM 15.97 60.746 0.086 7.53 3.22 9.4
7/10/2021 12:30:00 PM 16.14 61.052 0.086 7.53 3.44 9.39
7/10/2021 12:45:00 PM 16.35 61.43 0.086 7.55 3.01 9.36
7/10/2021 1:00:00 PM 16.69 62.042 0.086 7.55 3.59 9.33
7/10/2021 1:15:00 PM 16.77 62.186 0.086 7.56 3.37 9.28
7/10/2021 1:30:00 PM 16.88 62.384 0.086 7.56 3.07 9.24
7/10/2021 1:45:00 PM 17.07 62.726 0.086 7.56 3.89 9.21
7/10/2021 2:00:00 PM 17.2 62.96 0.086 7.56 3.83 9.17
7/10/2021 2:15:00 PM 17.28 63.104 0.086 7.56 3.67 9.13
7/10/2021 2:30:00 PM 17.34 63.212 0.086 7.56 3.35 9.12
7/10/2021 2:45:00 PM 17.36 63.248 0.086 7.56 3.66 9.08
7/10/2021 3:00:00 PM 17.38 63.284 0.086 7.55 3.14 9.07
7/10/2021 3:15:00 PM 17.38 63.284 0.085 7.54 3.38 9.03
7/10/2021 3:30:00 PM 17.39 63.302 0.086 7.53 3.39 9.02
7/10/2021 3:45:00 PM 17.42 63.356 0.086 7.53 3.58 9.03
7/10/2021 4:00:00 PM 17.45 63.41 0.085 7.54 3.53 9.01
7/10/2021 4:15:00 PM 17.42 63.356 0.086 7.53 3.53 8.98
7/10/2021 4:30:00 PM 17.42 63.356 0.086 7.52 3.43 8.96
7/10/2021 4:45:00 PM 17.46 63.428 0.086 7.52 3.29 8.95
7/10/2021 5:00:00 PM 17.49 63.482 0.086 7.51 3.37 8.92
7/10/2021 5:15:00 PM 17.52 63.536 0.086 7.51 3.08 8.91
7/10/2021 5:30:00 PM 17.52 63.536 0.086 7.51 3.57 8.89
7/10/2021 5:45:00 PM 17.49 63.482 0.086 7.49 3.56 8.84
7/10/2021 6:00:00 PM 17.44 63.392 0.086 7.47 3.16 8.78
7/10/2021 6:15:00 PM 17.4 63.32 0.086 7.44 3.95 8.75
7/10/2021 6:30:00 PM 17.38 63.284 0.086 7.43 3.92 8.75
7/10/2021 6:45:00 PM 17.35 63.23 0.086 7.42 3.26 8.76
7/10/2021 7:00:00 PM 17.3 63.14 0.086 7.42 3.49 8.76
7/10/2021 7:15:00 PM 17.25 63.05 0.086 7.42 3.34 8.77
7/10/2021 7:30:00 PM 17.2 62.96 0.086 7.41 3.39 8.75
7/10/2021 7:45:00 PM 17.15 62.87 0.087 7.41 3.34 8.73
7/10/2021 8:00:00 PM 17.1 62.78 0.087 7.4 3.78 8.71
7/10/2021 8:15:00 PM 17.04 62.672 0.087 7.39 3.12 8.69
7/10/2021 8:30:00 PM 16.98 62.564 0.087 7.38 3.42 8.66
7/10/2021 8:45:00 PM 16.91 62.438 0.087 7.37 3.46 8.65
7/10/2021 9:00:00 PM 16.83 62.294 0.087 7.37 3.6 8.66
7/10/2021 9:15:00 PM 16.74 62.132 0.087 7.36 3.74 8.65
7/10/2021 9:30:00 PM 16.66 61.988 0.087 7.36 3.39 8.65
7/10/2021 9:45:00 PM 16.58 61.844 0.087 7.36 3.65 8.65
7/10/2021 10:00:00 PM 16.5 61.7 0.087 7.35 3.26 8.67
7/10/2021 10:15:00 PM 16.42 61.556 0.087 7.35 3.45 8.69
7/10/2021 10:30:00 PM 16.35 61.43 0.088 7.35 3.59 8.7
7/10/2021 10:45:00 PM 16.27 61.286 0.088 7.34 3.46 8.72
7/10/2021 11:00:00 PM 16.19 61.142 0.088 7.34 3.46 8.73
7/10/2021 11:15:00 PM 16.12 61.016 0.088 7.34 3.99 8.75
7/10/2021 11:30:00 PM 16.04 60.872 0.088 7.33 3.71 8.76
7/10/2021 11:45:00 PM 15.97 60.746 0.088 7.34 3.42 8.78
7/11/2021 12:00:00 AM 15.89 60.602 0.088 7.33 4.12 8.79
7/11/2021 12:15:00 AM 15.82 60.476 0.088 7.33 3.63 8.81
7/11/2021 12:30:00 AM 15.74 60.332 0.088 7.33 3.15 8.83
7/11/2021 12:45:00 AM 15.67 60.206 0.088 7.33 3.14 8.84
7/11/2021 1:00:00 AM 15.61 60.098 0.088 7.32 3.2 8.85
7/11/2021 1:15:00 AM 15.54 59.972 0.088 7.33 3.13 8.87
7/11/2021 1:30:00 AM 15.47 59.846 0.088 7.32 3.25 8.88
7/11/2021 1:45:00 AM 15.41 59.738 0.088 7.32 3.32 8.9
7/11/2021 2:00:00 AM 15.35 59.63 0.088 7.32 3.14 8.91
7/11/2021 2:15:00 AM 15.29 59.522 0.088 7.32 3 8.92
7/11/2021 2:30:00 AM 15.23 59.414 0.088 7.32 2.98 8.94
7/11/2021 2:45:00 AM 15.18 59.324 0.088 7.32 3.15 8.95
7/11/2021 3:00:00 AM 15.12 59.216 0.088 7.32 3 8.97
7/11/2021 3:15:00 AM 15.07 59.126 0.088 7.32 3.13 8.97
7/11/2021 3:30:00 AM 15.02 59.036 0.088 7.32 3.11 8.99
7/11/2021 3:45:00 AM 14.97 58.946 0.088 7.32 3.42 9
7/11/2021 4:00:00 AM 14.92 58.856 0.088 7.32 3.04 9.01
7/11/2021 4:15:00 AM 14.87 58.766 0.088 7.32 3.75 9.03
7/11/2021 4:30:00 AM 14.82 58.676 0.088 7.32 3.61 9.04
7/11/2021 4:45:00 AM 14.76 58.568 0.088 7.32 2.99 9.05
7/11/2021 5:00:00 AM 14.71 58.478 0.089 7.32 3.31 9.07
7/11/2021 5:15:00 AM 14.66 58.388 0.088 7.32 3.34 9.08
7/11/2021 5:30:00 AM 14.6 58.28 0.088 7.32 3.32 9.09
7/11/2021 5:45:00 AM 14.55 58.19 0.088 7.32 3.37 9.1
7/11/2021 6:00:00 AM 14.51 58.118 0.088 7.32 3.17 9.12
7/11/2021 6:15:00 AM 14.46 58.028 0.088 7.31 3.63 9.15
7/11/2021 6:30:00 AM 14.43 57.974 0.088 7.31 3.33 9.18
7/11/2021 6:45:00 AM 14.4 57.92 0.088 7.32 3.32 9.21
7/11/2021 7:00:00 AM 14.39 57.902 0.088 7.32 3.7 9.25
7/11/2021 7:15:00 AM 14.37 57.866 0.088 7.33 3.6 9.27
7/11/2021 7:30:00 AM 14.37 57.866 0.088 7.34 3.24 9.32
7/11/2021 7:45:00 AM 14.37 57.866 0.088 7.35 3.4 9.35
7/11/2021 8:00:00 AM 14.37 57.866 0.088 7.36 3.18 9.36
7/11/2021 8:15:00 AM 14.37 57.866 0.088 7.36 3.32 9.36
7/11/2021 8:30:00 AM 14.38 57.884 0.088 7.37 3.07 9.38
7/11/2021 8:45:00 AM 14.4 57.92 0.088 7.38 3.27 9.4
7/11/2021 9:00:00 AM 14.4 57.92 0.088 7.38 3.12 9.39
7/11/2021 9:15:00 AM 14.42 57.956 0.088 7.39 3.03 9.41
7/11/2021 9:30:00 AM 14.47 58.046 0.087 7.4 2.93 9.47
7/11/2021 9:45:00 AM 14.5 58.1 0.087 7.41 3.33 9.46
7/11/2021 10:00:00 AM 14.52 58.136 0.087 7.41 3.32 9.44
7/11/2021 10:15:00 AM 14.54 58.172 0.087 7.41 3 9.43
7/11/2021 10:30:00 AM 14.6 58.28 0.087 7.42 3.38 9.47
7/11/2021 10:45:00 AM 14.66 58.388 0.087 7.43 3.29 9.47
7/11/2021 11:00:00 AM 14.68 58.424 0.087 7.43 3.38 9.46
7/11/2021 11:15:00 AM 14.72 58.496 0.087 7.44 3.23 9.46
7/11/2021 11:30:00 AM 14.76 58.568 0.087 7.44 3.05 9.44
7/11/2021 11:45:00 AM 14.82 58.676 0.087 7.45 3.09 9.45
7/11/2021 12:00:00 PM 14.85 58.73 0.087 7.46 3.25 9.44
7/11/2021 12:15:00 PM 14.88 58.784 0.087 7.45 3.31 9.43
7/11/2021 12:30:00 PM 14.9 58.82 0.087 7.45 3.36 9.41
7/11/2021 12:45:00 PM 14.91 58.838 0.087 7.45 3.58 9.38
7/11/2021 1:00:00 PM 14.92 58.856 0.087 7.44 3.08 9.34
7/11/2021 1:15:00 PM 14.92 58.856 0.087 7.42 3.06 9.31
7/11/2021 1:30:00 PM 14.93 58.874 0.087 7.41 3.43 9.29
7/11/2021 1:45:00 PM 14.93 58.874 0.087 7.4 2.98 9.28
7/11/2021 2:00:00 PM 14.94 58.892 0.087 7.4 3.36 9.27
7/11/2021 2:15:00 PM 14.94 58.892 0.087 7.41 2.97 9.27
7/11/2021 2:30:00 PM 14.94 58.892 0.087 7.4 3.16 9.26
7/11/2021 2:45:00 PM 14.95 58.91 0.087 7.4 3.02 9.26
7/11/2021 3:00:00 PM 14.96 58.928 0.087 7.4 3.25 9.25
7/11/2021 3:15:00 PM 14.96 58.928 0.087 7.39 3.11 9.25
7/11/2021 3:30:00 PM 14.96 58.928 0.087 7.38 3.24 9.24
7/11/2021 3:45:00 PM 14.98 58.964 0.087 7.38 3.23 9.25
7/11/2021 4:00:00 PM 14.99 58.982 0.087 7.38 3.08 9.23
7/11/2021 4:15:00 PM 15.01 59.018 0.087 7.38 3.35 9.22
7/11/2021 4:30:00 PM 15.02 59.036 0.087 7.38 4.4 9.2
7/11/2021 4:45:00 PM 15.04 59.072 0.087 7.37 4.78 9.2
7/11/2021 5:00:00 PM 15.05 59.09 0.087 7.37 3.94 9.17
7/11/2021 5:15:00 PM 15.06 59.108 0.087 7.37 3.71 9.16
7/11/2021 5:30:00 PM 15.08 59.144 0.087 7.36 3.4 9.13
7/11/2021 5:45:00 PM -99999.99 -179968 -99999.99 -99999.99 -99999.99 -99999.99
7/11/2021 6:00:00 PM -99999.99 -179968 -99999.99 -99999.99 -99999.99 -99999.99
7/11/2021 6:15:00 PM -99999.99 -179968 -99999.99 -99999.99 -99999.99 -99999.99
7/11/2021 6:30:00 PM 15.15 59.27 0.085 7.33 5.14 9.06
7/11/2021 6:45:00 PM 15.16 59.288 0.085 7.32 5.36 9.03
7/11/2021 7:00:00 PM 15.19 59.342 0.084 7.32 4.76 9.03
7/11/2021 7:15:00 PM 15.19 59.342 0.084 7.32 5.47 9.04
7/11/2021 7:30:00 PM 15.19 59.342 0.084 7.33 5.84 9.03
7/11/2021 7:45:00 PM 15.28 59.504 0.082 7.32 8.97 9.03
7/11/2021 8:00:00 PM 15.32 59.576 0.082 7.31 10.03 9
7/11/2021 8:15:00 PM 15.28 59.504 0.082 7.3 9.17 9.01
7/11/2021 8:30:00 PM 15.23 59.414 0.082 7.3 8.8 9.03
7/11/2021 8:45:00 PM 15.18 59.324 0.082 7.3 9.99 9.04
7/11/2021 9:00:00 PM 15.13 59.234 0.082 7.29 10.89 9.05
7/11/2021 9:15:00 PM 15.08 59.144 0.082 7.27 11.37 9.06
7/11/2021 9:30:00 PM 15.04 59.072 0.081 7.28 10.7 9.07
7/11/2021 9:45:00 PM 15 59 0.08 7.26 11.08 9.09
7/11/2021 10:00:00 PM 14.96 58.928 0.079 7.25 12.11 9.12
7/11/2021 10:15:00 PM 14.93 58.874 0.078 7.24 10.9 9.13
7/11/2021 10:30:00 PM 14.91 58.838 0.079 7.24 11.43 9.15
7/11/2021 10:45:00 PM 14.89 58.802 0.081 7.23 10.74 9.16
7/11/2021 11:00:00 PM 14.88 58.784 0.082 7.24 9.27 9.16
7/11/2021 11:15:00 PM 14.88 58.784 0.082 7.24 8.58 9.16
7/11/2021 11:30:00 PM 14.89 58.802 0.082 7.25 7.73 9.16
7/11/2021 11:45:00 PM 14.9 58.82 0.082 7.24 8.07 9.14
7/12/2021 12:00:00 AM 14.91 58.838 0.081 7.25 7.57 9.14
7/12/2021 12:15:00 AM 14.92 58.856 0.081 7.24 7.15 9.13
7/12/2021 12:30:00 AM 14.93 58.874 0.081 7.24 7.39 9.13
7/12/2021 12:45:00 AM 14.94 58.892 0.082 7.23 7.03 9.12
7/12/2021 1:00:00 AM 14.95 58.91 0.082 7.23 6.93 9.11
7/12/2021 1:15:00 AM 14.95 58.91 0.083 7.23 6.63 9.11
7/12/2021 1:30:00 AM 14.95 58.91 0.083 7.22 6.69 9.1
7/12/2021 1:45:00 AM 14.96 58.928 0.083 7.21 6.02 9.09
7/12/2021 2:00:00 AM 14.96 58.928 0.083 7.21 5.88 9.09
7/12/2021 2:15:00 AM 14.96 58.928 0.083 7.21 6.17 9.09
7/12/2021 2:30:00 AM 14.95 58.91 0.084 7.21 5.73 9.09
7/12/2021 2:45:00 AM 14.95 58.91 0.084 7.2 5.82 9.09
7/12/2021 3:00:00 AM 14.94 58.892 0.084 7.2 5.39 9.08
7/12/2021 3:15:00 AM 14.94 58.892 0.084 7.2 5.2 9.08
7/12/2021 3:30:00 AM 14.93 58.874 0.084 7.19 5.6 9.08
7/12/2021 3:45:00 AM 14.93 58.874 0.084 7.19 5.31 9.08
7/12/2021 4:00:00 AM 14.92 58.856 0.084 7.19 5.34 9.09
7/12/2021 4:15:00 AM 14.91 58.838 0.084 7.19 5.95 9.08
7/12/2021 4:30:00 AM 14.91 58.838 0.085 7.18 5.81 9.08
7/12/2021 4:45:00 AM 14.9 58.82 0.085 7.17 5.4 9.08
7/12/2021 5:00:00 AM 14.89 58.802 0.085 7.18 5.06 9.08
7/12/2021 5:15:00 AM 14.88 58.784 0.085 7.17 5.58 9.08
7/12/2021 5:30:00 AM 14.87 58.766 0.085 7.17 5.36 9.08
7/12/2021 5:45:00 AM 14.87 58.766 0.085 7.17 5.19 9.09
7/12/2021 6:00:00 AM 14.86 58.748 0.086 7.17 4.98 9.09
7/12/2021 6:15:00 AM 14.85 58.73 0.086 7.18 4.96 9.09
7/12/2021 6:30:00 AM 14.84 58.712 0.086 7.18 4.84 9.1
7/12/2021 6:45:00 AM 14.84 58.712 0.086 7.19 4.56 9.12
7/12/2021 7:00:00 AM 14.84 58.712 0.086 7.19 4.2 9.15
7/12/2021 7:15:00 AM 14.85 58.73 0.086 7.2 4.05 9.17
7/12/2021 7:30:00 AM 14.86 58.748 0.086 7.2 3.95 9.19
7/12/2021 7:45:00 AM 14.87 58.766 0.086 7.23 4.17 9.22
7/12/2021 8:00:00 AM 14.89 58.802 0.086 7.24 3.98 9.25
7/12/2021 8:15:00 AM 14.92 58.856 0.086 7.26 4.08 9.27
7/12/2021 8:30:00 AM 14.94 58.892 0.086 7.28 3.9 9.29
7/12/2021 8:45:00 AM 14.99 58.982 0.086 7.3 3.85 9.33
7/12/2021 9:00:00 AM 15.07 59.126 0.086 7.32 3.82 9.38
7/12/2021 9:15:00 AM 15.11 59.198 0.086 7.33 3.45 9.39
7/12/2021 9:30:00 AM 15.17 59.306 0.087 7.34 3.75 9.39
7/12/2021 9:45:00 AM 15.27 59.486 0.087 7.36 3.97 9.4
7/12/2021 10:00:00 AM 15.37 59.666 0.087 7.37 3.91 9.41
7/12/2021 10:15:00 AM 15.42 59.756 0.087 7.38 4.01 9.38
7/12/2021 10:30:00 AM 15.61 60.098 0.087 7.4 3.62 9.39
7/12/2021 10:45:00 AM 15.67 60.206 0.087 7.41 3.5 9.36
7/12/2021 11:00:00 AM 15.72 60.296 0.087 7.43 4.04 9.35
7/12/2021 11:15:00 AM 15.85 60.53 0.087 7.43 3.66 9.37
7/12/2021 11:30:00 AM 15.91 60.638 0.087 7.44 3.9 9.35
7/12/2021 11:45:00 AM 16.17 61.106 0.087 7.45 3.72 9.36
7/12/2021 12:00:00 PM 16.37 61.466 0.087 7.47 3.41 9.29
7/12/2021 12:15:00 PM 16.46 61.628 0.087 7.47 3.46 9.29
7/12/2021 12:30:00 PM 16.49 61.682 0.087 7.46 3.66 9.21
7/12/2021 12:45:00 PM 16.66 61.988 0.087 7.47 3.62 9.24
7/12/2021 1:00:00 PM 16.71 62.078 0.087 7.48 3.45 9.22
7/12/2021 1:15:00 PM 16.92 62.456 0.086 7.49 3.48 9.23
7/12/2021 1:30:00 PM 16.95 62.51 0.086 7.49 3.58 9.18
7/12/2021 1:45:00 PM 17.04 62.672 0.086 7.49 3.55 9.15
7/12/2021 2:00:00 PM 17.1 62.78 0.087 7.48 3.69 9.04
7/12/2021 2:15:00 PM 17.11 62.798 0.087 7.45 3.25 8.94
7/12/2021 2:30:00 PM 17.13 62.834 0.087 7.44 3.24 8.95
7/12/2021 2:45:00 PM 17.22 62.996 0.087 7.44 3.42 9.02
7/12/2021 3:00:00 PM 17.24 63.032 0.087 7.45 3.6 9.03
7/12/2021 3:15:00 PM 17.25 63.05 0.087 7.46 3.5 9.04
7/12/2021 3:30:00 PM 17.33 63.194 0.087 7.47 3.22 9.01
7/12/2021 3:45:00 PM 17.48 63.464 0.087 7.47 3.33 9
7/12/2021 4:00:00 PM 17.59 63.662 0.086 7.47 3.32 8.96
7/12/2021 4:15:00 PM 17.64 63.752 0.087 7.46 3.86 8.9
7/12/2021 4:30:00 PM 17.7 63.86 0.086 7.46 3.3 8.92
7/12/2021 4:45:00 PM 17.74 63.932 0.087 7.46 3.52 8.89
7/12/2021 5:00:00 PM 17.73 63.914 0.086 7.46 3.34 8.86
7/12/2021 5:15:00 PM 17.77 63.986 0.086 7.46 4.23 8.87
7/12/2021 5:30:00 PM 17.78 64.004 0.086 7.46 3.88 8.86
7/12/2021 5:45:00 PM 17.77 63.986 0.086 7.47 3.64 8.86
7/12/2021 6:00:00 PM 17.76 63.968 0.086 7.46 3.81 8.84
7/12/2021 6:15:00 PM 17.77 63.986 0.087 7.44 3.64 8.8
7/12/2021 6:30:00 PM 17.74 63.932 0.087 7.41 4.59 8.72
7/12/2021 6:45:00 PM 17.7 63.86 0.087 7.4 3.84 8.69
7/12/2021 7:00:00 PM 17.64 63.752 0.087 7.39 4.01 8.66
7/12/2021 7:15:00 PM 17.56 63.608 0.087 7.37 3.4 8.66
7/12/2021 7:30:00 PM 17.5 63.5 0.087 7.35 3.36 8.68
7/12/2021 7:45:00 PM 17.46 63.428 0.088 7.34 3.4 8.68
7/12/2021 8:00:00 PM 17.44 63.392 0.087 7.34 3.7 8.68
7/12/2021 8:15:00 PM 17.39 63.302 0.088 7.33 3.34 8.66
7/12/2021 8:30:00 PM 17.33 63.194 0.088 7.32 3.74 8.65
7/12/2021 8:45:00 PM 17.27 63.086 0.088 7.31 3.63 8.64
7/12/2021 9:00:00 PM 17.2 62.96 0.088 7.3 3.86 8.63
7/12/2021 9:15:00 PM 17.12 62.816 0.088 7.29 3.52 8.63
7/12/2021 9:30:00 PM 17.05 62.69 0.088 7.28 3.91 8.64
7/12/2021 9:45:00 PM 16.99 62.582 0.088 7.27 3.64 8.65
7/12/2021 10:00:00 PM 16.93 62.474 0.088 7.25 3.8 8.66
7/12/2021 10:15:00 PM 16.88 62.384 0.088 7.25 3.78 8.66
7/12/2021 10:30:00 PM 16.83 62.294 0.088 7.24 3.5 8.67
7/12/2021 10:45:00 PM 16.78 62.204 0.088 7.23 3.56 8.68
7/12/2021 11:00:00 PM 16.73 62.114 0.088 7.23 3.38 8.69
7/12/2021 11:15:00 PM 16.68 62.024 0.088 7.22 3.89 8.7
7/12/2021 11:30:00 PM 16.63 61.934 0.088 7.22 3.81 8.71
7/12/2021 11:45:00 PM 16.58 61.844 0.088 7.21 3.36 8.71
7/13/2021 12:00:00 AM 16.54 61.772 0.088 7.2 3.91 8.73
7/13/2021 12:15:00 AM 16.5 61.7 0.088 7.2 3.34 8.73
7/13/2021 12:30:00 AM 16.45 61.61 0.088 7.19 3.45 8.74
7/13/2021 12:45:00 AM 16.41 61.538 0.089 7.18 3.89 8.75
7/13/2021 1:00:00 AM 16.37 61.466 0.089 7.18 3.67 8.76
7/13/2021 1:15:00 AM 16.34 61.412 0.089 7.18 3.26 8.76
7/13/2021 1:30:00 AM 16.31 61.358 0.089 7.17 3.41 8.77
7/13/2021 1:45:00 AM 16.27 61.286 0.089 7.17 3.49 8.78
7/13/2021 2:00:00 AM 16.23 61.214 0.089 7.16 3.47 8.78
7/13/2021 2:15:00 AM 16.19 61.142 0.089 7.16 3.37 8.79
7/13/2021 2:30:00 AM 16.15 61.07 0.089 7.16 3.48 8.79
7/13/2021 2:45:00 AM 16.1 60.98 0.089 7.15 3.68 8.8
7/13/2021 3:00:00 AM 16.07 60.926 0.089 7.16 3.47 8.82
7/13/2021 3:15:00 AM 16.03 60.854 0.089 7.16 3.38 8.83
7/13/2021 3:30:00 AM 15.99 60.782 0.089 7.15 3.43 8.83
7/13/2021 3:45:00 AM 15.96 60.728 0.089 7.16 3.35 8.84
7/13/2021 4:00:00 AM 15.93 60.674 0.089 7.16 3.99 8.85
7/13/2021 4:15:00 AM 15.9 60.62 0.089 7.17 3.72 8.86
7/13/2021 4:30:00 AM 15.86 60.548 0.089 7.16 3.07 8.87
7/13/2021 4:45:00 AM 15.84 60.512 0.089 7.16 4.02 8.88
7/13/2021 5:00:00 AM 15.81 60.458 0.089 7.16 4.3 8.89
7/13/2021 5:15:00 AM 15.78 60.404 0.089 7.16 3.48 8.89
7/13/2021 5:30:00 AM 15.76 60.368 0.089 7.15 3.4 8.9
7/13/2021 5:45:00 AM 15.74 60.332 0.089 7.14 3.43 8.91
7/13/2021 6:00:00 AM 15.72 60.296 0.089 7.16 4.05 8.92
7/13/2021 6:15:00 AM 15.7 60.26 0.089 7.16 3.41 8.93
7/13/2021 6:30:00 AM 15.68 60.224 0.089 7.16 3.36 8.96
7/13/2021 6:45:00 AM 15.67 60.206 0.089 7.16 3.71 8.98
7/13/2021 7:00:00 AM 15.67 60.206 0.089 7.17 3.47 9.04
7/13/2021 7:15:00 AM 15.68 60.224 0.089 7.18 3.52 9.08
7/13/2021 7:30:00 AM 15.69 60.242 0.089 7.19 3.39 9.12
7/13/2021 7:45:00 AM 15.71 60.278 0.089 7.2 3.41 9.15
7/13/2021 8:00:00 AM 15.72 60.296 0.089 7.23 3.36 9.14
7/13/2021 8:15:00 AM 15.72 60.296 0.089 7.24 3.37 9.12
7/13/2021 8:30:00 AM 15.73 60.314 0.089 7.25 3.5 9.09
7/13/2021 8:45:00 AM 15.74 60.332 0.089 7.27 3.19 9.1
7/13/2021 9:00:00 AM 15.74 60.332 0.089 7.28 3.4 9.13
7/13/2021 9:15:00 AM 15.74 60.332 0.089 7.29 3.26 9.14
7/13/2021 9:30:00 AM 15.78 60.404 0.089 7.29 3.28 9.2
7/13/2021 9:45:00 AM 15.85 60.53 0.089 7.32 3.5 9.26
7/13/2021 10:00:00 AM 15.91 60.638 0.089 7.35 3.44 9.29
7/13/2021 10:15:00 AM 16 60.8 0.088 7.37 3.3 9.31
7/13/2021 10:30:00 AM 16.11 60.998 0.088 7.4 3.52 9.31
7/13/2021 10:45:00 AM 16.26 61.268 0.088 7.42 3.42 9.32
7/13/2021 11:00:00 AM 16.39 61.502 0.088 7.45 3.28 9.32
7/13/2021 11:15:00 AM 16.48 61.664 0.088 7.46 3.24 9.3
7/13/2021 11:30:00 AM 16.66 61.988 0.088 7.47 3.39 9.29
7/13/2021 11:45:00 AM 16.83 62.294 0.088 7.48 3.47 9.26
7/13/2021 12:00:00 PM 16.99 62.582 0.088 7.48 3.3 9.24
7/13/2021 12:15:00 PM 17.1 62.78 0.088 7.49 3.57 9.18
7/13/2021 12:30:00 PM 17.29 63.122 0.088 7.49 3.44 9.14
7/13/2021 12:45:00 PM 17.42 63.356 0.088 7.49 3.36 9.12
7/13/2021 1:00:00 PM 17.4 63.32 0.088 7.48 3.44 9.07
7/13/2021 1:15:00 PM 17.64 63.752 0.088 7.48 3.51 9.07
7/13/2021 1:30:00 PM 17.57 63.626 0.088 7.48 3.46 9
7/13/2021 1:45:00 PM 17.75 63.95 0.088 7.48 3.81 8.99
7/13/2021 2:00:00 PM 18.13 64.634 0.088 7.49 3.55 8.97
7/13/2021 2:15:00 PM 18.36 65.048 0.088 7.5 3.6 8.94
7/13/2021 2:30:00 PM 18.35 65.03 0.088 7.5 3.38 8.83
7/13/2021 2:45:00 PM 18.48 65.264 0.087 7.5 3.36 8.82
7/13/2021 3:00:00 PM 18.55 65.39 0.088 7.47 3.27 8.73
7/13/2021 3:15:00 PM 18.64 65.552 0.085 7.46 4.24 8.67
7/13/2021 3:30:00 PM 18.66 65.588 0.084 7.45 6.56 8.7
7/13/2021 3:45:00 PM 18.7 65.66 0.084 7.45 5.81 8.69
7/13/2021 4:00:00 PM 18.63 65.534 0.085 7.45 5.07 8.7
7/13/2021 4:15:00 PM 18.67 65.606 0.086 7.44 4.83 8.66
7/13/2021 4:30:00 PM 18.8 65.84 0.087 7.43 6.12 8.6
7/13/2021 4:45:00 PM 18.93 66.074 0.087 7.42 5.79 8.55
7/13/2021 5:00:00 PM 19.03 66.254 0.088 7.42 4.73 8.54
7/13/2021 5:15:00 PM 19.05 66.29 0.088 7.41 4.27 8.54
7/13/2021 5:30:00 PM 19.04 66.272 0.088 7.4 3.95 8.54
7/13/2021 5:45:00 PM 19.03 66.254 0.089 7.4 4.09 8.5
7/13/2021 6:00:00 PM 19.03 66.254 0.089 7.4 4.07 8.5
7/13/2021 6:15:00 PM 19 66.2 0.089 7.38 3.88 8.48
7/13/2021 6:30:00 PM 18.97 66.146 0.089 7.38 3.94 8.46
7/13/2021 6:45:00 PM 18.93 66.074 0.089 7.37 3.76 8.45
7/13/2021 7:00:00 PM 18.86 65.948 0.089 7.35 3.77 8.41
7/13/2021 7:15:00 PM 18.84 65.912 0.087 7.34 4.2 8.39
7/13/2021 7:30:00 PM 18.75 65.75 0.087 7.32 4.73 8.37
7/13/2021 7:45:00 PM 18.7 65.66 0.088 7.32 4.84 8.32
7/13/2021 8:00:00 PM 18.59 65.462 0.088 7.32 4.49 8.32
7/13/2021 8:15:00 PM 18.47 65.246 0.087 7.3 4.53 8.33
7/13/2021 8:30:00 PM 18.35 65.03 0.087 7.3 5.76 8.34
7/13/2021 8:45:00 PM 18.25 64.85 0.088 7.29 6.24 8.36
7/13/2021 9:00:00 PM 18.15 64.67 0.088 7.29 6 8.38
7/13/2021 9:15:00 PM 18.04 64.472 0.088 7.28 5.56 8.4
7/13/2021 9:30:00 PM 17.93 64.274 0.088 7.28 6.35 8.43
7/13/2021 9:45:00 PM 17.83 64.094 0.088 7.27 6.34 8.47
7/13/2021 10:00:00 PM 17.72 63.896 0.087 7.27 7.18 8.51
7/13/2021 10:15:00 PM 17.58 63.644 0.086 7.25 11.59 8.56
7/13/2021 10:30:00 PM 17.42 63.356 0.083 7.26 11.02 8.63
7/13/2021 10:45:00 PM 17.26 63.068 0.082 7.25 12.75 8.68
7/13/2021 11:00:00 PM 17.15 62.87 0.083 7.26 12.3 8.72
7/13/2021 11:15:00 PM 17.12 62.816 0.086 7.27 11.72 8.73
7/13/2021 11:30:00 PM 17.11 62.798 0.087 7.28 11.32 8.73
7/13/2021 11:45:00 PM 17.09 62.762 0.086 7.28 10.98 8.73
7/14/2021 12:00:00 AM 17.07 62.726 0.084 7.28 11.29 8.74
7/14/2021 12:15:00 AM 17.04 62.672 0.083 7.28 12.07 8.74
7/14/2021 12:30:00 AM 17.02 62.636 0.083 7.28 12.19 8.74
7/14/2021 12:45:00 AM 16.99 62.582 0.083 7.27 11.47 8.74
7/14/2021 1:00:00 AM 16.97 62.546 0.084 7.27 11.2 8.74
7/14/2021 1:15:00 AM 16.95 62.51 0.084 7.28 10.75 8.74
7/14/2021 1:30:00 AM 16.92 62.456 0.084 7.27 9.81 8.74
7/14/2021 1:45:00 AM 16.88 62.384 0.084 7.28 10.04 8.75
7/14/2021 2:00:00 AM 16.84 62.312 0.084 7.27 9.45 8.76
7/14/2021 2:15:00 AM 16.81 62.258 0.083 7.27 9 8.77
7/14/2021 2:30:00 AM 16.77 62.186 0.083 7.27 8.52 8.77
7/14/2021 2:45:00 AM 16.73 62.114 0.083 7.27 8.01 8.78
7/14/2021 3:00:00 AM 16.68 62.024 0.084 7.27 7.59 8.79
7/14/2021 3:15:00 AM 16.64 61.952 0.083 7.26 7.21 8.79
7/14/2021 3:30:00 AM 16.6 61.88 0.083 7.27 7.43 8.8
7/14/2021 3:45:00 AM 16.56 61.808 0.084 7.26 6.91 8.81
7/14/2021 4:00:00 AM 16.52 61.736 0.084 7.26 6.46 8.82
7/14/2021 4:15:00 AM 16.48 61.664 0.084 7.26 6.41 8.82
7/14/2021 4:30:00 AM 16.44 61.592 0.084 7.26 6.27 8.83
7/14/2021 4:45:00 AM 16.4 61.52 0.084 7.27 5.97 8.84
7/14/2021 5:00:00 AM 16.35 61.43 0.084 7.27 5.62 8.84
7/14/2021 5:15:00 AM 16.32 61.376 0.084 7.26 5.84 8.85
7/14/2021 5:30:00 AM 16.28 61.304 0.085 7.26 5.65 8.86
7/14/2021 5:45:00 AM 16.25 61.25 0.085 7.27 5.95 8.87
7/14/2021 6:00:00 AM 16.22 61.196 0.085 7.26 5.55 8.88
7/14/2021 6:15:00 AM 16.19 61.142 0.085 7.25 5.5 8.88
7/14/2021 6:30:00 AM 16.16 61.088 0.085 7.25 5.54 8.9
7/14/2021 6:45:00 AM 16.13 61.034 0.086 7.26 5.45 8.91
7/14/2021 7:00:00 AM 16.11 60.998 0.086 7.25 5.2 8.93
7/14/2021 7:15:00 AM 16.09 60.962 0.086 7.26 5.04 8.96
7/14/2021 7:30:00 AM 16.07 60.926 0.086 7.26 4.85 8.99
7/14/2021 7:45:00 AM 16.06 60.908 0.086 7.27 4.82 9
7/14/2021 8:00:00 AM 16.03 60.854 0.087 7.27 4.95 9
7/14/2021 8:15:00 AM 16.02 60.836 0.087 7.26 4.64 9
7/14/2021 8:30:00 AM 16 60.8 0.087 7.26 4.82 9.02
7/14/2021 8:45:00 AM 15.99 60.782 0.087 7.27 4.65 9.05
7/14/2021 9:00:00 AM 15.99 60.782 0.087 7.29 4.28 9.07
7/14/2021 9:15:00 AM 16 60.8 0.087 7.3 4.42 9.1
7/14/2021 9:30:00 AM 15.99 60.782 0.087 7.3 4.35 9.09
7/14/2021 9:45:00 AM 15.98 60.764 0.087 7.3 4.46 9.08
7/14/2021 10:00:00 AM 15.98 60.764 0.088 7.31 4.24 9.1
7/14/2021 10:15:00 AM 15.99 60.782 0.087 7.33 4.31 9.14
7/14/2021 10:30:00 AM 16.07 60.926 0.087 7.34 4.14 9.2
7/14/2021 10:45:00 AM 16.13 61.034 0.087 7.37 4.14 9.22
7/14/2021 11:00:00 AM 16.2 61.16 0.087 7.39 4.23 9.22
7/14/2021 11:15:00 AM 16.26 61.268 0.087 7.4 3.91 9.23
7/14/2021 11:30:00 AM 16.31 61.358 0.087 7.41 3.85 9.24
7/14/2021 11:45:00 AM 16.37 61.466 0.087 7.42 4.12 9.24
7/14/2021 12:00:00 PM 16.6 61.88 0.087 7.45 3.98 9.26
7/14/2021 12:15:00 PM 16.77 62.186 0.087 7.45 3.95 9.24
7/14/2021 12:30:00 PM 16.97 62.546 0.087 7.47 3.89 9.21
7/14/2021 12:45:00 PM 17.11 62.798 0.087 7.47 4.27 9.17
7/14/2021 1:00:00 PM 17.2 62.96 0.087 7.46 4.29 9.14
7/14/2021 1:15:00 PM 17.38 63.284 0.087 7.47 3.89 9.13
7/14/2021 1:30:00 PM 17.43 63.374 0.087 7.48 4.29 9.11
7/14/2021 1:45:00 PM 17.4 63.32 0.087 7.47 3.96 9.04
7/14/2021 2:00:00 PM 17.52 63.536 0.087 7.48 4.03 9.02
7/14/2021 2:15:00 PM 17.64 63.752 0.086 7.48 3.91 9.04
7/14/2021 2:30:00 PM 17.64 63.752 0.086 7.47 4.03 8.96
7/14/2021 2:45:00 PM 17.8 64.04 0.086 7.47 3.78 8.96
7/14/2021 3:00:00 PM 17.99 64.382 0.086 7.49 4.19 8.94
7/14/2021 3:15:00 PM 17.96 64.328 0.086 7.49 4.12 8.94
7/14/2021 3:30:00 PM 18.02 64.436 0.085 7.48 4.22 8.9
7/14/2021 3:45:00 PM 18.17 64.706 0.085 7.47 4.19 8.87
7/14/2021 4:00:00 PM 18.32 64.976 0.085 7.46 4.36 8.84
7/14/2021 4:15:00 PM 18.37 65.066 0.085 7.46 4.07 8.82
7/14/2021 4:30:00 PM 18.36 65.048 0.085 7.46 4.41 8.79
7/14/2021 4:45:00 PM 18.34 65.012 0.084 7.45 4.09 8.8
7/14/2021 5:00:00 PM 18.26 64.868 0.084 7.46 4.32 8.82
7/14/2021 5:15:00 PM 18.17 64.706 0.084 7.46 4.46 8.81
7/14/2021 5:30:00 PM 18.13 64.634 0.084 7.45 4.73 8.8
7/14/2021 5:45:00 PM 18.12 64.616 0.084 7.44 4.32 8.78
7/14/2021 6:00:00 PM 18.09 64.562 0.084 7.43 3.93 8.77
7/14/2021 6:15:00 PM 18.04 64.472 0.084 7.43 4.17 8.76
7/14/2021 6:30:00 PM 17.99 64.382 0.084 7.41 3.85 8.75
7/14/2021 6:45:00 PM 17.94 64.292 0.084 7.39 4.41 8.73
7/14/2021 7:00:00 PM 17.89 64.202 0.085 7.39 4.1 8.71
7/14/2021 7:15:00 PM 17.83 64.094 0.085 7.38 4.02 8.71
7/14/2021 7:30:00 PM 17.75 63.95 0.085 7.36 3.77 8.71
7/14/2021 7:45:00 PM 17.67 63.806 0.085 7.34 3.83 8.71
7/14/2021 8:00:00 PM 17.58 63.644 0.086 7.35 3.91 8.7
7/14/2021 8:15:00 PM 17.48 63.464 0.086 7.34 4.06 8.7
7/14/2021 8:30:00 PM 17.39 63.302 0.086 7.33 4.13 8.7
7/14/2021 8:45:00 PM 17.31 63.158 0.086 7.33 3.72 8.69
7/14/2021 9:00:00 PM 17.22 62.996 0.086 7.32 4.06 8.69
7/14/2021 9:15:00 PM 17.13 62.834 0.086 7.33 3.81 8.7
7/14/2021 9:30:00 PM 17.05 62.69 0.086 7.32 4.34 8.7
7/14/2021 9:45:00 PM 16.96 62.528 0.086 7.31 3.78 8.73
7/14/2021 10:00:00 PM 16.87 62.366 0.086 7.31 4.78 8.74
7/14/2021 10:15:00 PM 16.79 62.222 0.086 7.31 4.04 8.76
7/14/2021 10:30:00 PM 16.7 62.06 0.086 7.3 3.94 8.78
7/14/2021 10:45:00 PM 16.62 61.916 0.086 7.3 3.87 8.8
7/14/2021 11:00:00 PM 16.54 61.772 0.087 7.29 3.8 8.81
7/14/2021 11:15:00 PM 16.46 61.628 0.086 7.29 3.92 8.82
7/14/2021 11:30:00 PM 16.38 61.484 0.086 7.3 3.57 8.84
7/14/2021 11:45:00 PM 16.3 61.34 0.087 7.3 3.52 8.86
7/15/2021 12:00:00 AM 16.23 61.214 0.086 7.3 3.88 8.87
7/15/2021 12:15:00 AM 16.16 61.088 0.086 7.3 3.78 8.88
7/15/2021 12:30:00 AM 16.09 60.962 0.086 7.3 3.8 8.9
7/15/2021 12:45:00 AM 16.03 60.854 0.086 7.29 4.14 8.92
7/15/2021 1:00:00 AM 15.97 60.746 0.086 7.29 3.56 8.93
7/15/2021 1:15:00 AM 15.92 60.656 0.086 7.29 3.51 8.94
7/15/2021 1:30:00 AM 15.87 60.566 0.086 7.28 3.46 8.95
7/15/2021 1:45:00 AM 15.82 60.476 0.086 7.29 3.61 8.96
7/15/2021 2:00:00 AM 15.77 60.386 0.086 7.29 3.4 8.98
7/15/2021 2:15:00 AM 15.72 60.296 0.086 7.3 3.68 8.99
7/15/2021 2:30:00 AM 15.67 60.206 0.086 7.3 3.37 9
7/15/2021 2:45:00 AM 15.62 60.116 0.086 7.3 3.55 9.01
7/15/2021 3:00:00 AM 15.57 60.026 0.086 7.29 3.36 9.02
7/15/2021 3:15:00 AM 15.52 59.936 0.086 7.3 3.27 9.03
7/15/2021 3:30:00 AM 15.47 59.846 0.086 7.3 3.51 9.04
7/15/2021 3:45:00 AM 15.42 59.756 0.086 7.3 3.35 9.05
7/15/2021 4:00:00 AM 15.38 59.684 0.086 7.29 3.36 9.06
7/15/2021 4:15:00 AM 15.34 59.612 0.086 7.29 3.27 9.07
7/15/2021 4:30:00 AM 15.3 59.54 0.086 7.3 3.36 9.08
7/15/2021 4:45:00 AM 15.25 59.45 0.086 7.3 3.36 9.09
7/15/2021 5:00:00 AM 15.22 59.396 0.086 7.29 3.32 9.09
7/15/2021 5:15:00 AM 15.18 59.324 0.086 7.29 3.2 9.1
7/15/2021 5:30:00 AM 15.15 59.27 0.085 7.29 3.44 9.11
7/15/2021 5:45:00 AM 15.12 59.216 0.085 7.29 3.46 9.12
7/15/2021 6:00:00 AM 15.09 59.162 0.085 7.3 3.71 9.13
7/15/2021 6:15:00 AM 15.06 59.108 0.085 7.3 3.6 9.14
7/15/2021 6:30:00 AM 15.03 59.054 0.085 7.31 3.61 9.17
7/15/2021 6:45:00 AM 15.01 59.018 0.085 7.31 4.2 9.19
7/15/2021 7:00:00 AM 14.99 58.982 0.085 7.32 3.6 9.23
7/15/2021 7:15:00 AM 14.98 58.964 0.085 7.33 3.43 9.26
7/15/2021 7:30:00 AM 14.97 58.946 0.085 7.34 3.47 9.3
7/15/2021 7:45:00 AM 14.96 58.928 0.085 7.34 3.2 9.32
7/15/2021 8:00:00 AM 14.95 58.91 0.085 7.36 3.46 9.35
7/15/2021 8:15:00 AM 14.96 58.928 0.085 7.37 3.34 9.39
7/15/2021 8:30:00 AM 15 59 0.085 7.38 3.43 9.41
7/15/2021 8:45:00 AM 15.03 59.054 0.085 7.38 3.12 9.42
7/15/2021 9:00:00 AM 15.06 59.108 0.085 7.39 3.53 9.42
7/15/2021 9:15:00 AM 15.09 59.162 0.085 7.38 3.34 9.43
7/15/2021 9:30:00 AM 15.14 59.252 0.085 7.38 3.4 9.43
7/15/2021 9:45:00 AM 15.2 59.36 0.085 7.38 3.44 9.44
7/15/2021 10:00:00 AM 15.29 59.522 0.085 7.4 3.31 9.44
7/15/2021 10:15:00 AM 15.37 59.666 0.085 7.41 3.26 9.44
7/15/2021 10:30:00 AM 15.51 59.918 0.085 7.42 3.3 9.44
7/15/2021 10:45:00 AM 15.63 60.134 0.085 7.43 3.37 9.42
7/15/2021 11:00:00 AM 15.85 60.53 0.085 7.45 3.4 9.42
7/15/2021 11:15:00 AM 16.1 60.98 0.084 7.47 3.24 9.41
7/15/2021 11:30:00 AM 16.27 61.286 0.084 7.48 3.47 9.38
7/15/2021 11:45:00 AM 16.45 61.61 0.085 7.49 3.65 9.34
7/15/2021 12:00:00 PM 16.61 61.898 0.084 7.5 3.39 9.32
7/15/2021 12:15:00 PM 16.76 62.168 0.084 7.5 3.63 9.28
7/15/2021 12:30:00 PM 16.93 62.474 0.084 7.5 3.44 9.25
7/15/2021 12:45:00 PM 17.08 62.744 0.084 7.5 3.39 9.23
7/15/2021 1:00:00 PM 17.31 63.158 0.084 7.52 3.53 9.2
7/15/2021 1:15:00 PM 17.51 63.518 0.084 7.52 3.42 9.16
7/15/2021 1:30:00 PM 17.64 63.752 0.084 7.52 3.62 9.11
7/15/2021 1:45:00 PM 17.65 63.77 0.084 7.51 3.2 9.07
7/15/2021 2:00:00 PM 17.69 63.842 0.084 7.52 3.39 9.04
7/15/2021 2:15:00 PM 17.8 64.04 0.083 7.51 3.46 9.04
7/15/2021 2:30:00 PM 17.89 64.202 0.083 7.52 3.54 9.01
7/15/2021 2:45:00 PM 17.97 64.346 0.083 7.52 3.81 8.98
7/15/2021 3:00:00 PM 18.1 64.58 0.083 7.52 3.44 8.94
7/15/2021 3:15:00 PM 18.26 64.868 0.083 7.51 3.67 8.9
7/15/2021 3:30:00 PM 18.36 65.048 0.083 7.51 3.62 8.87
7/15/2021 3:45:00 PM 18.41 65.138 0.083 7.5 3.65 8.85
7/15/2021 4:00:00 PM 18.42 65.156 0.083 7.5 3.73 8.84
7/15/2021 4:15:00 PM 18.48 65.264 0.083 7.51 3.7 8.84
7/15/2021 4:30:00 PM 18.48 65.264 0.083 7.5 3.66 8.81
7/15/2021 4:45:00 PM 18.47 65.246 0.083 7.5 3.55 8.8
7/15/2021 5:00:00 PM 18.45 65.21 0.083 7.49 3.48 8.8
7/15/2021 5:15:00 PM 18.38 65.084 0.083 7.49 3.66 8.77
7/15/2021 5:30:00 PM 18.31 64.958 0.083 7.47 3.51 8.76
7/15/2021 5:45:00 PM 18.27 64.886 0.083 7.46 3.5 8.75
7/15/2021 6:00:00 PM 18.23 64.814 0.083 7.45 3.53 8.77
7/15/2021 6:15:00 PM 18.19 64.742 0.083 7.45 3.55 8.76
7/15/2021 6:30:00 PM 18.15 64.67 0.083 7.44 3.53 8.74
7/15/2021 6:45:00 PM 18.12 64.616 0.083 7.43 3.59 8.72
7/15/2021 7:00:00 PM 18.08 64.544 0.083 7.42 3.56 8.7
7/15/2021 7:15:00 PM 18.01 64.418 0.083 7.41 3.47 8.68
7/15/2021 7:30:00 PM 17.93 64.274 0.083 7.39 4.22 8.67
7/15/2021 7:45:00 PM 17.85 64.13 0.084 7.38 3.98 8.66
7/15/2021 8:00:00 PM 17.77 63.986 0.084 7.36 3.72 8.63
7/15/2021 8:15:00 PM 17.69 63.842 0.084 7.35 3.63 8.61
7/15/2021 8:30:00 PM 17.6 63.68 0.084 7.34 3.74 8.61
7/15/2021 8:45:00 PM 17.5 63.5 0.084 7.34 3.53 8.61
7/15/2021 9:00:00 PM 17.41 63.338 0.084 7.33 3.41 8.61
7/15/2021 9:15:00 PM 17.32 63.176 0.084 7.33 3.85 8.62
7/15/2021 9:30:00 PM 17.23 63.014 0.084 7.33 3.7 8.62
7/15/2021 9:45:00 PM 17.15 62.87 0.084 7.31 4.15 8.64
7/15/2021 10:00:00 PM 17.07 62.726 0.084 7.31 3.72 8.65
7/15/2021 10:15:00 PM 16.99 62.582 0.084 7.3 3.5 8.66
7/15/2021 10:30:00 PM 16.91 62.438 0.084 7.31 3.86 8.68
7/15/2021 10:45:00 PM 16.83 62.294 0.084 7.3 3.53 8.7
7/15/2021 11:00:00 PM 16.75 62.15 0.084 7.3 3.46 8.72
7/15/2021 11:15:00 PM 16.67 62.006 0.084 7.29 3.43 8.73
7/15/2021 11:30:00 PM 16.59 61.862 0.084 7.29 3.62 8.75
7/15/2021 11:45:00 PM 16.52 61.736 0.084 7.28 3.57 8.76
7/16/2021 12:00:00 AM 16.45 61.61 0.084 7.28 3.29 8.78
7/16/2021 12:15:00 AM 16.37 61.466 0.084 7.28 3.52 8.79
7/16/2021 12:30:00 AM 16.31 61.358 0.084 7.28 3.64 8.81
7/16/2021 12:45:00 AM 16.24 61.232 0.084 7.28 3.38 8.82
7/16/2021 1:00:00 AM 16.17 61.106 0.084 7.28 3.4 8.83
7/16/2021 1:15:00 AM 16.1 60.98 0.084 7.28 3.76 8.85
7/16/2021 1:30:00 AM 16.04 60.872 0.084 7.28 3.37 8.86
7/16/2021 1:45:00 AM 15.98 60.764 0.085 7.27 3.51 8.88
7/16/2021 2:00:00 AM 15.91 60.638 0.084 7.28 3.4 8.89
7/16/2021 2:15:00 AM 15.86 60.548 0.084 7.27 3.17 8.9
7/16/2021 2:30:00 AM 15.8 60.44 0.084 7.28 3.35 8.92
7/16/2021 2:45:00 AM 15.74 60.332 0.085 7.27 3.25 8.93
7/16/2021 3:00:00 AM 15.7 60.26 0.084 7.27 3.5 8.93
7/16/2021 3:15:00 AM 15.65 60.17 0.084 7.26 3.38 8.95
7/16/2021 3:30:00 AM 15.59 60.062 0.084 7.27 3.3 8.96
7/16/2021 3:45:00 AM 15.54 59.972 0.084 7.27 3.27 8.97
7/16/2021 4:00:00 AM 15.5 59.9 0.084 7.26 3.46 8.98
7/16/2021 4:15:00 AM 15.45 59.81 0.084 7.26 3.01 8.99
7/16/2021 4:30:00 AM 15.4 59.72 0.084 7.27 3.6 9
7/16/2021 4:45:00 AM 15.36 59.648 0.084 7.27 3.18 9.01
7/16/2021 5:00:00 AM 15.31 59.558 0.084 7.27 3.33 9.02
7/16/2021 5:15:00 AM 15.27 59.486 0.084 7.26 3.4 9.04
7/16/2021 5:30:00 AM 15.24 59.432 0.084 7.26 3.56 9.04
7/16/2021 5:45:00 AM 15.2 59.36 0.084 7.26 3.19 9.05
7/16/2021 6:00:00 AM 15.17 59.306 0.084 7.25 3.48 9.06
7/16/2021 6:15:00 AM 15.14 59.252 0.084 7.25 3.43 9.09
7/16/2021 6:30:00 AM 15.11 59.198 0.084 7.26 3.29 9.11
7/16/2021 6:45:00 AM 15.09 59.162 0.084 7.27 3.22 9.14
7/16/2021 7:00:00 AM 15.07 59.126 0.084 7.27 3.25 9.18
7/16/2021 7:15:00 AM 15.07 59.126 0.084 7.28 3.2 9.23
7/16/2021 7:30:00 AM 15.07 59.126 0.084 7.28 3.33 9.26
7/16/2021 7:45:00 AM 15.08 59.144 0.084 7.29 3.27 9.26
7/16/2021 8:00:00 AM 15.09 59.162 0.084 7.3 3.21 9.28
7/16/2021 8:15:00 AM 15.1 59.18 0.084 7.29 3.33 9.27
7/16/2021 8:30:00 AM 15.11 59.198 0.084 7.29 3.21 9.28
7/16/2021 8:45:00 AM 15.12 59.216 0.084 7.29 3.25 9.29
7/16/2021 9:00:00 AM 15.16 59.288 0.084 7.3 3.16 9.35
7/16/2021 9:15:00 AM 15.22 59.396 0.083 7.32 3.47 9.37
7/16/2021 9:30:00 AM 15.31 59.558 0.083 7.34 3.21 9.4
7/16/2021 9:45:00 AM 15.39 59.702 0.083 7.37 3.13 9.41
7/16/2021 10:00:00 AM 15.48 59.864 0.083 7.4 3.33 9.41
7/16/2021 10:15:00 AM 15.6 60.08 0.083 7.43 3.36 9.43
7/16/2021 10:30:00 AM 15.68 60.224 0.083 7.44 3.53 9.41
7/16/2021 10:45:00 AM 15.77 60.386 0.083 7.45 3.22 9.4
7/16/2021 11:00:00 AM 15.85 60.53 0.083 7.45 3.37 9.39
7/16/2021 11:15:00 AM 15.92 60.656 0.083 7.46 3.2 9.36
7/16/2021 11:30:00 AM 15.98 60.764 0.083 7.47 3.24 9.35
7/16/2021 11:45:00 AM 16.03 60.854 0.083 7.46 3.22 9.3
7/16/2021 12:00:00 PM 16.11 60.998 0.082 7.46 3.37 9.29
7/16/2021 12:15:00 PM 16.2 61.16 0.083 7.47 3.16 9.29
7/16/2021 12:30:00 PM 16.26 61.268 0.082 7.47 3.37 9.27
7/16/2021 12:45:00 PM 16.35 61.43 0.082 7.49 3.32 9.28
7/16/2021 1:00:00 PM 16.43 61.574 0.082 7.49 3.28 9.28
7/16/2021 1:15:00 PM 16.48 61.664 0.082 7.49 3.47 9.26
7/16/2021 1:30:00 PM 16.69 62.042 0.082 7.5 3.23 9.27
7/16/2021 1:45:00 PM 16.63 61.934 0.082 7.5 3.43 9.21
7/16/2021 2:00:00 PM 16.8 62.24 0.082 7.5 3.47 9.2
7/16/2021 2:15:00 PM 16.94 62.492 0.082 7.51 3.23 9.2
7/16/2021 2:30:00 PM 17.09 62.762 0.082 7.5 3.1 9.17
7/16/2021 2:45:00 PM 17.14 62.852 0.082 7.49 3.32 9.06
7/16/2021 3:00:00 PM 17.19 62.942 0.083 7.46 7.03 8.96
7/16/2021 3:15:00 PM 17.15 62.87 0.082 7.43 3.49 8.89
7/16/2021 3:30:00 PM 17.12 62.816 0.081 7.42 5.12 8.88
7/16/2021 3:45:00 PM 17.07 62.726 0.081 7.42 4.55 8.9
7/16/2021 4:00:00 PM 17.04 62.672 0.081 7.41 4.42 8.95
7/16/2021 4:15:00 PM 16.99 62.582 0.081 7.42 4.04 8.95
7/16/2021 4:30:00 PM 16.96 62.528 0.081 7.4 4.32 8.9
7/16/2021 4:45:00 PM 16.95 62.51 0.08 7.38 4.32 8.88
7/16/2021 5:00:00 PM 16.91 62.438 0.08 7.36 3.98 8.86
7/16/2021 5:15:00 PM 16.89 62.402 0.08 7.36 4.09 8.89
7/16/2021 5:30:00 PM 16.87 62.366 0.08 7.36 4.37 8.91
7/16/2021 5:45:00 PM 16.86 62.348 0.08 7.35 4.92 8.9
7/16/2021 6:00:00 PM 16.84 62.312 0.08 7.34 4.25 8.9
7/16/2021 6:15:00 PM 16.79 62.222 0.08 7.34 4.24 8.89
7/16/2021 6:30:00 PM 16.74 62.132 0.08 7.33 4.13 8.89
7/16/2021 6:45:00 PM 16.69 62.042 0.08 7.33 4.58 8.92
7/16/2021 7:00:00 PM 16.64 61.952 0.08 7.31 3.99 8.93
7/16/2021 7:15:00 PM 16.6 61.88 0.08 7.32 4.19 8.94
7/16/2021 7:30:00 PM 16.57 61.826 0.08 7.32 5.35 8.94
7/16/2021 7:45:00 PM 16.52 61.736 0.08 7.31 4.2 8.93
7/16/2021 8:00:00 PM 16.48 61.664 0.08 7.3 4.15 8.92
7/16/2021 8:15:00 PM 16.43 61.574 0.08 7.29 3.96 8.9
7/16/2021 8:30:00 PM 16.38 61.484 0.08 7.28 4.01 8.89
7/16/2021 8:45:00 PM 16.34 61.412 0.081 7.24 4.33 8.87
7/16/2021 9:00:00 PM 16.3 61.34 0.081 7.24 4.1 8.87
7/16/2021 9:15:00 PM 16.26 61.268 0.081 7.23 4.22 8.87
7/16/2021 9:30:00 PM 16.23 61.214 0.082 7.23 4.58 8.87
7/16/2021 9:45:00 PM 16.2 61.16 0.082 7.22 4.19 8.87
7/16/2021 10:00:00 PM 16.17 61.106 0.082 7.22 4.57 8.88
7/16/2021 10:15:00 PM 16.15 61.07 0.082 7.21 3.89 8.88
7/16/2021 10:30:00 PM 16.11 60.998 0.082 7.21 3.65 8.89
7/16/2021 10:45:00 PM 16.08 60.944 0.082 7.21 3.8 8.89
7/16/2021 11:00:00 PM 16.05 60.89 0.082 7.21 3.94 8.9
7/16/2021 11:15:00 PM 16.02 60.836 0.082 7.2 4.2 8.9
7/16/2021 11:30:00 PM 15.98 60.764 0.082 7.2 3.95 8.91
7/16/2021 11:45:00 PM 15.96 60.728 0.082 7.19 3.73 8.91
7/17/2021 12:00:00 AM 15.93 60.674 0.082 7.19 3.65 8.92
7/17/2021 12:15:00 AM 15.9 60.62 0.082 7.19 4 8.92
7/17/2021 12:30:00 AM 15.87 60.566 0.082 7.19 3.93 8.93
7/17/2021 12:45:00 AM 15.84 60.512 0.082 7.18 3.96 8.93
7/17/2021 1:00:00 AM 15.81 60.458 0.082 7.19 3.37 8.94
7/17/2021 1:15:00 AM 15.78 60.404 0.083 7.19 3.77 8.94
7/17/2021 1:30:00 AM 15.76 60.368 0.083 7.19 3.76 8.94
7/17/2021 1:45:00 AM 15.73 60.314 0.083 7.19 3.54 8.95
7/17/2021 2:00:00 AM 15.7 60.26 0.083 7.2 3.46 8.96
7/17/2021 2:15:00 AM 15.68 60.224 0.083 7.21 3.41 8.96
7/17/2021 2:30:00 AM 15.65 60.17 0.083 7.21 3.4 8.97
7/17/2021 2:45:00 AM 15.63 60.134 0.083 7.2 3.52 8.98
7/17/2021 3:00:00 AM 15.6 60.08 0.083 7.21 3.2 8.98
7/17/2021 3:15:00 AM 15.57 60.026 0.083 7.2 3.62 8.98
7/17/2021 3:30:00 AM 15.54 59.972 0.083 7.19 3.35 9
7/17/2021 3:45:00 AM 15.52 59.936 0.083 7.19 3.3 9
7/17/2021 4:00:00 AM 15.5 59.9 0.083 7.19 3.28 9.01
7/17/2021 4:15:00 AM 15.47 59.846 0.083 7.2 3.66 9.01
7/17/2021 4:30:00 AM 15.45 59.81 0.084 7.19 3.34 9.02
7/17/2021 4:45:00 AM 15.43 59.774 0.084 7.2 3.67 9.02
7/17/2021 5:00:00 AM 15.4 59.72 0.084 7.19 3.42 9.02
7/17/2021 5:15:00 AM 15.38 59.684 0.084 7.19 3.41 9.03
7/17/2021 5:30:00 AM 15.36 59.648 0.084 7.19 3.72 9.03
7/17/2021 5:45:00 AM 15.34 59.612 0.084 7.19 3.72 9.04
7/17/2021 6:00:00 AM 15.31 59.558 0.084 7.2 3.32 9.05
7/17/2021 6:15:00 AM 15.3 59.54 0.084 7.19 3.84 9.05
7/17/2021 6:30:00 AM 15.28 59.504 0.084 7.2 3.39 9.08
7/17/2021 6:45:00 AM 15.28 59.504 0.084 7.21 3.37 9.12
7/17/2021 7:00:00 AM 15.28 59.504 0.084 7.23 3.46 9.15
7/17/2021 7:15:00 AM 15.28 59.504 0.084 7.24 3.47 9.17
7/17/2021 7:30:00 AM 15.27 59.486 0.084 7.26 3.3 9.2
7/17/2021 7:45:00 AM 15.27 59.486 0.084 7.27 3.36 9.22
7/17/2021 8:00:00 AM 15.28 59.504 0.084 7.28 3.26 9.25
7/17/2021 8:15:00 AM 15.3 59.54 0.084 7.3 3.39 9.29
7/17/2021 8:30:00 AM 15.31 59.558 0.084 7.31 3.26 9.31
7/17/2021 8:45:00 AM 15.33 59.594 0.083 7.32 3.37 9.34
7/17/2021 9:00:00 AM 15.38 59.684 0.083 7.34 3.15 9.36
7/17/2021 9:15:00 AM 15.39 59.702 0.083 7.35 3.3 9.35
7/17/2021 9:30:00 AM 15.4 59.72 0.083 7.35 3.26 9.34
7/17/2021 9:45:00 AM 15.43 59.774 0.083 7.36 3.31 9.35
7/17/2021 10:00:00 AM 15.45 59.81 0.083 7.36 3.2 9.33
7/17/2021 10:15:00 AM 15.48 59.864 0.083 7.37 3.19 9.35
7/17/2021 10:30:00 AM 15.63 60.134 0.083 7.4 3.59 9.39
7/17/2021 10:45:00 AM 15.68 60.224 0.083 7.41 3.31 9.4
7/17/2021 11:00:00 AM 15.71 60.278 0.083 7.42 3.34 9.37
7/17/2021 11:15:00 AM 15.83 60.494 0.083 7.44 3.72 9.39
7/17/2021 11:30:00 AM 15.95 60.71 0.083 7.45 3.34 9.41
7/17/2021 11:45:00 AM 16.04 60.872 0.082 7.47 3.19 9.4
7/17/2021 12:00:00 PM 16.13 61.034 0.082 7.48 3.27 9.37
7/17/2021 12:15:00 PM 16.22 61.196 0.082 7.48 3.19 9.33
7/17/2021 12:30:00 PM 16.31 61.358 0.082 7.47 3.45 9.32
7/17/2021 12:45:00 PM 16.43 61.574 0.083 7.48 3.25 9.33
7/17/2021 1:00:00 PM 16.49 61.682 0.082 7.5 3.46 9.3
7/17/2021 1:15:00 PM 16.68 62.024 0.082 7.51 3.32 9.28
7/17/2021 1:30:00 PM 16.75 62.15 0.082 7.5 3.45 9.23
7/17/2021 1:45:00 PM 16.82 62.276 0.082 7.5 3.29 9.19
7/17/2021 2:00:00 PM 16.84 62.312 0.082 7.48 3.27 9.16
7/17/2021 2:15:00 PM 16.81 62.258 0.083 7.46 3.19 9.11
7/17/2021 2:30:00 PM 16.77 62.186 0.082 7.43 3.29 9.02
7/17/2021 2:45:00 PM 16.84 62.312 0.082 7.44 3.36 9.07
7/17/2021 3:00:00 PM 16.84 62.312 0.081 7.45 3.69 9.09
7/17/2021 3:15:00 PM 16.85 62.33 0.082 7.45 3.46 9.07
7/17/2021 3:30:00 PM 16.93 62.474 0.081 7.44 3.57 8.99
7/17/2021 3:45:00 PM 17.01 62.618 0.081 7.42 4.12 8.92
7/17/2021 4:00:00 PM 16.99 62.582 0.081 7.41 4.01 8.92
7/17/2021 4:15:00 PM 16.93 62.474 0.08 7.4 4.46 8.92
7/17/2021 4:30:00 PM 16.9 62.42 0.08 7.38 4.48 8.89
7/17/2021 4:45:00 PM 16.86 62.348 0.079 7.36 5.38 8.85
7/17/2021 5:00:00 PM 16.81 62.258 0.08 7.32 7.49 8.85
7/17/2021 5:15:00 PM 16.75 62.15 0.078 7.33 8.1 8.86
7/17/2021 5:30:00 PM 16.72 62.096 0.077 7.31 9.18 8.86
7/17/2021 5:45:00 PM 16.72 62.096 0.076 7.27 11.99 8.85
7/17/2021 6:00:00 PM 16.7 62.06 0.074 7.26 13.28 8.84
7/17/2021 6:15:00 PM 16.66 61.988 0.072 7.23 13.38 8.85
7/17/2021 6:30:00 PM 16.63 61.934 0.071 7.23 12.1 8.89
7/17/2021 6:45:00 PM 16.59 61.862 0.069 7.23 12.24 8.93
7/17/2021 7:00:00 PM 16.55 61.79 0.068 7.23 11.79 8.94
7/17/2021 7:15:00 PM 16.54 61.772 0.068 7.24 12.52 8.93
7/17/2021 7:30:00 PM 16.52 61.736 0.068 7.23 11.41 8.92
7/17/2021 7:45:00 PM 16.5 61.7 0.069 7.24 10.33 8.92
7/17/2021 8:00:00 PM 16.45 61.61 0.07 7.23 9.53 8.92
7/17/2021 8:15:00 PM 16.39 61.502 0.07 7.24 9.38 8.91
7/17/2021 8:30:00 PM 16.33 61.394 0.07 7.23 8.77 8.9
7/17/2021 8:45:00 PM 16.29 61.322 0.071 7.21 8.49 8.9
7/17/2021 9:00:00 PM 16.26 61.268 0.071 7.21 7.98 8.89
7/17/2021 9:15:00 PM 16.2 61.16 0.072 7.22 8.15 8.9
7/17/2021 9:30:00 PM 16.14 61.052 0.073 7.21 8.03 8.91
7/17/2021 9:45:00 PM 16.08 60.944 0.074 7.19 8.58 8.92
7/17/2021 10:00:00 PM 16.03 60.854 0.074 7.2 12.86 8.94
7/17/2021 10:15:00 PM 15.98 60.764 0.073 7.18 32.3 8.96
7/17/2021 10:30:00 PM 15.97 60.746 0.07 7.18 33.78 8.99
7/17/2021 10:45:00 PM 16.04 60.872 0.065 7.19 41 9
7/17/2021 11:00:00 PM 16.17 61.106 0.062 7.15 46.96 8.97
7/17/2021 11:15:00 PM 16.26 61.268 0.064 7.12 72.8 8.93
7/17/2021 11:30:00 PM 16.39 61.502 0.065 7.08 204.03 8.91
7/17/2021 11:45:00 PM 16.62 61.916 0.057 6.96 267.04 8.86
7/18/2021 12:00:00 AM 16.86 62.348 0.049 6.76 420.65 8.81
7/18/2021 12:15:00 AM 16.96 62.528 0.048 6.86 338.74 8.83
7/18/2021 12:30:00 AM 17.1 62.78 0.047 6.8 502.27 8.77
7/18/2021 12:45:00 AM 17.18 62.924 0.041 6.7 772.58 8.69
7/18/2021 1:00:00 AM 17.21 62.978 0.039 6.68 891.65 8.51
7/18/2021 1:15:00 AM -99999.99 -179968 -99999.99 -99999.99 -99999.99 -99999.99
7/18/2021 1:30:00 AM -99999.99 -179968 -99999.99 -99999.99 -99999.99 -99999.99
7/18/2021 1:45:00 AM -99999.99 -179968 -99999.99 -99999.99 -99999.99 -99999.99
7/18/2021 2:00:00 AM -99999.99 -179968 -99999.99 -99999.99 -99999.99 -99999.99
7/18/2021 2:15:00 AM -99999.99 -179968 -99999.99 -99999.99 -99999.99 -99999.99
7/18/2021 2:30:00 AM -99999.99 -179968 -99999.99 -99999.99 -99999.99 -99999.99
7/18/2021 2:45:00 AM -99999.99 -179968 -99999.99 -99999.99 -99999.99 -99999.99
7/18/2021 3:00:00 AM -99999.99 -179968 -99999.99 -99999.99 -99999.99 -99999.99
7/18/2021 3:15:00 AM -99999.99 -179968 -99999.99 -99999.99 -99999.99 -99999.99
7/18/2021 3:30:00 AM -99999.99 -179968 -99999.99 -99999.99 -99999.99 -99999.99
7/18/2021 3:45:00 AM -99999.99 -179968 -99999.99 -99999.99 -99999.99 -99999.99
7/18/2021 4:00:00 AM -99999.99 -179968 -99999.99 -99999.99 -99999.99 -99999.99
7/18/2021 4:15:00 AM -99999.99 -179968 -99999.99 -99999.99 -99999.99 -99999.99
7/18/2021 4:30:00 AM -99999.99 -179968 -99999.99 -99999.99 -99999.99 -99999.99
7/18/2021 4:45:00 AM -99999.99 -179968 -99999.99 -99999.99 -99999.99 -99999.99
7/18/2021 5:00:00 AM -99999.99 -179968 -99999.99 -99999.99 -99999.99 -99999.99
7/18/2021 5:15:00 AM -99999.99 -179968 -99999.99 -99999.99 -99999.99 -99999.99
7/18/2021 5:30:00 AM -99999.99 -179968 -99999.99 -99999.99 -99999.99 -99999.99
7/18/2021 5:45:00 AM -99999.99 -179968 -99999.99 -99999.99 -99999.99 -99999.99
7/18/2021 6:00:00 AM -99999.99 -179968 -99999.99 -99999.99 -99999.99 -99999.99
7/18/2021 6:15:00 AM -99999.99 -179968 -99999.99 -99999.99 -99999.99 -99999.99
7/18/2021 6:30:00 AM -99999.99 -179968 -99999.99 -99999.99 -99999.99 -99999.99
7/18/2021 6:45:00 AM -99999.99 -179968 -99999.99 -99999.99 -99999.99 -99999.99
7/18/2021 7:00:00 AM -99999.99 -179968 -99999.99 -99999.99 -99999.99 -99999.99
7/18/2021 7:15:00 AM -99999.99 -179968 -99999.99 -99999.99 -99999.99 -99999.99
7/18/2021 7:30:00 AM -99999.99 -179968 -99999.99 -99999.99 -99999.99 -99999.99
7/18/2021 7:45:00 AM -99999.99 -179968 -99999.99 -99999.99 -99999.99 -99999.99
7/18/2021 8:00:00 AM -99999.99 -179968 -99999.99 -99999.99 -99999.99 -99999.99
7/18/2021 8:15:00 AM -99999.99 -179968 -99999.99 -99999.99 -99999.99 -99999.99
7/18/2021 8:30:00 AM -99999.99 -179968 -99999.99 -99999.99 -99999.99 -99999.99
7/18/2021 8:45:00 AM -99999.99 -179968 -99999.99 -99999.99 -99999.99 -99999.99
7/18/2021 9:00:00 AM -99999.99 -179968 -99999.99 -99999.99 -99999.99 -99999.99
7/18/2021 9:15:00 AM -99999.99 -179968 -99999.99 -99999.99 -99999.99 -99999.99
7/18/2021 9:30:00 AM -99999.99 -179968 -99999.99 -99999.99 -99999.99 -99999.99
7/18/2021 9:45:00 AM -99999.99 -179968 -99999.99 -99999.99 -99999.99 -99999.99
7/18/2021 10:00:00 AM -99999.99 -179968 -99999.99 -99999.99 -99999.99 -99999.99
7/18/2021 10:15:00 AM -99999.99 -179968 -99999.99 -99999.99 -99999.99 -99999.99
7/18/2021 10:30:00 AM -99999.99 -179968 -99999.99 -99999.99 -99999.99 -99999.99
7/18/2021 10:45:00 AM -99999.99 -179968 -99999.99 -99999.99 -99999.99 -99999.99
7/18/2021 11:00:00 AM -99999.99 -179968 -99999.99 -99999.99 -99999.99 -99999.99
7/18/2021 11:15:00 AM -99999.99 -179968 -99999.99 -99999.99 -99999.99 -99999.99
7/18/2021 11:30:00 AM -99999.99 -179968 -99999.99 -99999.99 -99999.99 -99999.99
7/18/2021 11:45:00 AM -99999.99 -179968 -99999.99 -99999.99 -99999.99 -99999.99
7/18/2021 12:00:00 PM -99999.99 -179968 -99999.99 -99999.99 -99999.99 -99999.99
7/18/2021 12:15:00 PM -99999.99 -179968 -99999.99 -99999.99 -99999.99 -99999.99
7/18/2021 12:30:00 PM -99999.99 -179968 -99999.99 -99999.99 -99999.99 -99999.99
7/18/2021 12:45:00 PM -99999.99 -179968 -99999.99 -99999.99 -99999.99 -99999.99
7/18/2021 1:00:00 PM -99999.99 -179968 -99999.99 -99999.99 -99999.99 -99999.99
7/18/2021 1:15:00 PM -99999.99 -179968 -99999.99 -99999.99 -99999.99 -99999.99
7/18/2021 1:30:00 PM -99999.99 -179968 -99999.99 -99999.99 -99999.99 -99999.99
7/18/2021 1:45:00 PM -99999.99 -179968 -99999.99 -99999.99 -99999.99 -99999.99
7/18/2021 2:00:00 PM -99999.99 -179968 -99999.99 -99999.99 -99999.99 -99999.99
7/18/2021 2:15:00 PM -99999.99 -179968 -99999.99 -99999.99 -99999.99 -99999.99
7/18/2021 2:30:00 PM -99999.99 -179968 -99999.99 -99999.99 -99999.99 -99999.99
7/18/2021 2:45:00 PM -99999.99 -179968 -99999.99 -99999.99 -99999.99 -99999.99
7/18/2021 3:00:00 PM -99999.99 -179968 -99999.99 -99999.99 -99999.99 -99999.99
7/18/2021 3:15:00 PM -99999.99 -179968 -99999.99 -99999.99 -99999.99 -99999.99
7/18/2021 3:30:00 PM -99999.99 -179968 -99999.99 -99999.99 -99999.99 -99999.99
7/18/2021 3:45:00 PM -99999.99 -179968 -99999.99 -99999.99 -99999.99 -99999.99
7/18/2021 4:00:00 PM -99999.99 -179968 -99999.99 -99999.99 -99999.99 -99999.99
7/18/2021 4:15:00 PM -99999.99 -179968 -99999.99 -99999.99 -99999.99 -99999.99
7/18/2021 4:30:00 PM -99999.99 -179968 -99999.99 -99999.99 -99999.99 -99999.99
7/18/2021 4:45:00 PM -99999.99 -179968 -99999.99 -99999.99 -99999.99 -99999.99
7/18/2021 5:00:00 PM -99999.99 -179968 -99999.99 -99999.99 -99999.99 -99999.99
7/18/2021 5:15:00 PM -99999.99 -179968 -99999.99 -99999.99 -99999.99 -99999.99
7/18/2021 5:30:00 PM -99999.99 -179968 -99999.99 -99999.99 -99999.99 -99999.99
7/18/2021 5:45:00 PM -99999.99 -179968 -99999.99 -99999.99 -99999.99 -99999.99
7/18/2021 6:00:00 PM -99999.99 -179968 -99999.99 -99999.99 -99999.99 -99999.99
7/18/2021 6:15:00 PM -99999.99 -179968 -99999.99 -99999.99 -99999.99 -99999.99
7/18/2021 6:30:00 PM -99999.99 -179968 -99999.99 -99999.99 -99999.99 -99999.99
7/18/2021 6:45:00 PM -99999.99 -179968 -99999.99 -99999.99 -99999.99 -99999.99
7/18/2021 7:00:00 PM -99999.99 -179968 -99999.99 -99999.99 -99999.99 -99999.99
7/18/2021 7:15:00 PM -99999.99 -179968 -99999.99 -99999.99 -99999.99 -99999.99
7/18/2021 7:30:00 PM -99999.99 -179968 -99999.99 -99999.99 -99999.99 -99999.99
7/18/2021 7:45:00 PM -99999.99 -179968 -99999.99 -99999.99 -99999.99 -99999.99
7/18/2021 8:00:00 PM -99999.99 -179968 -99999.99 -99999.99 -99999.99 -99999.99
7/18/2021 8:15:00 PM -99999.99 -179968 -99999.99 -99999.99 -99999.99 -99999.99
7/18/2021 8:30:00 PM -99999.99 -179968 -99999.99 -99999.99 -99999.99 -99999.99
7/18/2021 8:45:00 PM -99999.99 -179968 -99999.99 -99999.99 -99999.99 -99999.99
7/18/2021 9:00:00 PM -99999.99 -179968 -99999.99 -99999.99 -99999.99 -99999.99
7/18/2021 9:15:00 PM -99999.99 -179968 -99999.99 -99999.99 -99999.99 -99999.99
7/18/2021 9:30:00 PM -99999.99 -179968 -99999.99 -99999.99 -99999.99 -99999.99
7/18/2021 9:45:00 PM -99999.99 -179968 -99999.99 -99999.99 -99999.99 -99999.99
7/18/2021 10:00:00 PM -99999.99 -179968 -99999.99 -99999.99 -99999.99 -99999.99
7/18/2021 10:15:00 PM -99999.99 -179968 -99999.99 -99999.99 -99999.99 -99999.99
7/18/2021 10:30:00 PM -99999.99 -179968 -99999.99 -99999.99 -99999.99 -99999.99
7/18/2021 10:45:00 PM -99999.99 -179968 -99999.99 -99999.99 -99999.99 -99999.99
7/18/2021 11:00:00 PM -99999.99 -179968 -99999.99 -99999.99 -99999.99 -99999.99
7/18/2021 11:15:00 PM -99999.99 -179968 -99999.99 -99999.99 -99999.99 -99999.99
7/18/2021 11:30:00 PM -99999.99 -179968 -99999.99 -99999.99 -99999.99 -99999.99
7/18/2021 11:45:00 PM -99999.99 -179968 -99999.99 -99999.99 -99999.99 -99999.99
7/19/2021 12:00:00 AM -99999.99 -179968 -99999.99 -99999.99 -99999.99 -99999.99
7/19/2021 12:15:00 AM -99999.99 -179968 -99999.99 -99999.99 -99999.99 -99999.99
7/19/2021 12:30:00 AM -99999.99 -179968 -99999.99 -99999.99 -99999.99 -99999.99
7/19/2021 12:45:00 AM -99999.99 -179968 -99999.99 -99999.99 -99999.99 -99999.99
7/19/2021 1:00:00 AM -99999.99 -179968 -99999.99 -99999.99 -99999.99 -99999.99
7/19/2021 1:15:00 AM -99999.99 -179968 -99999.99 -99999.99 -99999.99 -99999.99
7/19/2021 1:30:00 AM -99999.99 -179968 -99999.99 -99999.99 -99999.99 -99999.99
7/19/2021 1:45:00 AM -99999.99 -179968 -99999.99 -99999.99 -99999.99 -99999.99
7/19/2021 2:00:00 AM -99999.99 -179968 -99999.99 -99999.99 -99999.99 -99999.99
7/19/2021 2:15:00 AM -99999.99 -179968 -99999.99 -99999.99 -99999.99 -99999.99
7/19/2021 2:30:00 AM -99999.99 -179968 -99999.99 -99999.99 -99999.99 -99999.99
7/19/2021 2:45:00 AM -99999.99 -179968 -99999.99 -99999.99 -99999.99 -99999.99
7/19/2021 3:00:00 AM -99999.99 -179968 -99999.99 -99999.99 -99999.99 -99999.99
7/19/2021 3:15:00 AM -99999.99 -179968 -99999.99 -99999.99 -99999.99 -99999.99
7/19/2021 3:30:00 AM -99999.99 -179968 -99999.99 -99999.99 -99999.99 -99999.99
7/19/2021 3:45:00 AM -99999.99 -179968 -99999.99 -99999.99 -99999.99 -99999.99
7/19/2021 4:00:00 AM -99999.99 -179968 -99999.99 -99999.99 -99999.99 -99999.99
7/19/2021 4:15:00 AM -99999.99 -179968 -99999.99 -99999.99 -99999.99 -99999.99
7/19/2021 4:30:00 AM -99999.99 -179968 -99999.99 -99999.99 -99999.99 -99999.99
7/19/2021 4:45:00 AM -99999.99 -179968 -99999.99 -99999.99 -99999.99 -99999.99
7/19/2021 5:00:00 AM -99999.99 -179968 -99999.99 -99999.99 -99999.99 -99999.99
7/19/2021 5:15:00 AM -99999.99 -179968 -99999.99 -99999.99 -99999.99 -99999.99
7/19/2021 5:30:00 AM -99999.99 -179968 -99999.99 -99999.99 -99999.99 -99999.99
7/19/2021 5:45:00 AM -99999.99 -179968 -99999.99 -99999.99 -99999.99 -99999.99
7/19/2021 6:00:00 AM -99999.99 -179968 -99999.99 -99999.99 -99999.99 -99999.99
7/19/2021 6:15:00 AM -99999.99 -179968 -99999.99 -99999.99 -99999.99 -99999.99
7/19/2021 6:30:00 AM -99999.99 -179968 -99999.99 -99999.99 -99999.99 -99999.99
7/19/2021 6:45:00 AM -99999.99 -179968 -99999.99 -99999.99 -99999.99 -99999.99
7/19/2021 7:00:00 AM -99999.99 -179968 -99999.99 -99999.99 -99999.99 -99999.99
7/19/2021 7:15:00 AM -99999.99 -179968 -99999.99 -99999.99 -99999.99 -99999.99
7/19/2021 7:30:00 AM -99999.99 -179968 -99999.99 -99999.99 -99999.99 -99999.99
7/19/2021 7:45:00 AM -99999.99 -179968 -99999.99 -99999.99 -99999.99 -99999.99
7/19/2021 8:00:00 AM -99999.99 -179968 -99999.99 -99999.99 -99999.99 -99999.99
7/19/2021 8:15:00 AM -99999.99 -179968 -99999.99 -99999.99 -99999.99 -99999.99
7/19/2021 8:30:00 AM -99999.99 -179968 -99999.99 -99999.99 -99999.99 -99999.99
7/19/2021 8:45:00 AM -99999.99 -179968 -99999.99 -99999.99 -99999.99 -99999.99
7/19/2021 9:00:00 AM -99999.99 -179968 -99999.99 -99999.99 -99999.99 -99999.99
7/19/2021 9:15:00 AM -99999.99 -179968 -99999.99 -99999.99 -99999.99 -99999.99
7/19/2021 9:30:00 AM -99999.99 -179968 -99999.99 -99999.99 -99999.99 -99999.99
7/19/2021 9:45:00 AM -99999.99 -179968 -99999.99 -99999.99 -99999.99 -99999.99
7/19/2021 10:00:00 AM -99999.99 -179968 -99999.99 -99999.99 -99999.99 -99999.99
7/19/2021 10:15:00 AM -99999.99 -179968 -99999.99 -99999.99 -99999.99 -99999.99
7/19/2021 10:30:00 AM -99999.99 -179968 -99999.99 -99999.99 -99999.99 -99999.99
7/19/2021 10:45:00 AM -99999.99 -179968 -99999.99 -99999.99 -99999.99 -99999.99
7/19/2021 11:00:00 AM -99999.99 -179968 -99999.99 -99999.99 -99999.99 -99999.99
7/19/2021 11:15:00 AM -99999.99 -179968 -99999.99 -99999.99 -99999.99 -99999.99
7/19/2021 11:30:00 AM -99999.99 -179968 -99999.99 -99999.99 -99999.99 -99999.99
7/19/2021 11:45:00 AM -99999.99 -179968 -99999.99 -99999.99 -99999.99 -99999.99
7/19/2021 12:00:00 PM -99999.99 -179968 -99999.99 -99999.99 -99999.99 -99999.99
7/19/2021 12:15:00 PM -99999.99 -179968 -99999.99 -99999.99 -99999.99 -99999.99
7/19/2021 12:30:00 PM -99999.99 -179968 -99999.99 -99999.99 -99999.99 -99999.99
7/19/2021 12:45:00 PM -99999.99 -179968 -99999.99 -99999.99 -99999.99 -99999.99
7/19/2021 1:00:00 PM -99999.99 -179968 -99999.99 -99999.99 -99999.99 -99999.99
7/19/2021 1:15:00 PM -99999.99 -179968 -99999.99 -99999.99 -99999.99 -99999.99
7/19/2021 1:30:00 PM -99999.99 -179968 -99999.99 -99999.99 -99999.99 -99999.99
7/19/2021 1:45:00 PM -99999.99 -179968 -99999.99 -99999.99 -99999.99 -99999.99
7/19/2021 2:00:00 PM -99999.99 -179968 -99999.99 -99999.99 -99999.99 -99999.99
7/19/2021 2:15:00 PM -99999.99 -179968 -99999.99 -99999.99 -99999.99 -99999.99
7/19/2021 2:30:00 PM -99999.99 -179968 -99999.99 -99999.99 -99999.99 -99999.99
7/19/2021 2:45:00 PM -99999.99 -179968 -99999.99 -99999.99 -99999.99 -99999.99
7/19/2021 3:00:00 PM -99999.99 -179968 -99999.99 -99999.99 -99999.99 -99999.99
7/19/2021 3:15:00 PM -99999.99 -179968 -99999.99 -99999.99 -99999.99 -99999.99
7/19/2021 3:30:00 PM -99999.99 -179968 -99999.99 -99999.99 -99999.99 -99999.99
7/19/2021 3:45:00 PM -99999.99 -179968 -99999.99 -99999.99 -99999.99 -99999.99
7/19/2021 4:00:00 PM -99999.99 -179968 -99999.99 -99999.99 -99999.99 -99999.99
7/19/2021 4:15:00 PM -99999.99 -179968 -99999.99 -99999.99 -99999.99 -99999.99
7/19/2021 4:30:00 PM -99999.99 -179968 -99999.99 -99999.99 -99999.99 -99999.99
7/19/2021 4:45:00 PM -99999.99 -179968 -99999.99 -99999.99 -99999.99 -99999.99
7/19/2021 5:00:00 PM -99999.99 -179968 -99999.99 -99999.99 -99999.99 -99999.99
7/19/2021 5:15:00 PM -99999.99 -179968 -99999.99 -99999.99 -99999.99 -99999.99
7/19/2021 5:30:00 PM -99999.99 -179968 -99999.99 -99999.99 -99999.99 -99999.99
7/19/2021 5:45:00 PM -99999.99 -179968 -99999.99 -99999.99 -99999.99 -99999.99
7/19/2021 6:00:00 PM -99999.99 -179968 -99999.99 -99999.99 -99999.99 -99999.99
7/19/2021 6:15:00 PM -99999.99 -179968 -99999.99 -99999.99 -99999.99 -99999.99
7/19/2021 6:30:00 PM -99999.99 -179968 -99999.99 -99999.99 -99999.99 -99999.99
7/19/2021 6:45:00 PM -99999.99 -179968 -99999.99 -99999.99 -99999.99 -99999.99
7/19/2021 7:00:00 PM -99999.99 -179968 -99999.99 -99999.99 -99999.99 -99999.99
7/19/2021 7:15:00 PM -99999.99 -179968 -99999.99 -99999.99 -99999.99 -99999.99
7/19/2021 7:30:00 PM -99999.99 -179968 -99999.99 -99999.99 -99999.99 -99999.99
7/19/2021 7:45:00 PM -99999.99 -179968 -99999.99 -99999.99 -99999.99 -99999.99
7/19/2021 8:00:00 PM -99999.99 -179968 -99999.99 -99999.99 -99999.99 -99999.99
7/19/2021 8:15:00 PM -99999.99 -179968 -99999.99 -99999.99 -99999.99 -99999.99
7/19/2021 8:30:00 PM -99999.99 -179968 -99999.99 -99999.99 -99999.99 -99999.99
7/19/2021 8:45:00 PM -99999.99 -179968 -99999.99 -99999.99 -99999.99 -99999.99
7/19/2021 9:00:00 PM -99999.99 -179968 -99999.99 -99999.99 -99999.99 -99999.99
7/19/2021 9:15:00 PM -99999.99 -179968 -99999.99 -99999.99 -99999.99 -99999.99
7/19/2021 9:30:00 PM -99999.99 -179968 -99999.99 -99999.99 -99999.99 -99999.99
7/19/2021 9:45:00 PM -99999.99 -179968 -99999.99 -99999.99 -99999.99 -99999.99
7/19/2021 10:00:00 PM -99999.99 -179968 -99999.99 -99999.99 -99999.99 -99999.99
7/19/2021 10:15:00 PM -99999.99 -179968 -99999.99 -99999.99 -99999.99 -99999.99
7/19/2021 10:30:00 PM -99999.99 -179968 -99999.99 -99999.99 -99999.99 -99999.99
7/19/2021 10:45:00 PM -99999.99 -179968 -99999.99 -99999.99 -99999.99 -99999.99
7/19/2021 11:00:00 PM -99999.99 -179968 -99999.99 -99999.99 -99999.99 -99999.99
7/19/2021 11:15:00 PM -99999.99 -179968 -99999.99 -99999.99 -99999.99 -99999.99
7/19/2021 11:30:00 PM -99999.99 -179968 -99999.99 -99999.99 -99999.99 -99999.99
7/19/2021 11:45:00 PM -99999.99 -179968 -99999.99 -99999.99 -99999.99 -99999.99
7/20/2021 12:00:00 AM -99999.99 -179968 -99999.99 -99999.99 -99999.99 -99999.99
7/20/2021 12:15:00 AM -99999.99 -179968 -99999.99 -99999.99 -99999.99 -99999.99
7/20/2021 12:30:00 AM -99999.99 -179968 -99999.99 -99999.99 -99999.99 -99999.99
7/20/2021 12:45:00 AM -99999.99 -179968 -99999.99 -99999.99 -99999.99 -99999.99
7/20/2021 1:00:00 AM -99999.99 -179968 -99999.99 -99999.99 -99999.99 -99999.99
7/20/2021 1:15:00 AM -99999.99 -179968 -99999.99 -99999.99 -99999.99 -99999.99
7/20/2021 1:30:00 AM -99999.99 -179968 -99999.99 -99999.99 -99999.99 -99999.99
7/20/2021 1:45:00 AM -99999.99 -179968 -99999.99 -99999.99 -99999.99 -99999.99
7/20/2021 2:00:00 AM -99999.99 -179968 -99999.99 -99999.99 -99999.99 -99999.99
7/20/2021 2:15:00 AM -99999.99 -179968 -99999.99 -99999.99 -99999.99 -99999.99
7/20/2021 2:30:00 AM -99999.99 -179968 -99999.99 -99999.99 -99999.99 -99999.99
7/20/2021 2:45:00 AM -99999.99 -179968 -99999.99 -99999.99 -99999.99 -99999.99
7/20/2021 3:00:00 AM -99999.99 -179968 -99999.99 -99999.99 -99999.99 -99999.99
7/20/2021 3:15:00 AM -99999.99 -179968 -99999.99 -99999.99 -99999.99 -99999.99
7/20/2021 3:30:00 AM -99999.99 -179968 -99999.99 -99999.99 -99999.99 -99999.99
7/20/2021 3:45:00 AM -99999.99 -179968 -99999.99 -99999.99 -99999.99 -99999.99
7/20/2021 4:00:00 AM -99999.99 -179968 -99999.99 -99999.99 -99999.99 -99999.99
7/20/2021 4:15:00 AM -99999.99 -179968 -99999.99 -99999.99 -99999.99 -99999.99
7/20/2021 4:30:00 AM -99999.99 -179968 -99999.99 -99999.99 -99999.99 -99999.99
7/20/2021 4:45:00 AM -99999.99 -179968 -99999.99 -99999.99 -99999.99 -99999.99
7/20/2021 5:00:00 AM -99999.99 -179968 -99999.99 -99999.99 -99999.99 -99999.99
7/20/2021 5:15:00 AM -99999.99 -179968 -99999.99 -99999.99 -99999.99 -99999.99
7/20/2021 5:30:00 AM -99999.99 -179968 -99999.99 -99999.99 -99999.99 -99999.99
7/20/2021 5:45:00 AM -99999.99 -179968 -99999.99 -99999.99 -99999.99 -99999.99
7/20/2021 6:00:00 AM -99999.99 -179968 -99999.99 -99999.99 -99999.99 -99999.99
7/20/2021 6:15:00 AM -99999.99 -179968 -99999.99 -99999.99 -99999.99 -99999.99
7/20/2021 6:30:00 AM -99999.99 -179968 -99999.99 -99999.99 -99999.99 -99999.99
7/20/2021 6:45:00 AM -99999.99 -179968 -99999.99 -99999.99 -99999.99 -99999.99
7/20/2021 7:00:00 AM -99999.99 -179968 -99999.99 -99999.99 -99999.99 -99999.99
7/20/2021 7:15:00 AM -99999.99 -179968 -99999.99 -99999.99 -99999.99 -99999.99
7/20/2021 7:30:00 AM -99999.99 -179968 -99999.99 -99999.99 -99999.99 -99999.99
7/20/2021 7:45:00 AM -99999.99 -179968 -99999.99 -99999.99 -99999.99 -99999.99
7/20/2021 8:00:00 AM -99999.99 -179968 -99999.99 -99999.99 -99999.99 -99999.99
7/20/2021 8:15:00 AM -99999.99 -179968 -99999.99 -99999.99 -99999.99 -99999.99
7/20/2021 8:30:00 AM -99999.99 -179968 -99999.99 -99999.99 -99999.99 -99999.99
7/20/2021 8:45:00 AM -99999.99 -179968 -99999.99 -99999.99 -99999.99 -99999.99
7/20/2021 9:00:00 AM -99999.99 -179968 -99999.99 -99999.99 -99999.99 -99999.99
7/20/2021 9:15:00 AM -99999.99 -179968 -99999.99 -99999.99 -99999.99 -99999.99
7/20/2021 9:30:00 AM -99999.99 -179968 -99999.99 -99999.99 -99999.99 -99999.99
7/20/2021 9:45:00 AM -99999.99 -179968 -99999.99 -99999.99 -99999.99 -99999.99
7/20/2021 10:00:00 AM -99999.99 -179968 -99999.99 -99999.99 -99999.99 -99999.99
7/20/2021 10:15:00 AM -99999.99 -179968 -99999.99 -99999.99 -99999.99 -99999.99
7/20/2021 10:30:00 AM -99999.99 -179968 -99999.99 -99999.99 -99999.99 -99999.99
7/20/2021 10:45:00 AM -99999.99 -179968 -99999.99 -99999.99 -99999.99 -99999.99
7/20/2021 11:00:00 AM -99999.99 -179968 -99999.99 -99999.99 -99999.99 -99999.99
7/20/2021 11:15:00 AM -99999.99 -179968 -99999.99 -99999.99 -99999.99 -99999.99
7/20/2021 11:30:00 AM -99999.99 -179968 -99999.99 -99999.99 -99999.99 -99999.99
7/20/2021 11:45:00 AM -99999.99 -179968 -99999.99 -99999.99 -99999.99 -99999.99
7/20/2021 12:00:00 PM -99999.99 -179968 -99999.99 -99999.99 -99999.99 -99999.99
7/20/2021 12:15:00 PM -99999.99 -179968 -99999.99 -99999.99 -99999.99 -99999.99
7/20/2021 12:30:00 PM -99999.99 -179968 -99999.99 -99999.99 -99999.99 -99999.99
7/20/2021 12:45:00 PM -99999.99 -179968 -99999.99 -99999.99 -99999.99 -99999.99
7/20/2021 1:00:00 PM -99999.99 -179968 -99999.99 -99999.99 -99999.99 -99999.99
7/20/2021 1:15:00 PM -99999.99 -179968 -99999.99 -99999.99 -99999.99 -99999.99
7/20/2021 1:30:00 PM -99999.99 -179968 -99999.99 -99999.99 -99999.99 -99999.99
7/20/2021 1:45:00 PM -99999.99 -179968 -99999.99 -99999.99 -99999.99 -99999.99
7/20/2021 2:00:00 PM -99999.99 -179968 -99999.99 -99999.99 -99999.99 -99999.99
7/20/2021 2:15:00 PM -99999.99 -179968 -99999.99 -99999.99 -99999.99 -99999.99
7/20/2021 2:30:00 PM -99999.99 -179968 -99999.99 -99999.99 -99999.99 -99999.99
7/20/2021 2:45:00 PM -99999.99 -179968 -99999.99 -99999.99 -99999.99 -99999.99
7/20/2021 3:00:00 PM -99999.99 -179968 -99999.99 -99999.99 -99999.99 -99999.99
7/20/2021 3:15:00 PM -99999.99 -179968 -99999.99 -99999.99 -99999.99 -99999.99
7/20/2021 3:30:00 PM -99999.99 -179968 -99999.99 -99999.99 -99999.99 -99999.99
7/20/2021 3:45:00 PM -99999.99 -179968 -99999.99 -99999.99 -99999.99 -99999.99
7/20/2021 4:00:00 PM -99999.99 -179968 -99999.99 -99999.99 -99999.99 -99999.99
7/20/2021 4:15:00 PM -99999.99 -179968 -99999.99 -99999.99 -99999.99 -99999.99
7/20/2021 4:30:00 PM -99999.99 -179968 -99999.99 -99999.99 -99999.99 -99999.99
7/20/2021 4:45:00 PM -99999.99 -179968 -99999.99 -99999.99 -99999.99 -99999.99
7/20/2021 5:00:00 PM -99999.99 -179968 -99999.99 -99999.99 -99999.99 -99999.99
7/20/2021 5:15:00 PM -99999.99 -179968 -99999.99 -99999.99 -99999.99 -99999.99
7/20/2021 5:30:00 PM -99999.99 -179968 -99999.99 -99999.99 -99999.99 -99999.99
7/20/2021 5:45:00 PM -99999.99 -179968 -99999.99 -99999.99 -99999.99 -99999.99
7/20/2021 6:00:00 PM -99999.99 -179968 -99999.99 -99999.99 -99999.99 -99999.99
7/20/2021 6:15:00 PM -99999.99 -179968 -99999.99 -99999.99 -99999.99 -99999.99
7/20/2021 6:30:00 PM -99999.99 -179968 -99999.99 -99999.99 -99999.99 -99999.99
7/20/2021 6:45:00 PM -99999.99 -179968 -99999.99 -99999.99 -99999.99 -99999.99
7/20/2021 7:00:00 PM -99999.99 -179968 -99999.99 -99999.99 -99999.99 -99999.99
7/20/2021 7:15:00 PM -99999.99 -179968 -99999.99 -99999.99 -99999.99 -99999.99
7/20/2021 7:30:00 PM -99999.99 -179968 -99999.99 -99999.99 -99999.99 -99999.99
7/20/2021 7:45:00 PM -99999.99 -179968 -99999.99 -99999.99 -99999.99 -99999.99
7/20/2021 8:00:00 PM -99999.99 -179968 -99999.99 -99999.99 -99999.99 -99999.99
7/20/2021 8:15:00 PM -99999.99 -179968 -99999.99 -99999.99 -99999.99 -99999.99
7/20/2021 8:30:00 PM -99999.99 -179968 -99999.99 -99999.99 -99999.99 -99999.99
7/20/2021 8:45:00 PM -99999.99 -179968 -99999.99 -99999.99 -99999.99 -99999.99
7/20/2021 9:00:00 PM -99999.99 -179968 -99999.99 -99999.99 -99999.99 -99999.99
7/20/2021 9:15:00 PM -99999.99 -179968 -99999.99 -99999.99 -99999.99 -99999.99
7/20/2021 9:30:00 PM -99999.99 -179968 -99999.99 -99999.99 -99999.99 -99999.99
7/20/2021 9:45:00 PM -99999.99 -179968 -99999.99 -99999.99 -99999.99 -99999.99
7/20/2021 10:00:00 PM -99999.99 -179968 -99999.99 -99999.99 -99999.99 -99999.99
7/20/2021 10:15:00 PM -99999.99 -179968 -99999.99 -99999.99 -99999.99 -99999.99
7/20/2021 10:30:00 PM -99999.99 -179968 -99999.99 -99999.99 -99999.99 -99999.99
7/20/2021 10:45:00 PM -99999.99 -179968 -99999.99 -99999.99 -99999.99 -99999.99
7/20/2021 11:00:00 PM -99999.99 -179968 -99999.99 -99999.99 -99999.99 -99999.99
7/20/2021 11:15:00 PM -99999.99 -179968 -99999.99 -99999.99 -99999.99 -99999.99
7/20/2021 11:30:00 PM -99999.99 -179968 -99999.99 -99999.99 -99999.99 -99999.99
7/20/2021 11:45:00 PM -99999.99 -179968 -99999.99 -99999.99 -99999.99 -99999.99
7/21/2021 12:00:00 AM -99999.99 -179968 -99999.99 -99999.99 -99999.99 -99999.99
7/21/2021 12:15:00 AM -99999.99 -179968 -99999.99 -99999.99 -99999.99 -99999.99
7/21/2021 12:30:00 AM -99999.99 -179968 -99999.99 -99999.99 -99999.99 -99999.99
7/21/2021 12:45:00 AM -99999.99 -179968 -99999.99 -99999.99 -99999.99 -99999.99
7/21/2021 1:00:00 AM -99999.99 -179968 -99999.99 -99999.99 -99999.99 -99999.99
7/21/2021 1:15:00 AM -99999.99 -179968 -99999.99 -99999.99 -99999.99 -99999.99
7/21/2021 1:30:00 AM -99999.99 -179968 -99999.99 -99999.99 -99999.99 -99999.99
7/21/2021 1:45:00 AM -99999.99 -179968 -99999.99 -99999.99 -99999.99 -99999.99
7/21/2021 2:00:00 AM -99999.99 -179968 -99999.99 -99999.99 -99999.99 -99999.99
7/21/2021 2:15:00 AM -99999.99 -179968 -99999.99 -99999.99 -99999.99 -99999.99
7/21/2021 2:30:00 AM -99999.99 -179968 -99999.99 -99999.99 -99999.99 -99999.99
7/21/2021 2:45:00 AM -99999.99 -179968 -99999.99 -99999.99 -99999.99 -99999.99
7/21/2021 3:00:00 AM -99999.99 -179968 -99999.99 -99999.99 -99999.99 -99999.99
7/21/2021 3:15:00 AM -99999.99 -179968 -99999.99 -99999.99 -99999.99 -99999.99
7/21/2021 3:30:00 AM -99999.99 -179968 -99999.99 -99999.99 -99999.99 -99999.99
7/21/2021 3:45:00 AM -99999.99 -179968 -99999.99 -99999.99 -99999.99 -99999.99
7/21/2021 4:00:00 AM -99999.99 -179968 -99999.99 -99999.99 -99999.99 -99999.99
7/21/2021 4:15:00 AM -99999.99 -179968 -99999.99 -99999.99 -99999.99 -99999.99
7/21/2021 4:30:00 AM -99999.99 -179968 -99999.99 -99999.99 -99999.99 -99999.99
7/21/2021 4:45:00 AM -99999.99 -179968 -99999.99 -99999.99 -99999.99 -99999.99
7/21/2021 5:00:00 AM -99999.99 -179968 -99999.99 -99999.99 -99999.99 -99999.99
7/21/2021 5:15:00 AM -99999.99 -179968 -99999.99 -99999.99 -99999.99 -99999.99
7/21/2021 5:30:00 AM -99999.99 -179968 -99999.99 -99999.99 -99999.99 -99999.99
7/21/2021 5:45:00 AM -99999.99 -179968 -99999.99 -99999.99 -99999.99 -99999.99
7/21/2021 6:00:00 AM -99999.99 -179968 -99999.99 -99999.99 -99999.99 -99999.99
7/21/2021 6:15:00 AM -99999.99 -179968 -99999.99 -99999.99 -99999.99 -99999.99
7/21/2021 6:30:00 AM -99999.99 -179968 -99999.99 -99999.99 -99999.99 -99999.99
7/21/2021 6:45:00 AM -99999.99 -179968 -99999.99 -99999.99 -99999.99 -99999.99
7/21/2021 7:00:00 AM -99999.99 -179968 -99999.99 -99999.99 -99999.99 -99999.99
7/21/2021 7:15:00 AM -99999.99 -179968 -99999.99 -99999.99 -99999.99 -99999.99
7/21/2021 7:30:00 AM -99999.99 -179968 -99999.99 -99999.99 -99999.99 -99999.99
7/21/2021 7:45:00 AM -99999.99 -179968 -99999.99 -99999.99 -99999.99 -99999.99
7/21/2021 8:00:00 AM -99999.99 -179968 -99999.99 -99999.99 -99999.99 -99999.99
7/21/2021 8:15:00 AM -99999.99 -179968 -99999.99 -99999.99 -99999.99 -99999.99
7/21/2021 8:30:00 AM -99999.99 -179968 -99999.99 -99999.99 -99999.99 -99999.99
7/21/2021 8:45:00 AM -99999.99 -179968 -99999.99 -99999.99 -99999.99 -99999.99
7/21/2021 9:00:00 AM -99999.99 -179968 -99999.99 -99999.99 -99999.99 -99999.99
7/21/2021 9:15:00 AM -99999.99 -179968 -99999.99 -99999.99 -99999.99 -99999.99
7/21/2021 9:30:00 AM -99999.99 -179968 -99999.99 -99999.99 -99999.99 -99999.99
7/21/2021 9:45:00 AM -99999.99 -179968 -99999.99 -99999.99 -99999.99 -99999.99
7/21/2021 10:00:00 AM -99999.99 -179968 -99999.99 -99999.99 -99999.99 -99999.99
7/21/2021 10:15:00 AM -99999.99 -179968 -99999.99 -99999.99 -99999.99 -99999.99
7/21/2021 10:30:00 AM -99999.99 -179968 -99999.99 -99999.99 -99999.99 -99999.99
7/21/2021 10:45:00 AM -99999.99 -179968 -99999.99 -99999.99 -99999.99 -99999.99
7/21/2021 11:00:00 AM -99999.99 -179968 -99999.99 -99999.99 -99999.99 -99999.99
7/21/2021 11:15:00 AM -99999.99 -179968 -99999.99 -99999.99 -99999.99 -99999.99
7/21/2021 11:30:00 AM -99999.99 -179968 -99999.99 -99999.99 -99999.99 -99999.99
7/21/2021 11:45:00 AM -99999.99 -179968 -99999.99 -99999.99 -99999.99 -99999.99
7/21/2021 12:00:00 PM -99999.99 -179968 -99999.99 -99999.99 -99999.99 -99999.99
7/21/2021 12:15:00 PM -99999.99 -179968 -99999.99 -99999.99 -99999.99 -99999.99
7/21/2021 12:30:00 PM -99999.99 -179968 -99999.99 -99999.99 -99999.99 -99999.99
7/21/2021 12:45:00 PM -99999.99 -179968 -99999.99 -99999.99 -99999.99 -99999.99
7/21/2021 1:00:00 PM -99999.99 -179968 -99999.99 -99999.99 -99999.99 -99999.99
7/21/2021 1:15:00 PM -99999.99 -179968 -99999.99 -99999.99 -99999.99 -99999.99
7/21/2021 1:30:00 PM -99999.99 -179968 -99999.99 -99999.99 -99999.99 -99999.99
7/21/2021 1:45:00 PM -99999.99 -179968 -99999.99 -99999.99 -99999.99 -99999.99
7/21/2021 2:00:00 PM -99999.99 -179968 -99999.99 -99999.99 -99999.99 -99999.99
7/21/2021 2:15:00 PM -99999.99 -179968 -99999.99 -99999.99 -99999.99 -99999.99
7/21/2021 2:30:00 PM -99999.99 -179968 -99999.99 -99999.99 -99999.99 -99999.99
7/21/2021 2:45:00 PM -99999.99 -179968 -99999.99 -99999.99 -99999.99 -99999.99
7/21/2021 3:00:00 PM -99999.99 -179968 -99999.99 -99999.99 -99999.99 -99999.99
7/21/2021 3:15:00 PM -99999.99 -179968 -99999.99 -99999.99 -99999.99 -99999.99
7/21/2021 3:30:00 PM -99999.99 -179968 -99999.99 -99999.99 -99999.99 -99999.99
7/21/2021 3:45:00 PM -99999.99 -179968 -99999.99 -99999.99 -99999.99 -99999.99
7/21/2021 4:00:00 PM -99999.99 -179968 -99999.99 -99999.99 -99999.99 -99999.99
7/21/2021 4:15:00 PM -99999.99 -179968 -99999.99 -99999.99 -99999.99 -99999.99
7/21/2021 4:30:00 PM -99999.99 -179968 -99999.99 -99999.99 -99999.99 -99999.99
7/21/2021 4:45:00 PM -99999.99 -179968 -99999.99 -99999.99 -99999.99 -99999.99
7/21/2021 5:00:00 PM -99999.99 -179968 -99999.99 -99999.99 -99999.99 -99999.99
7/21/2021 5:15:00 PM -99999.99 -179968 -99999.99 -99999.99 -99999.99 -99999.99
7/21/2021 5:30:00 PM -99999.99 -179968 -99999.99 -99999.99 -99999.99 -99999.99
7/21/2021 5:45:00 PM -99999.99 -179968 -99999.99 -99999.99 -99999.99 -99999.99
7/21/2021 6:00:00 PM -99999.99 -179968 -99999.99 -99999.99 -99999.99 -99999.99
7/21/2021 6:15:00 PM -99999.99 -179968 -99999.99 -99999.99 -99999.99 -99999.99
7/21/2021 6:30:00 PM -99999.99 -179968 -99999.99 -99999.99 -99999.99 -99999.99
7/21/2021 6:45:00 PM -99999.99 -179968 -99999.99 -99999.99 -99999.99 -99999.99
7/21/2021 7:00:00 PM -99999.99 -179968 -99999.99 -99999.99 -99999.99 -99999.99
7/21/2021 7:15:00 PM -99999.99 -179968 -99999.99 -99999.99 -99999.99 -99999.99
7/21/2021 7:30:00 PM -99999.99 -179968 -99999.99 -99999.99 -99999.99 -99999.99
7/21/2021 7:45:00 PM -99999.99 -179968 -99999.99 -99999.99 -99999.99 -99999.99
7/21/2021 8:00:00 PM -99999.99 -179968 -99999.99 -99999.99 -99999.99 -99999.99
7/21/2021 8:15:00 PM -99999.99 -179968 -99999.99 -99999.99 -99999.99 -99999.99
7/21/2021 8:30:00 PM -99999.99 -179968 -99999.99 -99999.99 -99999.99 -99999.99
7/21/2021 8:45:00 PM -99999.99 -179968 -99999.99 -99999.99 -99999.99 -99999.99
7/21/2021 9:00:00 PM -99999.99 -179968 -99999.99 -99999.99 -99999.99 -99999.99
7/21/2021 9:15:00 PM -99999.99 -179968 -99999.99 -99999.99 -99999.99 -99999.99
7/21/2021 9:30:00 PM -99999.99 -179968 -99999.99 -99999.99 -99999.99 -99999.99
7/21/2021 9:45:00 PM -99999.99 -179968 -99999.99 -99999.99 -99999.99 -99999.99
7/21/2021 10:00:00 PM -99999.99 -179968 -99999.99 -99999.99 -99999.99 -99999.99
7/21/2021 10:15:00 PM -99999.99 -179968 -99999.99 -99999.99 -99999.99 -99999.99
7/21/2021 10:30:00 PM -99999.99 -179968 -99999.99 -99999.99 -99999.99 -99999.99
7/21/2021 10:45:00 PM -99999.99 -179968 -99999.99 -99999.99 -99999.99 -99999.99
7/21/2021 11:00:00 PM -99999.99 -179968 -99999.99 -99999.99 -99999.99 -99999.99
7/21/2021 11:15:00 PM -99999.99 -179968 -99999.99 -99999.99 -99999.99 -99999.99
7/21/2021 11:30:00 PM -99999.99 -179968 -99999.99 -99999.99 -99999.99 -99999.99
7/21/2021 11:45:00 PM -99999.99 -179968 -99999.99 -99999.99 -99999.99 -99999.99
7/22/2021 12:00:00 AM -99999.99 -179968 -99999.99 -99999.99 -99999.99 -99999.99
7/22/2021 12:15:00 AM -99999.99 -179968 -99999.99 -99999.99 -99999.99 -99999.99
7/22/2021 12:30:00 AM -99999.99 -179968 -99999.99 -99999.99 -99999.99 -99999.99
7/22/2021 12:45:00 AM -99999.99 -179968 -99999.99 -99999.99 -99999.99 -99999.99
7/22/2021 1:00:00 AM -99999.99 -179968 -99999.99 -99999.99 -99999.99 -99999.99
7/22/2021 1:15:00 AM -99999.99 -179968 -99999.99 -99999.99 -99999.99 -99999.99
7/22/2021 1:30:00 AM -99999.99 -179968 -99999.99 -99999.99 -99999.99 -99999.99
7/22/2021 1:45:00 AM -99999.99 -179968 -99999.99 -99999.99 -99999.99 -99999.99
7/22/2021 2:00:00 AM -99999.99 -179968 -99999.99 -99999.99 -99999.99 -99999.99
7/22/2021 2:15:00 AM -99999.99 -179968 -99999.99 -99999.99 -99999.99 -99999.99
7/22/2021 2:30:00 AM -99999.99 -179968 -99999.99 -99999.99 -99999.99 -99999.99
7/22/2021 2:45:00 AM -99999.99 -179968 -99999.99 -99999.99 -99999.99 -99999.99
7/22/2021 3:00:00 AM -99999.99 -179968 -99999.99 -99999.99 -99999.99 -99999.99
7/22/2021 3:15:00 AM -99999.99 -179968 -99999.99 -99999.99 -99999.99 -99999.99
7/22/2021 3:30:00 AM -99999.99 -179968 -99999.99 -99999.99 -99999.99 -99999.99
7/22/2021 3:45:00 AM -99999.99 -179968 -99999.99 -99999.99 -99999.99 -99999.99
7/22/2021 4:00:00 AM -99999.99 -179968 -99999.99 -99999.99 -99999.99 -99999.99
7/22/2021 4:15:00 AM -99999.99 -179968 -99999.99 -99999.99 -99999.99 -99999.99
7/22/2021 4:30:00 AM -99999.99 -179968 -99999.99 -99999.99 -99999.99 -99999.99
7/22/2021 4:45:00 AM -99999.99 -179968 -99999.99 -99999.99 -99999.99 -99999.99
7/22/2021 5:00:00 AM -99999.99 -179968 -99999.99 -99999.99 -99999.99 -99999.99
7/22/2021 5:15:00 AM -99999.99 -179968 -99999.99 -99999.99 -99999.99 -99999.99
7/22/2021 5:30:00 AM -99999.99 -179968 -99999.99 -99999.99 -99999.99 -99999.99
7/22/2021 5:45:00 AM -99999.99 -179968 -99999.99 -99999.99 -99999.99 -99999.99
7/22/2021 6:00:00 AM -99999.99 -179968 -99999.99 -99999.99 -99999.99 -99999.99
7/22/2021 6:15:00 AM -99999.99 -179968 -99999.99 -99999.99 -99999.99 -99999.99
7/22/2021 6:30:00 AM -99999.99 -179968 -99999.99 -99999.99 -99999.99 -99999.99
7/22/2021 6:45:00 AM -99999.99 -179968 -99999.99 -99999.99 -99999.99 -99999.99
7/22/2021 7:00:00 AM -99999.99 -179968 -99999.99 -99999.99 -99999.99 -99999.99
7/22/2021 7:15:00 AM -99999.99 -179968 -99999.99 -99999.99 -99999.99 -99999.99
7/22/2021 7:30:00 AM -99999.99 -179968 -99999.99 -99999.99 -99999.99 -99999.99
7/22/2021 7:45:00 AM -99999.99 -179968 -99999.99 -99999.99 -99999.99 -99999.99
7/22/2021 8:00:00 AM -99999.99 -179968 -99999.99 -99999.99 -99999.99 -99999.99
7/22/2021 8:15:00 AM -99999.99 -179968 -99999.99 -99999.99 -99999.99 -99999.99
7/22/2021 8:30:00 AM -99999.99 -179968 -99999.99 -99999.99 -99999.99 -99999.99
7/22/2021 8:45:00 AM -99999.99 -179968 -99999.99 -99999.99 -99999.99 -99999.99
7/22/2021 9:00:00 AM -99999.99 -179968 -99999.99 -99999.99 -99999.99 -99999.99
7/22/2021 9:15:00 AM -99999.99 -179968 -99999.99 -99999.99 -99999.99 -99999.99
7/22/2021 9:30:00 AM -99999.99 -179968 -99999.99 -99999.99 -99999.99 -99999.99
7/22/2021 9:45:00 AM -99999.99 -179968 -99999.99 -99999.99 -99999.99 -99999.99
7/22/2021 10:00:00 AM -99999.99 -179968 -99999.99 -99999.99 -99999.99 -99999.99
7/22/2021 10:15:00 AM -99999.99 -179968 -99999.99 -99999.99 -99999.99 -99999.99
7/22/2021 10:30:00 AM -99999.99 -179968 -99999.99 -99999.99 -99999.99 -99999.99
7/22/2021 10:45:00 AM -99999.99 -179968 -99999.99 -99999.99 -99999.99 -99999.99
7/22/2021 11:00:00 AM -99999.99 -179968 -99999.99 -99999.99 -99999.99 -99999.99
7/22/2021 11:15:00 AM -99999.99 -179968 -99999.99 -99999.99 -99999.99 -99999.99
7/22/2021 11:30:00 AM -99999.99 -179968 -99999.99 -99999.99 -99999.99 -99999.99
7/22/2021 11:45:00 AM -99999.99 -179968 -99999.99 -99999.99 -99999.99 -99999.99
7/22/2021 12:00:00 PM -99999.99 -179968 -99999.99 -99999.99 -99999.99 -99999.99
7/22/2021 12:15:00 PM -99999.99 -179968 -99999.99 -99999.99 -99999.99 -99999.99
7/22/2021 12:30:00 PM -99999.99 -179968 -99999.99 -99999.99 -99999.99 -99999.99
7/22/2021 12:45:00 PM -99999.99 -179968 -99999.99 -99999.99 -99999.99 -99999.99
7/22/2021 1:00:00 PM -99999.99 -179968 -99999.99 -99999.99 -99999.99 -99999.99
7/22/2021 1:15:00 PM -99999.99 -179968 -99999.99 -99999.99 -99999.99 -99999.99
7/22/2021 1:30:00 PM -99999.99 -179968 -99999.99 -99999.99 -99999.99 -99999.99
7/22/2021 1:45:00 PM -99999.99 -179968 -99999.99 -99999.99 -99999.99 -99999.99
7/22/2021 2:00:00 PM -99999.99 -179968 -99999.99 -99999.99 -99999.99 -99999.99
7/22/2021 2:15:00 PM -99999.99 -179968 -99999.99 -99999.99 -99999.99 -99999.99
7/22/2021 2:30:00 PM -99999.99 -179968 -99999.99 -99999.99 -99999.99 -99999.99
7/22/2021 2:45:00 PM -99999.99 -179968 -99999.99 -99999.99 -99999.99 -99999.99
7/22/2021 3:00:00 PM -99999.99 -179968 -99999.99 -99999.99 -99999.99 -99999.99
7/22/2021 3:15:00 PM -99999.99 -179968 -99999.99 -99999.99 -99999.99 -99999.99
7/22/2021 3:30:00 PM -99999.99 -179968 -99999.99 -99999.99 -99999.99 -99999.99
7/22/2021 3:45:00 PM -99999.99 -179968 -99999.99 -99999.99 -99999.99 -99999.99
7/22/2021 4:00:00 PM -99999.99 -179968 -99999.99 -99999.99 -99999.99 -99999.99
7/22/2021 4:15:00 PM -99999.99 -179968 -99999.99 -99999.99 -99999.99 -99999.99
7/22/2021 4:30:00 PM -99999.99 -179968 -99999.99 -99999.99 -99999.99 -99999.99
7/22/2021 4:45:00 PM -99999.99 -179968 -99999.99 -99999.99 -99999.99 -99999.99
7/22/2021 5:00:00 PM -99999.99 -179968 -99999.99 -99999.99 -99999.99 -99999.99
7/22/2021 5:15:00 PM -99999.99 -179968 -99999.99 -99999.99 -99999.99 -99999.99
7/22/2021 5:30:00 PM -99999.99 -179968 -99999.99 -99999.99 -99999.99 -99999.99
7/22/2021 5:45:00 PM -99999.99 -179968 -99999.99 -99999.99 -99999.99 -99999.99
7/22/2021 6:00:00 PM -99999.99 -179968 -99999.99 -99999.99 -99999.99 -99999.99
7/22/2021 6:15:00 PM -99999.99 -179968 -99999.99 -99999.99 -99999.99 -99999.99
7/22/2021 6:30:00 PM -99999.99 -179968 -99999.99 -99999.99 -99999.99 -99999.99
7/22/2021 6:45:00 PM -99999.99 -179968 -99999.99 -99999.99 -99999.99 -99999.99
7/22/2021 7:00:00 PM -99999.99 -179968 -99999.99 -99999.99 -99999.99 -99999.99
7/22/2021 7:15:00 PM -99999.99 -179968 -99999.99 -99999.99 -99999.99 -99999.99
7/22/2021 7:30:00 PM -99999.99 -179968 -99999.99 -99999.99 -99999.99 -99999.99
7/22/2021 7:45:00 PM -99999.99 -179968 -99999.99 -99999.99 -99999.99 -99999.99
7/22/2021 8:00:00 PM -99999.99 -179968 -99999.99 -99999.99 -99999.99 -99999.99
7/22/2021 8:15:00 PM -99999.99 -179968 -99999.99 -99999.99 -99999.99 -99999.99
7/22/2021 8:30:00 PM -99999.99 -179968 -99999.99 -99999.99 -99999.99 -99999.99
7/22/2021 8:45:00 PM -99999.99 -179968 -99999.99 -99999.99 -99999.99 -99999.99
7/22/2021 9:00:00 PM -99999.99 -179968 -99999.99 -99999.99 -99999.99 -99999.99
7/22/2021 9:15:00 PM -99999.99 -179968 -99999.99 -99999.99 -99999.99 -99999.99
7/22/2021 9:30:00 PM -99999.99 -179968 -99999.99 -99999.99 -99999.99 -99999.99
7/22/2021 9:45:00 PM -99999.99 -179968 -99999.99 -99999.99 -99999.99 -99999.99
7/22/2021 10:00:00 PM -99999.99 -179968 -99999.99 -99999.99 -99999.99 -99999.99
7/22/2021 10:15:00 PM -99999.99 -179968 -99999.99 -99999.99 -99999.99 -99999.99
7/22/2021 10:30:00 PM -99999.99 -179968 -99999.99 -99999.99 -99999.99 -99999.99
7/22/2021 10:45:00 PM -99999.99 -179968 -99999.99 -99999.99 -99999.99 -99999.99
7/22/2021 11:00:00 PM -99999.99 -179968 -99999.99 -99999.99 -99999.99 -99999.99
7/22/2021 11:15:00 PM -99999.99 -179968 -99999.99 -99999.99 -99999.99 -99999.99
7/22/2021 11:30:00 PM -99999.99 -179968 -99999.99 -99999.99 -99999.99 -99999.99
7/22/2021 11:45:00 PM -99999.99 -179968 -99999.99 -99999.99 -99999.99 -99999.99
7/23/2021 12:00:00 AM -99999.99 -179968 -99999.99 -99999.99 -99999.99 -99999.99
7/23/2021 12:15:00 AM -99999.99 -179968 -99999.99 -99999.99 -99999.99 -99999.99
7/23/2021 12:30:00 AM -99999.99 -179968 -99999.99 -99999.99 -99999.99 -99999.99
7/23/2021 12:45:00 AM -99999.99 -179968 -99999.99 -99999.99 -99999.99 -99999.99
7/23/2021 1:00:00 AM -99999.99 -179968 -99999.99 -99999.99 -99999.99 -99999.99
7/23/2021 1:15:00 AM -99999.99 -179968 -99999.99 -99999.99 -99999.99 -99999.99
7/23/2021 1:30:00 AM -99999.99 -179968 -99999.99 -99999.99 -99999.99 -99999.99
7/23/2021 1:45:00 AM -99999.99 -179968 -99999.99 -99999.99 -99999.99 -99999.99
7/23/2021 2:00:00 AM -99999.99 -179968 -99999.99 -99999.99 -99999.99 -99999.99
7/23/2021 2:15:00 AM -99999.99 -179968 -99999.99 -99999.99 -99999.99 -99999.99
7/23/2021 2:30:00 AM -99999.99 -179968 -99999.99 -99999.99 -99999.99 -99999.99
7/23/2021 2:45:00 AM -99999.99 -179968 -99999.99 -99999.99 -99999.99 -99999.99
7/23/2021 3:00:00 AM -99999.99 -179968 -99999.99 -99999.99 -99999.99 -99999.99
7/23/2021 3:15:00 AM -99999.99 -179968 -99999.99 -99999.99 -99999.99 -99999.99
7/23/2021 3:30:00 AM -99999.99 -179968 -99999.99 -99999.99 -99999.99 -99999.99
7/23/2021 3:45:00 AM -99999.99 -179968 -99999.99 -99999.99